<?xml version="1.0"?>
<gpx xmlns="http://www.topografix.com/GPX/1/1" xmlns:xsi="http://www.w3.org/2001/XMLSchema-instance" xmlns:wptx1="http://www.garmin.com/xmlschemas/WaypointExtension/v1" xmlns:gpxtrx="http://www.garmin.com/xmlschemas/GpxExtensions/v3" xmlns:gpxtpx="http://www.garmin.com/xmlschemas/TrackPointExtension/v1" xmlns:gpxx="http://www.garmin.com/xmlschemas/GpxExtensions/v3" xmlns:trp="http://www.garmin.com/xmlschemas/TripExtensions/v1" xmlns:adv="http://www.garmin.com/xmlschemas/AdventuresExtensions/v1" xmlns:prs="http://www.garmin.com/xmlschemas/PressureExtension/v1" xmlns:tmd="http://www.garmin.com/xmlschemas/TripMetaDataExtensions/v1" xmlns:vptm="http://www.garmin.com/xmlschemas/ViaPointTransportationModeExtensions/v1" xmlns:ctx="http://www.garmin.com/xmlschemas/CreationTimeExtension/v1" creator="Garmin Desktop App" version="1.1" xsi:schemaLocation="http://www.topografix.com/GPX/1/1 http://www.topografix.com/GPX/1/1/gpx.xsd http://www.garmin.com/xmlschemas/WaypointExtension/v1 http://www8.garmin.com/xmlschemas/WaypointExtensionv1.xsd http://www.garmin.com/xmlschemas/TrackPointExtension/v1 http://www.garmin.com/xmlschemas/TrackPointExtensionv1.xsd http://www.garmin.com/xmlschemas/GpxExtensions/v3 http://www8.garmin.com/xmlschemas/GpxExtensionsv3.xsd http://www.garmin.com/xmlschemas/ActivityExtension/v1 http://www8.garmin.com/xmlschemas/ActivityExtensionv1.xsd http://www.garmin.com/xmlschemas/AdventuresExtensions/v1 http://www8.garmin.com/xmlschemas/AdventuresExtensionv1.xsd http://www.garmin.com/xmlschemas/PressureExtension/v1 http://www.garmin.com/xmlschemas/PressureExtensionv1.xsd http://www.garmin.com/xmlschemas/TripExtensions/v1 http://www.garmin.com/xmlschemas/TripExtensionsv1.xsd http://www.garmin.com/xmlschemas/TripMetaDataExtensions/v1 http://www.garmin.com/xmlschemas/TripMetaDataExtensionsv1.xsd http://www.garmin.com/xmlschemas/ViaPointTransportationModeExtensions/v1 http://www.garmin.com/xmlschemas/ViaPointTransportationModeExtensionsv1.xsd http://www.garmin.com/xmlschemas/CreationTimeExtensions/v1 http://www.garmin.com/xmlschemas/CreationTimeExtensionsv1.xsd">

  <metadata>
    <link href="http://www.garmin.com">
      <text>Garmin International</text>
    </link>
    <time>2013-07-11T10:36:46Z</time>
    <bounds maxlat="47.743286434561014" maxlon="12.240413473919034" minlat="47.722434354946017" minlon="12.211326090618968"/>
  </metadata>

  <trk>
    <name>Feichteck 2013.07.10</name>
    <extensions>
      <gpxx:TrackExtension>
        <gpxx:DisplayColor>DarkMagenta</gpxx:DisplayColor>
      </gpxx:TrackExtension>
    </extensions>
    <trkseg>
      <trkpt lat="47.741640983149409" lon="12.212815135717392">
        <ele>783.131103515625</ele>
        <time>2013-07-10T16:42:14Z</time>
      </trkpt>
      <trkpt lat="47.7416449226439" lon="12.212815973907709">
        <ele>784.092529296875</ele>
        <time>2013-07-10T16:43:14Z</time>
      </trkpt>
      <trkpt lat="47.741638887673616" lon="12.212839694693685">
        <ele>785.053955078125</ele>
        <time>2013-07-10T16:44:42Z</time>
      </trkpt>
      <trkpt lat="47.741633020341396" lon="12.212860146537423">
        <ele>784.5732421875</ele>
        <time>2013-07-10T16:44:52Z</time>
      </trkpt>
      <trkpt lat="47.741552386432886" lon="12.213061647489667">
        <ele>786.01513671875</ele>
        <time>2013-07-10T16:45:01Z</time>
      </trkpt>
      <trkpt lat="47.741492288187146" lon="12.213166337460279">
        <ele>786.976318359375</ele>
        <time>2013-07-10T16:45:07Z</time>
      </trkpt>
      <trkpt lat="47.741489019244909" lon="12.213154770433903">
        <ele>786.976318359375</ele>
        <time>2013-07-10T16:45:21Z</time>
      </trkpt>
      <trkpt lat="47.741445014253259" lon="12.213336490094662">
        <ele>786.976318359375</ele>
        <time>2013-07-10T16:45:29Z</time>
      </trkpt>
      <trkpt lat="47.741257511079311" lon="12.213563388213515">
        <ele>786.976318359375</ele>
        <time>2013-07-10T16:45:36Z</time>
      </trkpt>
      <trkpt lat="47.740985685959458" lon="12.213718369603157">
        <ele>784.092529296875</ele>
        <time>2013-07-10T16:45:40Z</time>
      </trkpt>
      <trkpt lat="47.740847049281001" lon="12.21397502347827">
        <ele>784.092529296875</ele>
        <time>2013-07-10T16:45:45Z</time>
      </trkpt>
      <trkpt lat="47.740826848894358" lon="12.214024979621172">
        <ele>784.5732421875</ele>
        <time>2013-07-10T16:45:46Z</time>
      </trkpt>
      <trkpt lat="47.740863058716059" lon="12.214160179719329">
        <ele>784.5732421875</ele>
        <time>2013-07-10T16:45:48Z</time>
      </trkpt>
      <trkpt lat="47.741050058975816" lon="12.214366206899285">
        <ele>786.976318359375</ele>
        <time>2013-07-10T16:45:53Z</time>
      </trkpt>
      <trkpt lat="47.741154497489333" lon="12.214475004002452">
        <ele>788.899169921875</ele>
        <time>2013-07-10T16:45:59Z</time>
      </trkpt>
      <trkpt lat="47.741089873015881" lon="12.21456142142415">
        <ele>790.341064453125</ele>
        <time>2013-07-10T16:46:08Z</time>
      </trkpt>
      <trkpt lat="47.741017369553447" lon="12.214722437784076">
        <ele>791.782958984375</ele>
        <time>2013-07-10T16:46:15Z</time>
      </trkpt>
      <trkpt lat="47.741035223007202" lon="12.214837437495589">
        <ele>792.263671875</ele>
        <time>2013-07-10T16:46:21Z</time>
      </trkpt>
      <trkpt lat="47.741041257977486" lon="12.214835174381733">
        <ele>792.744384765625</ele>
        <time>2013-07-10T16:46:22Z</time>
      </trkpt>
      <trkpt lat="47.741177631542087" lon="12.214900385588408">
        <ele>792.744384765625</ele>
        <time>2013-07-10T16:46:27Z</time>
      </trkpt>
      <trkpt lat="47.741354992613196" lon="12.215013625100255">
        <ele>793.224853515625</ele>
        <time>2013-07-10T16:46:33Z</time>
      </trkpt>
      <trkpt lat="47.741380641236901" lon="12.215045224875212">
        <ele>793.70556640625</ele>
        <time>2013-07-10T16:46:34Z</time>
      </trkpt>
      <trkpt lat="47.741506788879633" lon="12.215202134102583">
        <ele>793.70556640625</ele>
        <time>2013-07-10T16:46:39Z</time>
      </trkpt>
      <trkpt lat="47.741724886000156" lon="12.215207330882549">
        <ele>794.666748046875</ele>
        <time>2013-07-10T16:46:45Z</time>
      </trkpt>
      <trkpt lat="47.741924040019512" lon="12.215350745245814">
        <ele>795.1474609375</ele>
        <time>2013-07-10T16:46:51Z</time>
      </trkpt>
      <trkpt lat="47.742209611460567" lon="12.215683255344629">
        <ele>795.628173828125</ele>
        <time>2013-07-10T16:47:00Z</time>
      </trkpt>
      <trkpt lat="47.74249317124486" lon="12.215830525383353">
        <ele>796.109130859375</ele>
        <time>2013-07-10T16:47:07Z</time>
      </trkpt>
      <trkpt lat="47.742537343874574" lon="12.215842427685857">
        <ele>796.109130859375</ele>
        <time>2013-07-10T16:47:08Z</time>
      </trkpt>
      <trkpt lat="47.742684110999107" lon="12.215929683297873">
        <ele>795.1474609375</ele>
        <time>2013-07-10T16:47:12Z</time>
      </trkpt>
      <trkpt lat="47.742745550349355" lon="12.215959941968322">
        <ele>795.1474609375</ele>
        <time>2013-07-10T16:47:14Z</time>
      </trkpt>
      <trkpt lat="47.742793159559369" lon="12.216133363544941">
        <ele>794.186279296875</ele>
        <time>2013-07-10T16:47:19Z</time>
      </trkpt>
      <trkpt lat="47.742760889232159" lon="12.216259175911546">
        <ele>794.666748046875</ele>
        <time>2013-07-10T16:47:24Z</time>
      </trkpt>
      <trkpt lat="47.742756279185414" lon="12.216280214488506">
        <ele>796.58984375</ele>
        <time>2013-07-10T16:47:29Z</time>
      </trkpt>
      <trkpt lat="47.742746723815799" lon="12.21627552062273">
        <ele>798.51220703125</ele>
        <time>2013-07-10T16:47:36Z</time>
      </trkpt>
      <trkpt lat="47.742718644440174" lon="12.216289015486836">
        <ele>798.992919921875</ele>
        <time>2013-07-10T16:47:43Z</time>
      </trkpt>
      <trkpt lat="47.742712693288922" lon="12.216300582513213">
        <ele>800.91552734375</ele>
        <time>2013-07-10T16:47:52Z</time>
      </trkpt>
      <trkpt lat="47.742647230625153" lon="12.216307204216719">
        <ele>801.396240234375</ele>
        <time>2013-07-10T16:47:59Z</time>
      </trkpt>
      <trkpt lat="47.742606494575739" lon="12.216316675767303">
        <ele>801.876953125</ele>
        <time>2013-07-10T16:48:04Z</time>
      </trkpt>
      <trkpt lat="47.742558801546693" lon="12.216291362419724">
        <ele>803.31884765625</ele>
        <time>2013-07-10T16:48:10Z</time>
      </trkpt>
      <trkpt lat="47.742551425471902" lon="12.216295721009374">
        <ele>803.31884765625</ele>
        <time>2013-07-10T16:48:11Z</time>
      </trkpt>
      <trkpt lat="47.742454027757049" lon="12.216307539492846">
        <ele>805.241455078125</ele>
        <time>2013-07-10T16:48:19Z</time>
      </trkpt>
      <trkpt lat="47.742442712187767" lon="12.216306366026402">
        <ele>804.2802734375</ele>
        <time>2013-07-10T16:48:20Z</time>
      </trkpt>
      <trkpt lat="47.742369538173079" lon="12.216321034356952">
        <ele>805.241455078125</ele>
        <time>2013-07-10T16:48:25Z</time>
      </trkpt>
      <trkpt lat="47.742326287552714" lon="12.216325476765633">
        <ele>806.20263671875</ele>
        <time>2013-07-10T16:48:31Z</time>
      </trkpt>
      <trkpt lat="47.742262417450547" lon="12.216354561969638">
        <ele>807.644775390625</ele>
        <time>2013-07-10T16:48:38Z</time>
      </trkpt>
      <trkpt lat="47.742191422730684" lon="12.21643477678299">
        <ele>808.60595703125</ele>
        <time>2013-07-10T16:48:45Z</time>
      </trkpt>
      <trkpt lat="47.742143059149384" lon="12.216474590823054">
        <ele>809.086669921875</ele>
        <time>2013-07-10T16:48:51Z</time>
      </trkpt>
      <trkpt lat="47.742110621184111" lon="12.216497976332903">
        <ele>811.00927734375</ele>
        <time>2013-07-10T16:48:57Z</time>
      </trkpt>
      <trkpt lat="47.742103664204478" lon="12.216505436226726">
        <ele>811.00927734375</ele>
        <time>2013-07-10T16:48:59Z</time>
      </trkpt>
      <trkpt lat="47.742059156298637" lon="12.216452211141586">
        <ele>812.451416015625</ele>
        <time>2013-07-10T16:49:06Z</time>
      </trkpt>
      <trkpt lat="47.742036692798138" lon="12.216430753469467">
        <ele>813.893310546875</ele>
        <time>2013-07-10T16:49:12Z</time>
      </trkpt>
      <trkpt lat="47.74197525344789" lon="12.216379623860121">
        <ele>815.816162109375</ele>
        <time>2013-07-10T16:49:19Z</time>
      </trkpt>
      <trkpt lat="47.741909539327025" lon="12.216377276927233">
        <ele>816.296630859375</ele>
        <time>2013-07-10T16:49:22Z</time>
      </trkpt>
      <trkpt lat="47.741883555427194" lon="12.216370068490505">
        <ele>815.816162109375</ele>
        <time>2013-07-10T16:49:24Z</time>
      </trkpt>
      <trkpt lat="47.741763694211841" lon="12.216365542262793">
        <ele>817.738525390625</ele>
        <time>2013-07-10T16:49:31Z</time>
      </trkpt>
      <trkpt lat="47.741660345345736" lon="12.216394124552608">
        <ele>818.21923828125</ele>
        <time>2013-07-10T16:49:36Z</time>
      </trkpt>
      <trkpt lat="47.741512069478631" lon="12.216428574174643">
        <ele>819.1806640625</ele>
        <time>2013-07-10T16:49:40Z</time>
      </trkpt>
      <trkpt lat="47.741456078365445" lon="12.216431926935911">
        <ele>819.1806640625</ele>
        <time>2013-07-10T16:49:42Z</time>
      </trkpt>
      <trkpt lat="47.741389609873295" lon="12.216480458155274">
        <ele>820.141845703125</ele>
        <time>2013-07-10T16:49:48Z</time>
      </trkpt>
      <trkpt lat="47.741325488314033" lon="12.216532006859779">
        <ele>821.583740234375</ele>
        <time>2013-07-10T16:49:53Z</time>
      </trkpt>
      <trkpt lat="47.741193808615208" lon="12.216599313542247">
        <ele>822.545166015625</ele>
        <time>2013-07-10T16:50:01Z</time>
      </trkpt>
      <trkpt lat="47.741104289889336" lon="12.216649772599339">
        <ele>823.506591796875</ele>
        <time>2013-07-10T16:50:08Z</time>
      </trkpt>
      <trkpt lat="47.740951487794518" lon="12.216624626889825">
        <ele>824.948486328125</ele>
        <time>2013-07-10T16:50:20Z</time>
      </trkpt>
      <trkpt lat="47.74084797129035" lon="12.216619178652763">
        <ele>826.390380859375</ele>
        <time>2013-07-10T16:50:28Z</time>
      </trkpt>
      <trkpt lat="47.740760548040271" lon="12.216568132862449">
        <ele>825.90966796875</ele>
        <time>2013-07-10T16:50:36Z</time>
      </trkpt>
      <trkpt lat="47.740584276616573" lon="12.216444918885827">
        <ele>823.987060546875</ele>
        <time>2013-07-10T16:50:41Z</time>
      </trkpt>
      <trkpt lat="47.740541193634272" lon="12.216413822025061">
        <ele>823.02587890625</ele>
        <time>2013-07-10T16:50:42Z</time>
      </trkpt>
      <trkpt lat="47.740308344364166" lon="12.216178206726909">
        <ele>823.987060546875</ele>
        <time>2013-07-10T16:50:47Z</time>
      </trkpt>
      <trkpt lat="47.740070968866348" lon="12.2159334551543">
        <ele>823.987060546875</ele>
        <time>2013-07-10T16:50:54Z</time>
      </trkpt>
      <trkpt lat="47.740048421546817" lon="12.21590026281774">
        <ele>824.4677734375</ele>
        <time>2013-07-10T16:50:55Z</time>
      </trkpt>
      <trkpt lat="47.740004835650325" lon="12.215785263106227">
        <ele>823.02587890625</ele>
        <time>2013-07-10T16:50:58Z</time>
      </trkpt>
      <trkpt lat="47.739987317472696" lon="12.21575022675097">
        <ele>822.545166015625</ele>
        <time>2013-07-10T16:50:59Z</time>
      </trkpt>
      <trkpt lat="47.739693950861692" lon="12.21558359451592">
        <ele>822.064453125</ele>
        <time>2013-07-10T16:51:03Z</time>
      </trkpt>
      <trkpt lat="47.739391196519136" lon="12.215324174612761">
        <ele>823.02587890625</ele>
        <time>2013-07-10T16:51:08Z</time>
      </trkpt>
      <trkpt lat="47.739208303391933" lon="12.215267680585384">
        <ele>823.506591796875</ele>
        <time>2013-07-10T16:51:11Z</time>
      </trkpt>
      <trkpt lat="47.739079222083092" lon="12.215136671438813">
        <ele>823.987060546875</ele>
        <time>2013-07-10T16:51:15Z</time>
      </trkpt>
      <trkpt lat="47.73903077468276" lon="12.215105993673205">
        <ele>823.987060546875</ele>
        <time>2013-07-10T16:51:16Z</time>
      </trkpt>
      <trkpt lat="47.738904627040029" lon="12.215029215440154">
        <ele>823.02587890625</ele>
        <time>2013-07-10T16:51:18Z</time>
      </trkpt>
      <trkpt lat="47.738728607073426" lon="12.214925698935986">
        <ele>823.02587890625</ele>
        <time>2013-07-10T16:51:21Z</time>
      </trkpt>
      <trkpt lat="47.738356785848737" lon="12.214671308174729">
        <ele>820.62255859375</ele>
        <time>2013-07-10T16:51:27Z</time>
      </trkpt>
      <trkpt lat="47.738273134455085" lon="12.214592602103949">
        <ele>820.62255859375</ele>
        <time>2013-07-10T16:51:28Z</time>
      </trkpt>
      <trkpt lat="47.737911036238074" lon="12.214199658483267">
        <ele>819.661376953125</ele>
        <time>2013-07-10T16:51:33Z</time>
      </trkpt>
      <trkpt lat="47.73782285861671" lon="12.214035876095295">
        <ele>820.62255859375</ele>
        <time>2013-07-10T16:51:35Z</time>
      </trkpt>
      <trkpt lat="47.737603923305869" lon="12.213796069845557">
        <ele>823.02587890625</ele>
        <time>2013-07-10T16:51:41Z</time>
      </trkpt>
      <trkpt lat="47.737469561398029" lon="12.213638657703996">
        <ele>824.4677734375</ele>
        <time>2013-07-10T16:51:47Z</time>
      </trkpt>
      <trkpt lat="47.737440643832088" lon="12.21357436850667">
        <ele>824.948486328125</ele>
        <time>2013-07-10T16:51:49Z</time>
      </trkpt>
      <trkpt lat="47.737290943041444" lon="12.213403126224875">
        <ele>826.390380859375</ele>
        <time>2013-07-10T16:51:57Z</time>
      </trkpt>
      <trkpt lat="47.737117018550634" lon="12.213312266394496">
        <ele>827.351806640625</ele>
        <time>2013-07-10T16:52:04Z</time>
      </trkpt>
      <trkpt lat="47.736907806247473" lon="12.213204558938742">
        <ele>829.2744140625</ele>
        <time>2013-07-10T16:52:11Z</time>
      </trkpt>
      <trkpt lat="47.736694319173694" lon="12.213096767663956">
        <ele>831.197265625</ele>
        <time>2013-07-10T16:52:19Z</time>
      </trkpt>
      <trkpt lat="47.736553670838475" lon="12.212996687740088">
        <ele>832.158447265625</ele>
        <time>2013-07-10T16:52:26Z</time>
      </trkpt>
      <trkpt lat="47.736412771046162" lon="12.212915131822228">
        <ele>833.11962890625</ele>
        <time>2013-07-10T16:52:32Z</time>
      </trkpt>
      <trkpt lat="47.736268602311611" lon="12.212804658338428">
        <ele>833.600341796875</ele>
        <time>2013-07-10T16:52:39Z</time>
      </trkpt>
      <trkpt lat="47.73620992898941" lon="12.212750259786844">
        <ele>834.561767578125</ele>
        <time>2013-07-10T16:52:42Z</time>
      </trkpt>
      <trkpt lat="47.736088475212455" lon="12.212711870670319">
        <ele>836.003662109375</ele>
        <time>2013-07-10T16:52:48Z</time>
      </trkpt>
      <trkpt lat="47.735991328954697" lon="12.212699130177498">
        <ele>836.003662109375</ele>
        <time>2013-07-10T16:52:53Z</time>
      </trkpt>
      <trkpt lat="47.735881023108959" lon="12.212650012224913">
        <ele>836.96484375</ele>
        <time>2013-07-10T16:53:00Z</time>
      </trkpt>
      <trkpt lat="47.735815308988094" lon="12.212612880393863">
        <ele>837.445556640625</ele>
        <time>2013-07-10T16:53:04Z</time>
      </trkpt>
      <trkpt lat="47.735717492178082" lon="12.212540460750461">
        <ele>838.8876953125</ele>
        <time>2013-07-10T16:53:11Z</time>
      </trkpt>
      <trkpt lat="47.735644234344363" lon="12.212500898167491">
        <ele>839.848876953125</ele>
        <time>2013-07-10T16:53:19Z</time>
      </trkpt>
      <trkpt lat="47.735460586845875" lon="12.21255311742425">
        <ele>841.771484375</ele>
        <time>2013-07-10T16:53:29Z</time>
      </trkpt>
      <trkpt lat="47.735310886055231" lon="12.212518081068993">
        <ele>843.694091796875</ele>
        <time>2013-07-10T16:53:37Z</time>
      </trkpt>
      <trkpt lat="47.735194712877274" lon="12.212528474628925">
        <ele>845.616943359375</ele>
        <time>2013-07-10T16:53:45Z</time>
      </trkpt>
      <trkpt lat="47.735023470595479" lon="12.212508358061314">
        <ele>848.500732421875</ele>
        <time>2013-07-10T16:53:57Z</time>
      </trkpt>
      <trkpt lat="47.73489355109632" lon="12.212530989199877">
        <ele>850.423583984375</ele>
        <time>2013-07-10T16:54:06Z</time>
      </trkpt>
      <trkpt lat="47.734788861125708" lon="12.212551776319742">
        <ele>852.345947265625</ele>
        <time>2013-07-10T16:54:13Z</time>
      </trkpt>
      <trkpt lat="47.73464092053473" lon="12.212598128244281">
        <ele>854.749267578125</ele>
        <time>2013-07-10T16:54:24Z</time>
      </trkpt>
      <trkpt lat="47.734520891681314" lon="12.212597709149122">
        <ele>856.191162109375</ele>
        <time>2013-07-10T16:54:34Z</time>
      </trkpt>
      <trkpt lat="47.734396504238248" lon="12.2125643491745">
        <ele>859.0751953125</ele>
        <time>2013-07-10T16:54:45Z</time>
      </trkpt>
      <trkpt lat="47.734309332445264" lon="12.212506011128426">
        <ele>860.03662109375</ele>
        <time>2013-07-10T16:54:53Z</time>
      </trkpt>
      <trkpt lat="47.734216880053282" lon="12.212426634505391">
        <ele>861.95947265625</ele>
        <time>2013-07-10T16:54:59Z</time>
      </trkpt>
      <trkpt lat="47.734099952504039" lon="12.212313143536448">
        <ele>862.920654296875</ele>
        <time>2013-07-10T16:55:07Z</time>
      </trkpt>
      <trkpt lat="47.734041530638933" lon="12.212262768298388">
        <ele>863.8818359375</ele>
        <time>2013-07-10T16:55:12Z</time>
      </trkpt>
      <trkpt lat="47.73392946459353" lon="12.212177189067006">
        <ele>865.323974609375</ele>
        <time>2013-07-10T16:55:23Z</time>
      </trkpt>
      <trkpt lat="47.733865678310394" lon="12.21212312579155">
        <ele>866.765869140625</ele>
        <time>2013-07-10T16:55:28Z</time>
      </trkpt>
      <trkpt lat="47.733799964189529" lon="12.212072247639298">
        <ele>868.207763671875</ele>
        <time>2013-07-10T16:55:35Z</time>
      </trkpt>
      <trkpt lat="47.733704410493374" lon="12.212000917643309">
        <ele>868.6884765625</ele>
        <time>2013-07-10T16:55:44Z</time>
      </trkpt>
      <trkpt lat="47.733668703585863" lon="12.211965713649988">
        <ele>869.64990234375</ele>
        <time>2013-07-10T16:55:47Z</time>
      </trkpt>
      <trkpt lat="47.733593015000224" lon="12.211924139410257">
        <ele>869.64990234375</ele>
        <time>2013-07-10T16:55:53Z</time>
      </trkpt>
      <trkpt lat="47.733448510989547" lon="12.211844092234969">
        <ele>871.091796875</ele>
        <time>2013-07-10T16:56:02Z</time>
      </trkpt>
      <trkpt lat="47.733433926478028" lon="12.21183093264699">
        <ele>871.091796875</ele>
        <time>2013-07-10T16:56:03Z</time>
      </trkpt>
      <trkpt lat="47.733343066647649" lon="12.211759435012937">
        <ele>870.611083984375</ele>
        <time>2013-07-10T16:56:08Z</time>
      </trkpt>
      <trkpt lat="47.733120946213603" lon="12.211663881316781">
        <ele>872.052978515625</ele>
        <time>2013-07-10T16:56:15Z</time>
      </trkpt>
      <trkpt lat="47.732860436663032" lon="12.211633874103427">
        <ele>873.4951171875</ele>
        <time>2013-07-10T16:56:24Z</time>
      </trkpt>
      <trkpt lat="47.732690116390586" lon="12.211666060611606">
        <ele>873.9755859375</ele>
        <time>2013-07-10T16:56:32Z</time>
      </trkpt>
      <trkpt lat="47.732593724504113" lon="12.211652817204595">
        <ele>874.93701171875</ele>
        <time>2013-07-10T16:56:39Z</time>
      </trkpt>
      <trkpt lat="47.732563633471727" lon="12.211631610989571">
        <ele>875.898193359375</ele>
        <time>2013-07-10T16:56:41Z</time>
      </trkpt>
      <trkpt lat="47.732532536610961" lon="12.211610656231642">
        <ele>875.41748046875</ele>
        <time>2013-07-10T16:56:43Z</time>
      </trkpt>
      <trkpt lat="47.732533207163215" lon="12.211544690653682">
        <ele>876.379150390625</ele>
        <time>2013-07-10T16:56:50Z</time>
      </trkpt>
      <trkpt lat="47.732585342600942" lon="12.211586348712444">
        <ele>876.85986328125</ele>
        <time>2013-07-10T16:56:55Z</time>
      </trkpt>
      <trkpt lat="47.732594311237335" lon="12.211462464183569">
        <ele>877.340576171875</ele>
        <time>2013-07-10T16:57:03Z</time>
      </trkpt>
      <trkpt lat="47.732508480548859" lon="12.211424829438329">
        <ele>875.898193359375</ele>
        <time>2013-07-10T16:57:12Z</time>
      </trkpt>
      <trkpt lat="47.732478557154536" lon="12.211399683728814">
        <ele>877.340576171875</ele>
        <time>2013-07-10T16:57:14Z</time>
      </trkpt>
      <trkpt lat="47.732421979308128" lon="12.211326090618968">
        <ele>876.379150390625</ele>
        <time>2013-07-10T16:57:28Z</time>
      </trkpt>
      <trkpt lat="47.732434384524822" lon="12.211331706494093">
        <ele>876.85986328125</ele>
        <time>2013-07-10T16:57:56Z</time>
      </trkpt>
      <trkpt lat="47.732491716742516" lon="12.211381830275059">
        <ele>876.379150390625</ele>
        <time>2013-07-10T16:57:59Z</time>
      </trkpt>
      <trkpt lat="47.73256522603333" lon="12.211534800007939">
        <ele>876.379150390625</ele>
        <time>2013-07-10T16:58:07Z</time>
      </trkpt>
      <trkpt lat="47.732611075043678" lon="12.211592048406601">
        <ele>877.340576171875</ele>
        <time>2013-07-10T16:58:24Z</time>
      </trkpt>
      <trkpt lat="47.732562040910125" lon="12.211569584906101">
        <ele>877.821044921875</ele>
        <time>2013-07-10T17:00:06Z</time>
      </trkpt>
      <trkpt lat="47.732533626258373" lon="12.211639154702425">
        <ele>877.821044921875</ele>
        <time>2013-07-10T17:00:16Z</time>
      </trkpt>
      <trkpt lat="47.732517533004284" lon="12.211643178015947">
        <ele>878.782470703125</ele>
        <time>2013-07-10T17:00:19Z</time>
      </trkpt>
      <trkpt lat="47.732372609898448" lon="12.211647788062692">
        <ele>880.705078125</ele>
        <time>2013-07-10T17:00:27Z</time>
      </trkpt>
      <trkpt lat="47.732325755059719" lon="12.211666395887733">
        <ele>881.666259765625</ele>
        <time>2013-07-10T17:00:30Z</time>
      </trkpt>
      <trkpt lat="47.732208408415318" lon="12.21171366982162">
        <ele>881.666259765625</ele>
        <time>2013-07-10T17:00:38Z</time>
      </trkpt>
      <trkpt lat="47.732187202200294" lon="12.211749879643321">
        <ele>884.069580078125</ele>
        <time>2013-07-10T17:00:45Z</time>
      </trkpt>
      <trkpt lat="47.732034903019667" lon="12.211794219911098">
        <ele>886.953369140625</ele>
        <time>2013-07-10T17:00:55Z</time>
      </trkpt>
      <trkpt lat="47.731905821710825" lon="12.211847444996238">
        <ele>888.876220703125</ele>
        <time>2013-07-10T17:01:07Z</time>
      </trkpt>
      <trkpt lat="47.731773052364588" lon="12.211903687566519">
        <ele>890.798583984375</ele>
        <time>2013-07-10T17:01:17Z</time>
      </trkpt>
      <trkpt lat="47.731721587479115" lon="12.211898239329457">
        <ele>890.798583984375</ele>
        <time>2013-07-10T17:01:19Z</time>
      </trkpt>
      <trkpt lat="47.731598541140556" lon="12.211933610960841">
        <ele>892.7216796875</ele>
        <time>2013-07-10T17:01:26Z</time>
      </trkpt>
      <trkpt lat="47.731534419581294" lon="12.211972586810589">
        <ele>893.2021484375</ele>
        <time>2013-07-10T17:01:30Z</time>
      </trkpt>
      <trkpt lat="47.731460491195321" lon="12.211990104988217">
        <ele>895.124755859375</ele>
        <time>2013-07-10T17:01:34Z</time>
      </trkpt>
      <trkpt lat="47.731397459283471" lon="12.212038636207581">
        <ele>896.086181640625</ele>
        <time>2013-07-10T17:01:40Z</time>
      </trkpt>
      <trkpt lat="47.731337612494826" lon="12.212059507146478">
        <ele>897.04736328125</ele>
        <time>2013-07-10T17:01:44Z</time>
      </trkpt>
      <trkpt lat="47.731264438480139" lon="12.212105691432953">
        <ele>898.0087890625</ele>
        <time>2013-07-10T17:01:50Z</time>
      </trkpt>
      <trkpt lat="47.731244321912527" lon="12.212144248187542">
        <ele>898.969970703125</ele>
        <time>2013-07-10T17:01:53Z</time>
      </trkpt>
      <trkpt lat="47.731182044371963" lon="12.212228653952479">
        <ele>899.931396484375</ele>
        <time>2013-07-10T17:02:00Z</time>
      </trkpt>
      <trkpt lat="47.731167543679476" lon="12.212256230413914">
        <ele>900.892578125</ele>
        <time>2013-07-10T17:02:02Z</time>
      </trkpt>
      <trkpt lat="47.731159329414368" lon="12.212267043069005">
        <ele>901.373291015625</ele>
        <time>2013-07-10T17:02:03Z</time>
      </trkpt>
      <trkpt lat="47.73113158531487" lon="12.212334182113409">
        <ele>902.815185546875</ele>
        <time>2013-07-10T17:02:10Z</time>
      </trkpt>
      <trkpt lat="47.731118593364954" lon="12.212391681969166">
        <ele>903.776611328125</ele>
        <time>2013-07-10T17:02:14Z</time>
      </trkpt>
      <trkpt lat="47.73110861890018" lon="12.212445661425591">
        <ele>904.73779296875</ele>
        <time>2013-07-10T17:02:17Z</time>
      </trkpt>
      <trkpt lat="47.731100907549262" lon="12.21247885376215">
        <ele>904.73779296875</ele>
        <time>2013-07-10T17:02:19Z</time>
      </trkpt>
      <trkpt lat="47.731130747124553" lon="12.212597457692027">
        <ele>905.69921875</ele>
        <time>2013-07-10T17:02:25Z</time>
      </trkpt>
      <trkpt lat="47.731138039380312" lon="12.212663423269987">
        <ele>906.1796875</ele>
        <time>2013-07-10T17:02:31Z</time>
      </trkpt>
      <trkpt lat="47.731167208403349" lon="12.212783535942435">
        <ele>908.583251953125</ele>
        <time>2013-07-10T17:02:38Z</time>
      </trkpt>
      <trkpt lat="47.731222528964281" lon="12.212917311117053">
        <ele>909.544677734375</ele>
        <time>2013-07-10T17:02:46Z</time>
      </trkpt>
      <trkpt lat="47.731285644695163" lon="12.213022504001856">
        <ele>910.986572265625</ele>
        <time>2013-07-10T17:02:54Z</time>
      </trkpt>
      <trkpt lat="47.731404080986977" lon="12.213122667744756">
        <ele>914.35107421875</ele>
        <time>2013-07-10T17:03:06Z</time>
      </trkpt>
      <trkpt lat="47.73144967854023" lon="12.213230710476637">
        <ele>915.3125</ele>
        <time>2013-07-10T17:03:12Z</time>
      </trkpt>
      <trkpt lat="47.731466693803668" lon="12.213325593620539">
        <ele>915.793212890625</ele>
        <time>2013-07-10T17:03:17Z</time>
      </trkpt>
      <trkpt lat="47.731458898633718" lon="12.213384099304676">
        <ele>915.3125</ele>
        <time>2013-07-10T17:03:20Z</time>
      </trkpt>
      <trkpt lat="47.731439201161265" lon="12.21341410651803">
        <ele>916.75439453125</ele>
        <time>2013-07-10T17:03:22Z</time>
      </trkpt>
      <trkpt lat="47.731351610273123" lon="12.213590126484632">
        <ele>916.75439453125</ele>
        <time>2013-07-10T17:03:29Z</time>
      </trkpt>
      <trkpt lat="47.731341300532222" lon="12.213625581935048">
        <ele>917.235107421875</ele>
        <time>2013-07-10T17:03:30Z</time>
      </trkpt>
      <trkpt lat="47.731284974142909" lon="12.213753741234541">
        <ele>917.715576171875</ele>
        <time>2013-07-10T17:03:36Z</time>
      </trkpt>
      <trkpt lat="47.731188163161278" lon="12.213802272453904">
        <ele>918.1962890625</ele>
        <time>2013-07-10T17:03:42Z</time>
      </trkpt>
      <trkpt lat="47.731106271967292" lon="12.213874189183116">
        <ele>919.638427734375</ele>
        <time>2013-07-10T17:03:48Z</time>
      </trkpt>
      <trkpt lat="47.731054639443755" lon="12.213935377076268">
        <ele>921.080322265625</ele>
        <time>2013-07-10T17:03:55Z</time>
      </trkpt>
      <trkpt lat="47.730976855382323" lon="12.213963624089956">
        <ele>921.560791015625</ele>
        <time>2013-07-10T17:04:01Z</time>
      </trkpt>
      <trkpt lat="47.73087308742106" lon="12.214028500020504">
        <ele>923.0029296875</ele>
        <time>2013-07-10T17:04:08Z</time>
      </trkpt>
      <trkpt lat="47.730864454060793" lon="12.214042665436864">
        <ele>924.445068359375</ele>
        <time>2013-07-10T17:04:11Z</time>
      </trkpt>
      <trkpt lat="47.730850707739592" lon="12.214042246341705">
        <ele>923.964111328125</ele>
        <time>2013-07-10T17:04:13Z</time>
      </trkpt>
      <trkpt lat="47.730820616707206" lon="12.21404392272234">
        <ele>924.92578125</ele>
        <time>2013-07-10T17:04:17Z</time>
      </trkpt>
      <trkpt lat="47.730718860402703" lon="12.21404786221683">
        <ele>925.886962890625</ele>
        <time>2013-07-10T17:04:24Z</time>
      </trkpt>
      <trkpt lat="47.730649039149284" lon="12.214058842509985">
        <ele>927.3291015625</ele>
        <time>2013-07-10T17:04:30Z</time>
      </trkpt>
      <trkpt lat="47.730571087449789" lon="12.214085832238197">
        <ele>928.290283203125</ele>
        <time>2013-07-10T17:04:37Z</time>
      </trkpt>
      <trkpt lat="47.730560777708888" lon="12.214104691520333">
        <ele>929.732177734375</ele>
        <time>2013-07-10T17:04:39Z</time>
      </trkpt>
      <trkpt lat="47.730508223176003" lon="12.214125143364072">
        <ele>931.17431640625</ele>
        <time>2013-07-10T17:04:46Z</time>
      </trkpt>
      <trkpt lat="47.730422057211399" lon="12.21414165571332">
        <ele>932.6162109375</ele>
        <time>2013-07-10T17:04:53Z</time>
      </trkpt>
      <trkpt lat="47.730345362797379" lon="12.214123886078596">
        <ele>934.538818359375</ele>
        <time>2013-07-10T17:05:00Z</time>
      </trkpt>
      <trkpt lat="47.730318708345294" lon="12.214115587994456">
        <ele>935.980712890625</ele>
        <time>2013-07-10T17:05:05Z</time>
      </trkpt>
      <trkpt lat="47.730244444683194" lon="12.214120617136359">
        <ele>936.94189453125</ele>
        <time>2013-07-10T17:05:13Z</time>
      </trkpt>
      <trkpt lat="47.730204546824098" lon="12.214097231626511">
        <ele>937.422607421875</ele>
        <time>2013-07-10T17:05:16Z</time>
      </trkpt>
      <trkpt lat="47.73016850464046" lon="12.214083652943373">
        <ele>938.384033203125</ele>
        <time>2013-07-10T17:05:18Z</time>
      </trkpt>
      <trkpt lat="47.730055600404739" lon="12.214064374566078">
        <ele>939.34521484375</ele>
        <time>2013-07-10T17:05:24Z</time>
      </trkpt>
      <trkpt lat="47.729943785816431" lon="12.214028248563409">
        <ele>940.306884765625</ele>
        <time>2013-07-10T17:05:29Z</time>
      </trkpt>
      <trkpt lat="47.729907827451825" lon="12.214012071490288">
        <ele>939.34521484375</ele>
        <time>2013-07-10T17:05:31Z</time>
      </trkpt>
      <trkpt lat="47.729879412800074" lon="12.213994385674596">
        <ele>940.787353515625</ele>
        <time>2013-07-10T17:05:33Z</time>
      </trkpt>
      <trkpt lat="47.7298245113343" lon="12.213945100083947">
        <ele>941.26806640625</ele>
        <time>2013-07-10T17:05:37Z</time>
      </trkpt>
      <trkpt lat="47.72965544834733" lon="12.213776707649231">
        <ele>941.748779296875</ele>
        <time>2013-07-10T17:05:47Z</time>
      </trkpt>
      <trkpt lat="47.72949418053031" lon="12.213622815907001">
        <ele>941.26806640625</ele>
        <time>2013-07-10T17:05:52Z</time>
      </trkpt>
      <trkpt lat="47.729289578273892" lon="12.213277732953429">
        <ele>939.34521484375</ele>
        <time>2013-07-10T17:05:58Z</time>
      </trkpt>
      <trkpt lat="47.728928653523326" lon="12.212694268673658">
        <ele>937.422607421875</ele>
        <time>2013-07-10T17:06:04Z</time>
      </trkpt>
      <trkpt lat="47.728682812303305" lon="12.212442811578512">
        <ele>937.422607421875</ele>
        <time>2013-07-10T17:06:09Z</time>
      </trkpt>
      <trkpt lat="47.728560017421842" lon="12.212438872084022">
        <ele>937.9033203125</ele>
        <time>2013-07-10T17:06:14Z</time>
      </trkpt>
      <trkpt lat="47.72855163551867" lon="12.21245345659554">
        <ele>937.9033203125</ele>
        <time>2013-07-10T17:06:15Z</time>
      </trkpt>
      <trkpt lat="47.728406712412834" lon="12.212510034441948">
        <ele>939.825927734375</ele>
        <time>2013-07-10T17:06:22Z</time>
      </trkpt>
      <trkpt lat="47.72831023670733" lon="12.212531492114067">
        <ele>939.825927734375</ele>
        <time>2013-07-10T17:06:26Z</time>
      </trkpt>
      <trkpt lat="47.728282157331705" lon="12.212520847097039">
        <ele>939.825927734375</ele>
        <time>2013-07-10T17:06:27Z</time>
      </trkpt>
      <trkpt lat="47.728153998032212" lon="12.212489834055305">
        <ele>939.825927734375</ele>
        <time>2013-07-10T17:06:32Z</time>
      </trkpt>
      <trkpt lat="47.72798141464591" lon="12.212440297007561">
        <ele>940.787353515625</ele>
        <time>2013-07-10T17:06:38Z</time>
      </trkpt>
      <trkpt lat="47.727823080495" lon="12.212400902062654">
        <ele>942.2294921875</ele>
        <time>2013-07-10T17:06:44Z</time>
      </trkpt>
      <trkpt lat="47.727786786854267" lon="12.212383300065994">
        <ele>942.2294921875</ele>
        <time>2013-07-10T17:06:46Z</time>
      </trkpt>
      <trkpt lat="47.727693831548095" lon="12.212369302287698">
        <ele>943.190673828125</ele>
        <time>2013-07-10T17:06:51Z</time>
      </trkpt>
      <trkpt lat="47.727553015574813" lon="12.212305180728436">
        <ele>943.67138671875</ele>
        <time>2013-07-10T17:06:57Z</time>
      </trkpt>
      <trkpt lat="47.727394010871649" lon="12.212216584011912">
        <ele>944.632568359375</ele>
        <time>2013-07-10T17:07:03Z</time>
      </trkpt>
      <trkpt lat="47.727273311465979" lon="12.212182972580194">
        <ele>945.11328125</ele>
        <time>2013-07-10T17:07:09Z</time>
      </trkpt>
      <trkpt lat="47.727117324247956" lon="12.212119018658996">
        <ele>946.07470703125</ele>
        <time>2013-07-10T17:07:16Z</time>
      </trkpt>
      <trkpt lat="47.727051945403218" lon="12.212114408612251">
        <ele>946.555419921875</ele>
        <time>2013-07-10T17:07:19Z</time>
      </trkpt>
      <trkpt lat="47.726927557960153" lon="12.212060010060668">
        <ele>946.555419921875</ele>
        <time>2013-07-10T17:07:25Z</time>
      </trkpt>
      <trkpt lat="47.726778276264668" lon="12.212010053917766">
        <ele>947.035888671875</ele>
        <time>2013-07-10T17:07:31Z</time>
      </trkpt>
      <trkpt lat="47.726741144433618" lon="12.212030002847314">
        <ele>947.5166015625</ele>
        <time>2013-07-10T17:07:35Z</time>
      </trkpt>
      <trkpt lat="47.726700324565172" lon="12.212030757218599">
        <ele>948.95849609375</ele>
        <time>2013-07-10T17:07:39Z</time>
      </trkpt>
      <trkpt lat="47.726542074233294" lon="12.212076522409916">
        <ele>950.400634765625</ele>
        <time>2013-07-10T17:07:48Z</time>
      </trkpt>
      <trkpt lat="47.726413914933801" lon="12.212094543501735">
        <ele>951.842529296875</ele>
        <time>2013-07-10T17:07:55Z</time>
      </trkpt>
      <trkpt lat="47.726263627409935" lon="12.212062859907746">
        <ele>952.322998046875</ele>
        <time>2013-07-10T17:08:02Z</time>
      </trkpt>
      <trkpt lat="47.726245522499084" lon="12.212063949555159">
        <ele>952.8037109375</ele>
        <time>2013-07-10T17:08:03Z</time>
      </trkpt>
      <trkpt lat="47.726123398169875" lon="12.212116587907076">
        <ele>951.842529296875</ele>
        <time>2013-07-10T17:08:09Z</time>
      </trkpt>
      <trkpt lat="47.726017199456692" lon="12.212200239300728">
        <ele>952.8037109375</ele>
        <time>2013-07-10T17:08:16Z</time>
      </trkpt>
      <trkpt lat="47.725979397073388" lon="12.212200490757823">
        <ele>952.8037109375</ele>
        <time>2013-07-10T17:08:19Z</time>
      </trkpt>
      <trkpt lat="47.72588174790144" lon="12.212200239300728">
        <ele>954.726318359375</ele>
        <time>2013-07-10T17:08:27Z</time>
      </trkpt>
      <trkpt lat="47.725868755951524" lon="12.212198814377189">
        <ele>955.20703125</ele>
        <time>2013-07-10T17:08:28Z</time>
      </trkpt>
      <trkpt lat="47.725777644664049" lon="12.212194120511413">
        <ele>956.649169921875</ele>
        <time>2013-07-10T17:08:36Z</time>
      </trkpt>
      <trkpt lat="47.725696340203285" lon="12.212212728336453">
        <ele>957.610595703125</ele>
        <time>2013-07-10T17:08:41Z</time>
      </trkpt>
      <trkpt lat="47.725596176460385" lon="12.212241059169173">
        <ele>958.09130859375</ele>
        <time>2013-07-10T17:08:47Z</time>
      </trkpt>
      <trkpt lat="47.725511770695448" lon="12.212264193221927">
        <ele>959.533203125</ele>
        <time>2013-07-10T17:08:54Z</time>
      </trkpt>
      <trkpt lat="47.725413115695119" lon="12.212273413315415">
        <ele>960.97509765625</ele>
        <time>2013-07-10T17:09:00Z</time>
      </trkpt>
      <trkpt lat="47.725323010236025" lon="12.212268635630608">
        <ele>962.897705078125</ele>
        <time>2013-07-10T17:09:12Z</time>
      </trkpt>
      <trkpt lat="47.72525092586875" lon="12.212253967300057">
        <ele>964.8203125</ele>
        <time>2013-07-10T17:09:18Z</time>
      </trkpt>
      <trkpt lat="47.72513709962368" lon="12.212191522121429">
        <ele>965.301025390625</ele>
        <time>2013-07-10T17:09:27Z</time>
      </trkpt>
      <trkpt lat="47.725112373009324" lon="12.21215883269906">
        <ele>966.742919921875</ele>
        <time>2013-07-10T17:09:30Z</time>
      </trkpt>
      <trkpt lat="47.72505596280098" lon="12.212017429992557">
        <ele>968.66552734375</ele>
        <time>2013-07-10T17:09:38Z</time>
      </trkpt>
      <trkpt lat="47.725021429359913" lon="12.211899915710092">
        <ele>970.588134765625</ele>
        <time>2013-07-10T17:09:45Z</time>
      </trkpt>
      <trkpt lat="47.725005922839046" lon="12.211874770000577">
        <ele>971.54931640625</ele>
        <time>2013-07-10T17:09:47Z</time>
      </trkpt>
      <trkpt lat="47.724815821275115" lon="12.211742335930467">
        <ele>972.510986328125</ele>
        <time>2013-07-10T17:09:59Z</time>
      </trkpt>
      <trkpt lat="47.724726721644402" lon="12.211673771962523">
        <ele>972.0302734375</ele>
        <time>2013-07-10T17:10:04Z</time>
      </trkpt>
      <trkpt lat="47.724528405815363" lon="12.211542008444667">
        <ele>971.06884765625</ele>
        <time>2013-07-10T17:10:11Z</time>
      </trkpt>
      <trkpt lat="47.724350625649095" lon="12.21147520467639">
        <ele>971.54931640625</ele>
        <time>2013-07-10T17:10:17Z</time>
      </trkpt>
      <trkpt lat="47.724251635372639" lon="12.211480233818293">
        <ele>972.510986328125</ele>
        <time>2013-07-10T17:10:22Z</time>
      </trkpt>
      <trkpt lat="47.724059270694852" lon="12.211576458066702">
        <ele>973.952880859375</ele>
        <time>2013-07-10T17:10:30Z</time>
      </trkpt>
      <trkpt lat="47.723890459164977" lon="12.211672766134143">
        <ele>974.914306640625</ele>
        <time>2013-07-10T17:10:39Z</time>
      </trkpt>
      <trkpt lat="47.723689209669828" lon="12.211762117221951">
        <ele>975.87548828125</ele>
        <time>2013-07-10T17:10:48Z</time>
      </trkpt>
      <trkpt lat="47.723621735349298" lon="12.211774103343487">
        <ele>977.317626953125</ele>
        <time>2013-07-10T17:10:51Z</time>
      </trkpt>
      <trkpt lat="47.723475554957986" lon="12.211835710331798">
        <ele>978.27880859375</ele>
        <time>2013-07-10T17:10:59Z</time>
      </trkpt>
      <trkpt lat="47.723439764231443" lon="12.211888516321778">
        <ele>979.239990234375</ele>
        <time>2013-07-10T17:11:03Z</time>
      </trkpt>
      <trkpt lat="47.723413109779358" lon="12.212001336738467">
        <ele>978.759521484375</ele>
        <time>2013-07-10T17:11:08Z</time>
      </trkpt>
      <trkpt lat="47.723407577723265" lon="12.212160509079695">
        <ele>978.759521484375</ele>
        <time>2013-07-10T17:11:13Z</time>
      </trkpt>
      <trkpt lat="47.723400536924601" lon="12.212512968108058">
        <ele>978.27880859375</ele>
        <time>2013-07-10T17:11:21Z</time>
      </trkpt>
      <trkpt lat="47.723354268819094" lon="12.212877916172147">
        <ele>977.798095703125</ele>
        <time>2013-07-10T17:11:28Z</time>
      </trkpt>
      <trkpt lat="47.723308000713587" lon="12.213126607239246">
        <ele>979.239990234375</ele>
        <time>2013-07-10T17:11:33Z</time>
      </trkpt>
      <trkpt lat="47.723283860832453" lon="12.21342483535409">
        <ele>980.201416015625</ele>
        <time>2013-07-10T17:11:41Z</time>
      </trkpt>
      <trkpt lat="47.723249830305576" lon="12.21368576399982">
        <ele>982.1240234375</ele>
        <time>2013-07-10T17:11:50Z</time>
      </trkpt>
      <trkpt lat="47.723293164744973" lon="12.213944345712662">
        <ele>982.604736328125</ele>
        <time>2013-07-10T17:11:58Z</time>
      </trkpt>
      <trkpt lat="47.723304647952318" lon="12.214089604094625">
        <ele>984.046630859375</ele>
        <time>2013-07-10T17:12:04Z</time>
      </trkpt>
      <trkpt lat="47.723383521661162" lon="12.214326392859221">
        <ele>985.008056640625</ele>
        <time>2013-07-10T17:12:11Z</time>
      </trkpt>
      <trkpt lat="47.723461976274848" lon="12.214529570192099">
        <ele>985.008056640625</ele>
        <time>2013-07-10T17:12:18Z</time>
      </trkpt>
      <trkpt lat="47.72358225658536" lon="12.21481547690928">
        <ele>985.96923828125</ele>
        <time>2013-07-10T17:12:27Z</time>
      </trkpt>
      <trkpt lat="47.723551914095879" lon="12.215112783014774">
        <ele>986.930419921875</ele>
        <time>2013-07-10T17:12:35Z</time>
      </trkpt>
      <trkpt lat="47.723465748131275" lon="12.215287042781711">
        <ele>987.891845703125</ele>
        <time>2013-07-10T17:12:41Z</time>
      </trkpt>
      <trkpt lat="47.723408164456487" lon="12.215514862909913">
        <ele>989.333984375</ele>
        <time>2013-07-10T17:12:49Z</time>
      </trkpt>
      <trkpt lat="47.723349826410413" lon="12.215730780735612">
        <ele>991.256591796875</ele>
        <time>2013-07-10T17:12:57Z</time>
      </trkpt>
      <trkpt lat="47.723304983228445" lon="12.215929599478841">
        <ele>992.218017578125</ele>
        <time>2013-07-10T17:13:04Z</time>
      </trkpt>
      <trkpt lat="47.723257457837462" lon="12.215990116819739">
        <ele>992.69873046875</ele>
        <time>2013-07-10T17:13:08Z</time>
      </trkpt>
      <trkpt lat="47.72322803735733" lon="12.216110313311219">
        <ele>993.659912109375</ele>
        <time>2013-07-10T17:13:13Z</time>
      </trkpt>
      <trkpt lat="47.723105745390058" lon="12.216322543099523">
        <ele>995.58251953125</ele>
        <time>2013-07-10T17:13:23Z</time>
      </trkpt>
      <trkpt lat="47.72297247312963" lon="12.216497305780649">
        <ele>995.58251953125</ele>
        <time>2013-07-10T17:13:32Z</time>
      </trkpt>
      <trkpt lat="47.722856635227799" lon="12.216624626889825">
        <ele>996.5439453125</ele>
        <time>2013-07-10T17:13:38Z</time>
      </trkpt>
      <trkpt lat="47.722681034356356" lon="12.21679737791419">
        <ele>996.5439453125</ele>
        <time>2013-07-10T17:13:45Z</time>
      </trkpt>
      <trkpt lat="47.722546923905611" lon="12.216912042349577">
        <ele>997.0244140625</ele>
        <time>2013-07-10T17:13:51Z</time>
      </trkpt>
      <trkpt lat="47.72243888117373" lon="12.217025281861424">
        <ele>996.063232421875</ele>
        <time>2013-07-10T17:13:56Z</time>
      </trkpt>
      <trkpt lat="47.722465116530657" lon="12.217407077550888">
        <ele>996.5439453125</ele>
        <time>2013-07-10T17:14:00Z</time>
      </trkpt>
      <trkpt lat="47.722488837316632" lon="12.217874955385923">
        <ele>996.063232421875</ele>
        <time>2013-07-10T17:14:09Z</time>
      </trkpt>
      <trkpt lat="47.722506104037166" lon="12.218176871538162">
        <ele>997.505126953125</ele>
        <time>2013-07-10T17:14:16Z</time>
      </trkpt>
      <trkpt lat="47.722527645528316" lon="12.218291033059359">
        <ele>998.46630859375</ele>
        <time>2013-07-10T17:14:20Z</time>
      </trkpt>
      <trkpt lat="47.722547259181738" lon="12.218337636440992">
        <ele>1000.38916015625</ele>
        <time>2013-07-10T17:14:28Z</time>
      </trkpt>
      <trkpt lat="47.722536949440837" lon="12.21830427646637">
        <ele>1000.38916015625</ele>
        <time>2013-07-10T17:14:32Z</time>
      </trkpt>
      <trkpt lat="47.722749765962362" lon="12.218189360573888">
        <ele>1001.8310546875</ele>
        <time>2013-07-10T17:14:43Z</time>
      </trkpt>
      <trkpt lat="47.722728727385402" lon="12.218000097200274">
        <ele>1003.753662109375</ele>
        <time>2013-07-10T17:14:52Z</time>
      </trkpt>
      <trkpt lat="47.722737779840827" lon="12.217840841040015">
        <ele>1004.715087890625</ele>
        <time>2013-07-10T17:15:00Z</time>
      </trkpt>
      <trkpt lat="47.722739204764366" lon="12.21778585575521">
        <ele>1005.19580078125</ele>
        <time>2013-07-10T17:15:03Z</time>
      </trkpt>
      <trkpt lat="47.722797375172377" lon="12.217563819140196">
        <ele>1006.6376953125</ele>
        <time>2013-07-10T17:15:14Z</time>
      </trkpt>
      <trkpt lat="47.722861748188734" lon="12.217464074492455">
        <ele>1007.118408203125</ele>
        <time>2013-07-10T17:15:20Z</time>
      </trkpt>
      <trkpt lat="47.722943220287561" lon="12.217402970418334">
        <ele>1008.079833984375</ele>
        <time>2013-07-10T17:15:27Z</time>
      </trkpt>
      <trkpt lat="47.723065679892898" lon="12.217366341501474">
        <ele>1009.521728515625</ele>
        <time>2013-07-10T17:15:34Z</time>
      </trkpt>
      <trkpt lat="47.723102308809757" lon="12.217361982911825">
        <ele>1009.041015625</ele>
        <time>2013-07-10T17:15:36Z</time>
      </trkpt>
      <trkpt lat="47.723214039579034" lon="12.217334574088454">
        <ele>1010.48291015625</ele>
        <time>2013-07-10T17:15:44Z</time>
      </trkpt>
      <trkpt lat="47.723366254940629" lon="12.217335244640708">
        <ele>1011.925048828125</ele>
        <time>2013-07-10T17:15:53Z</time>
      </trkpt>
      <trkpt lat="47.723483350127935" lon="12.217347901314497">
        <ele>1011.4443359375</ele>
        <time>2013-07-10T17:15:59Z</time>
      </trkpt>
      <trkpt lat="47.72360815666616" lon="12.217374639585614">
        <ele>1013.366943359375</ele>
        <time>2013-07-10T17:16:06Z</time>
      </trkpt>
      <trkpt lat="47.723708404228091" lon="12.217400539666414">
        <ele>1014.328125</ele>
        <time>2013-07-10T17:16:12Z</time>
      </trkpt>
      <trkpt lat="47.723809657618403" lon="12.217443287372589">
        <ele>1015.28955078125</ele>
        <time>2013-07-10T17:16:18Z</time>
      </trkpt>
      <trkpt lat="47.72386078722775" lon="12.217463487759233">
        <ele>1017.212158203125</ele>
        <time>2013-07-10T17:16:24Z</time>
      </trkpt>
      <trkpt lat="47.723947372287512" lon="12.217492237687111">
        <ele>1017.212158203125</ele>
        <time>2013-07-10T17:16:31Z</time>
      </trkpt>
      <trkpt lat="47.724069664254785" lon="12.217531548812985">
        <ele>1019.134765625</ele>
        <time>2013-07-10T17:16:40Z</time>
      </trkpt>
      <trkpt lat="47.724178628996015" lon="12.217582175508142">
        <ele>1020.09619140625</ele>
        <time>2013-07-10T17:16:48Z</time>
      </trkpt>
      <trkpt lat="47.724261609837413" lon="12.217627940699458">
        <ele>1022.018798828125</ele>
        <time>2013-07-10T17:16:55Z</time>
      </trkpt>
      <trkpt lat="47.724333442747593" lon="12.21767202951014">
        <ele>1022.980224609375</ele>
        <time>2013-07-10T17:17:00Z</time>
      </trkpt>
      <trkpt lat="47.724475432187319" lon="12.217761548236012">
        <ele>1023.94140625</ele>
        <time>2013-07-10T17:17:08Z</time>
      </trkpt>
      <trkpt lat="47.724574254825711" lon="12.217823909595609">
        <ele>1024.90283203125</ele>
        <time>2013-07-10T17:17:17Z</time>
      </trkpt>
      <trkpt lat="47.724697384983301" lon="12.217878894880414">
        <ele>1026.3447265625</ele>
        <time>2013-07-10T17:17:27Z</time>
      </trkpt>
      <trkpt lat="47.724822107702494" lon="12.217960031703115">
        <ele>1028.748046875</ele>
        <time>2013-07-10T17:17:38Z</time>
      </trkpt>
      <trkpt lat="47.724960744380951" lon="12.21811325289309">
        <ele>1029.709228515625</ele>
        <time>2013-07-10T17:17:51Z</time>
      </trkpt>
      <trkpt lat="47.725031990557909" lon="12.218185504898429">
        <ele>1030.670654296875</ele>
        <time>2013-07-10T17:17:57Z</time>
      </trkpt>
      <trkpt lat="47.725020088255405" lon="12.218355908989906">
        <ele>1033.07373046875</ele>
        <time>2013-07-10T17:18:05Z</time>
      </trkpt>
      <trkpt lat="47.724914643913507" lon="12.21845087595284">
        <ele>1033.07373046875</ele>
        <time>2013-07-10T17:18:11Z</time>
      </trkpt>
      <trkpt lat="47.724787490442395" lon="12.218478955328465">
        <ele>1034.03515625</ele>
        <time>2013-07-10T17:18:20Z</time>
      </trkpt>
      <trkpt lat="47.724687997251749" lon="12.218454563990235">
        <ele>1035.47705078125</ele>
        <time>2013-07-10T17:18:28Z</time>
      </trkpt>
      <trkpt lat="47.724654134362936" lon="12.218448864296079">
        <ele>1036.438720703125</ele>
        <time>2013-07-10T17:18:31Z</time>
      </trkpt>
      <trkpt lat="47.724609039723873" lon="12.218437632545829">
        <ele>1036.438720703125</ele>
        <time>2013-07-10T17:18:35Z</time>
      </trkpt>
      <trkpt lat="47.724447352811694" lon="12.218455402180552">
        <ele>1039.322509765625</ele>
        <time>2013-07-10T17:18:47Z</time>
      </trkpt>
      <trkpt lat="47.724383063614368" lon="12.218476943671703">
        <ele>1039.322509765625</ele>
        <time>2013-07-10T17:18:52Z</time>
      </trkpt>
      <trkpt lat="47.724241409450769" lon="12.218518266454339">
        <ele>1040.764404296875</ele>
        <time>2013-07-10T17:19:02Z</time>
      </trkpt>
      <trkpt lat="47.724129091948271" lon="12.218590434640646">
        <ele>1042.20654296875</ele>
        <time>2013-07-10T17:19:11Z</time>
      </trkpt>
      <trkpt lat="47.724044770002365" lon="12.218651119619608">
        <ele>1043.6484375</ele>
        <time>2013-07-10T17:19:18Z</time>
      </trkpt>
      <trkpt lat="47.724007721990347" lon="12.218750612810254">
        <ele>1044.609619140625</ele>
        <time>2013-07-10T17:19:24Z</time>
      </trkpt>
      <trkpt lat="47.723985677585006" lon="12.218819679692388">
        <ele>1046.532470703125</ele>
        <time>2013-07-10T17:19:28Z</time>
      </trkpt>
      <trkpt lat="47.723975870758295" lon="12.218852955847979">
        <ele>1046.0517578125</ele>
        <time>2013-07-10T17:19:30Z</time>
      </trkpt>
      <trkpt lat="47.723939409479499" lon="12.219001231715083">
        <ele>1047.49365234375</ele>
        <time>2013-07-10T17:19:38Z</time>
      </trkpt>
      <trkpt lat="47.723919795826077" lon="12.219070801511407">
        <ele>1047.974365234375</ele>
        <time>2013-07-10T17:19:42Z</time>
      </trkpt>
      <trkpt lat="47.723935386165977" lon="12.219301136210561">
        <ele>1049.89697265625</ele>
        <time>2013-07-10T17:19:53Z</time>
      </trkpt>
      <trkpt lat="47.723908731713891" lon="12.219381099566817">
        <ele>1051.3388671875</ele>
        <time>2013-07-10T17:20:00Z</time>
      </trkpt>
      <trkpt lat="47.723902110010386" lon="12.219372047111392">
        <ele>1050.377685546875</ele>
        <time>2013-07-10T17:20:28Z</time>
      </trkpt>
      <trkpt lat="47.723897080868483" lon="12.219398869201541">
        <ele>1051.3388671875</ele>
        <time>2013-07-10T17:20:54Z</time>
      </trkpt>
      <trkpt lat="47.723909486085176" lon="12.219568518921733">
        <ele>1052.781005859375</ele>
        <time>2013-07-10T17:21:04Z</time>
      </trkpt>
      <trkpt lat="47.72391552105546" lon="12.219800446182489">
        <ele>1053.742431640625</ele>
        <time>2013-07-10T17:21:15Z</time>
      </trkpt>
      <trkpt lat="47.723916945978999" lon="12.220033463090658">
        <ele>1055.6650390625</ele>
        <time>2013-07-10T17:21:25Z</time>
      </trkpt>
      <trkpt lat="47.723888615146279" lon="12.220303025096655">
        <ele>1057.10693359375</ele>
        <time>2013-07-10T17:21:37Z</time>
      </trkpt>
      <trkpt lat="47.723879981786013" lon="12.220499916002154">
        <ele>1059.51025390625</ele>
        <time>2013-07-10T17:21:46Z</time>
      </trkpt>
      <trkpt lat="47.723850477486849" lon="12.220693789422512">
        <ele>1059.99072265625</ele>
        <time>2013-07-10T17:21:55Z</time>
      </trkpt>
      <trkpt lat="47.7238461188972" lon="12.220715163275599">
        <ele>1060.471435546875</ele>
        <time>2013-07-10T17:21:56Z</time>
      </trkpt>
      <trkpt lat="47.723820386454463" lon="12.220783559605479">
        <ele>1060.471435546875</ele>
        <time>2013-07-10T17:22:00Z</time>
      </trkpt>
      <trkpt lat="47.723721396178007" lon="12.220990927889943">
        <ele>1061.91357421875</ele>
        <time>2013-07-10T17:22:12Z</time>
      </trkpt>
      <trkpt lat="47.723672110587358" lon="12.221144651994109">
        <ele>1063.35546875</ele>
        <time>2013-07-10T17:22:19Z</time>
      </trkpt>
      <trkpt lat="47.723616873845458" lon="12.221308518201113">
        <ele>1064.316650390625</ele>
        <time>2013-07-10T17:22:27Z</time>
      </trkpt>
      <trkpt lat="47.723598182201385" lon="12.221392001956701">
        <ele>1064.79736328125</ele>
        <time>2013-07-10T17:22:31Z</time>
      </trkpt>
      <trkpt lat="47.723535066470504" lon="12.221613954752684">
        <ele>1065.7587890625</ele>
        <time>2013-07-10T17:22:42Z</time>
      </trkpt>
      <trkpt lat="47.723452337086201" lon="12.22182484343648">
        <ele>1067.68115234375</ele>
        <time>2013-07-10T17:22:53Z</time>
      </trkpt>
      <trkpt lat="47.723386036232114" lon="12.222044197842479">
        <ele>1068.162109375</ele>
        <time>2013-07-10T17:23:05Z</time>
      </trkpt>
      <trkpt lat="47.723375726491213" lon="12.222103206440806">
        <ele>1069.604248046875</ele>
        <time>2013-07-10T17:23:08Z</time>
      </trkpt>
      <trkpt lat="47.723340606316924" lon="12.222288446500897">
        <ele>1071.046142578125</ele>
        <time>2013-07-10T17:23:18Z</time>
      </trkpt>
      <trkpt lat="47.723312107846141" lon="12.222385257482529">
        <ele>1072.00732421875</ele>
        <time>2013-07-10T17:23:24Z</time>
      </trkpt>
      <trkpt lat="47.723302384838462" lon="12.222479470074177">
        <ele>1072.96875</ele>
        <time>2013-07-10T17:23:29Z</time>
      </trkpt>
      <trkpt lat="47.723268521949649" lon="12.222642917186022">
        <ele>1074.891357421875</ele>
        <time>2013-07-10T17:23:39Z</time>
      </trkpt>
      <trkpt lat="47.723250584676862" lon="12.222754983231425">
        <ele>1075.8525390625</ele>
        <time>2013-07-10T17:23:48Z</time>
      </trkpt>
      <trkpt lat="47.723238682374358" lon="12.222776943817735">
        <ele>1075.8525390625</ele>
        <time>2013-07-10T17:23:57Z</time>
      </trkpt>
      <trkpt lat="47.723243040964007" lon="12.222788594663143">
        <ele>1076.333251953125</ele>
        <time>2013-07-10T17:24:24Z</time>
      </trkpt>
      <trkpt lat="47.72324999794364" lon="12.222820110619068">
        <ele>1077.294677734375</ele>
        <time>2013-07-10T17:25:01Z</time>
      </trkpt>
      <trkpt lat="47.723258463665843" lon="12.222836958244443">
        <ele>1077.294677734375</ele>
        <time>2013-07-10T17:25:10Z</time>
      </trkpt>
      <trkpt lat="47.723322501406074" lon="12.222941732034087">
        <ele>1079.217041015625</ele>
        <time>2013-07-10T17:25:19Z</time>
      </trkpt>
      <trkpt lat="47.723334236070514" lon="12.222967883571982">
        <ele>1079.69775390625</ele>
        <time>2013-07-10T17:25:21Z</time>
      </trkpt>
      <trkpt lat="47.723345216363668" lon="12.222997890785336">
        <ele>1079.69775390625</ele>
        <time>2013-07-10T17:25:23Z</time>
      </trkpt>
      <trkpt lat="47.723393412306905" lon="12.223188830539584">
        <ele>1082.581787109375</ele>
        <time>2013-07-10T17:25:33Z</time>
      </trkpt>
      <trkpt lat="47.723411014303565" lon="12.223280360922217">
        <ele>1083.062255859375</ele>
        <time>2013-07-10T17:25:38Z</time>
      </trkpt>
      <trkpt lat="47.723438674584031" lon="12.223387397825718">
        <ele>1084.9853515625</ele>
        <time>2013-07-10T17:25:45Z</time>
      </trkpt>
      <trkpt lat="47.723443200811744" lon="12.223399635404348">
        <ele>1085.4658203125</ele>
        <time>2013-07-10T17:25:46Z</time>
      </trkpt>
      <trkpt lat="47.723472621291876" lon="12.223580600693822">
        <ele>1087.388427734375</ele>
        <time>2013-07-10T17:25:56Z</time>
      </trkpt>
      <trkpt lat="47.723473710939288" lon="12.223599627614021">
        <ele>1087.869140625</ele>
        <time>2013-07-10T17:25:57Z</time>
      </trkpt>
      <trkpt lat="47.72350556217134" lon="12.223718147724867">
        <ele>1088.83056640625</ele>
        <time>2013-07-10T17:26:05Z</time>
      </trkpt>
      <trkpt lat="47.723546968773007" lon="12.223804146051407">
        <ele>1090.7529296875</ele>
        <time>2013-07-10T17:26:10Z</time>
      </trkpt>
      <trkpt lat="47.723581586033106" lon="12.223890814930201">
        <ele>1091.233642578125</ele>
        <time>2013-07-10T17:26:15Z</time>
      </trkpt>
      <trkpt lat="47.723626680672169" lon="12.224013190716505">
        <ele>1092.67578125</ele>
        <time>2013-07-10T17:26:22Z</time>
      </trkpt>
      <trkpt lat="47.723641013726592" lon="12.224045628681779">
        <ele>1093.636962890625</ele>
        <time>2013-07-10T17:26:24Z</time>
      </trkpt>
      <trkpt lat="47.723687030375004" lon="12.224143613129854">
        <ele>1094.11767578125</ele>
        <time>2013-07-10T17:26:30Z</time>
      </trkpt>
      <trkpt lat="47.723705722019076" lon="12.224194826558232">
        <ele>1095.5595703125</ele>
        <time>2013-07-10T17:26:33Z</time>
      </trkpt>
      <trkpt lat="47.723728017881513" lon="12.224261630326509">
        <ele>1097.00146484375</ele>
        <time>2013-07-10T17:26:37Z</time>
      </trkpt>
      <trkpt lat="47.723765484988689" lon="12.224389621987939">
        <ele>1097.962890625</ele>
        <time>2013-07-10T17:26:45Z</time>
      </trkpt>
      <trkpt lat="47.723771603778005" lon="12.224441841244698">
        <ele>1098.924072265625</ele>
        <time>2013-07-10T17:26:48Z</time>
      </trkpt>
      <trkpt lat="47.723796246573329" lon="12.224619034677744">
        <ele>1100.366455078125</ele>
        <time>2013-07-10T17:26:57Z</time>
      </trkpt>
      <trkpt lat="47.723811166360974" lon="12.224697573110461">
        <ele>1100.846923828125</ele>
        <time>2013-07-10T17:27:01Z</time>
      </trkpt>
      <trkpt lat="47.723877048119903" lon="12.224760521203279">
        <ele>1103.250244140625</ele>
        <time>2013-07-10T17:27:09Z</time>
      </trkpt>
      <trkpt lat="47.723940080031753" lon="12.224720204249024">
        <ele>1104.692138671875</ele>
        <time>2013-07-10T17:27:15Z</time>
      </trkpt>
      <trkpt lat="47.723972434177995" lon="12.224701177328825">
        <ele>1104.692138671875</ele>
        <time>2013-07-10T17:27:18Z</time>
      </trkpt>
      <trkpt lat="47.723988695070148" lon="12.224681060761213">
        <ele>1106.134033203125</ele>
        <time>2013-07-10T17:27:20Z</time>
      </trkpt>
      <trkpt lat="47.724041668698192" lon="12.224587686359882">
        <ele>1107.576171875</ele>
        <time>2013-07-10T17:27:27Z</time>
      </trkpt>
      <trkpt lat="47.724103191867471" lon="12.224529683589935">
        <ele>1108.537353515625</ele>
        <time>2013-07-10T17:27:33Z</time>
      </trkpt>
      <trkpt lat="47.724125571548939" lon="12.22450696863234">
        <ele>1108.056884765625</ele>
        <time>2013-07-10T17:27:35Z</time>
      </trkpt>
      <trkpt lat="47.724200421944261" lon="12.224405631422997">
        <ele>1110.4599609375</ele>
        <time>2013-07-10T17:27:42Z</time>
      </trkpt>
      <trkpt lat="47.724249958992004" lon="12.224268838763237">
        <ele>1111.902099609375</ele>
        <time>2013-07-10T17:27:52Z</time>
      </trkpt>
      <trkpt lat="47.724342662841082" lon="12.224263306707144">
        <ele>1113.343994140625</ele>
        <time>2013-07-10T17:27:58Z</time>
      </trkpt>
      <trkpt lat="47.724480545148253" lon="12.224313849583268">
        <ele>1115.747314453125</ele>
        <time>2013-07-10T17:28:07Z</time>
      </trkpt>
      <trkpt lat="47.724631000310183" lon="12.22438920289278">
        <ele>1118.150634765625</ele>
        <time>2013-07-10T17:28:16Z</time>
      </trkpt>
      <trkpt lat="47.724796626716852" lon="12.224554074928164">
        <ele>1119.5927734375</ele>
        <time>2013-07-10T17:28:26Z</time>
      </trkpt>
      <trkpt lat="47.724820263683796" lon="12.224628254771233">
        <ele>1121.995849609375</ele>
        <time>2013-07-10T17:28:29Z</time>
      </trkpt>
      <trkpt lat="47.724800985306501" lon="12.224822212010622">
        <ele>1121.995849609375</ele>
        <time>2013-07-10T17:28:37Z</time>
      </trkpt>
      <trkpt lat="47.724763182923198" lon="12.224932853132486">
        <ele>1121.995849609375</ele>
        <time>2013-07-10T17:28:43Z</time>
      </trkpt>
      <trkpt lat="47.72472764365375" lon="12.22491349093616">
        <ele>1122.957275390625</ele>
        <time>2013-07-10T17:29:32Z</time>
      </trkpt>
      <trkpt lat="47.724680788815022" lon="12.225095294415951">
        <ele>1123.43798828125</ele>
        <time>2013-07-10T17:29:42Z</time>
      </trkpt>
      <trkpt lat="47.724629994481802" lon="12.22530534490943">
        <ele>1123.91845703125</ele>
        <time>2013-07-10T17:29:50Z</time>
      </trkpt>
      <trkpt lat="47.724524466320872" lon="12.225462086498737">
        <ele>1124.399169921875</ele>
        <time>2013-07-10T17:29:59Z</time>
      </trkpt>
      <trkpt lat="47.724457830190659" lon="12.225563423708081">
        <ele>1123.91845703125</ele>
        <time>2013-07-10T17:30:04Z</time>
      </trkpt>
      <trkpt lat="47.724392786622047" lon="12.225726032629609">
        <ele>1125.841064453125</ele>
        <time>2013-07-10T17:30:11Z</time>
      </trkpt>
      <trkpt lat="47.72436898201704" lon="12.22584287635982">
        <ele>1127.283203125</ele>
        <time>2013-07-10T17:30:18Z</time>
      </trkpt>
      <trkpt lat="47.724371580407023" lon="12.226064410060644">
        <ele>1128.72509765625</ele>
        <time>2013-07-10T17:30:28Z</time>
      </trkpt>
      <trkpt lat="47.724340902641416" lon="12.22615459933877">
        <ele>1130.647705078125</ele>
        <time>2013-07-10T17:30:34Z</time>
      </trkpt>
      <trkpt lat="47.72431667894125" lon="12.226274376735091">
        <ele>1132.08984375</ele>
        <time>2013-07-10T17:30:41Z</time>
      </trkpt>
      <trkpt lat="47.724315002560616" lon="12.226477973163128">
        <ele>1134.012451171875</ele>
        <time>2013-07-10T17:30:49Z</time>
      </trkpt>
      <trkpt lat="47.724308213219047" lon="12.22652449272573">
        <ele>1134.012451171875</ele>
        <time>2013-07-10T17:30:51Z</time>
      </trkpt>
      <trkpt lat="47.724292706698179" lon="12.226561959832907">
        <ele>1135.454345703125</ele>
        <time>2013-07-10T17:30:53Z</time>
      </trkpt>
      <trkpt lat="47.724222633987665" lon="12.226693220436573">
        <ele>1136.896240234375</ele>
        <time>2013-07-10T17:31:01Z</time>
      </trkpt>
      <trkpt lat="47.724168486893177" lon="12.226776452735066">
        <ele>1137.376953125</ele>
        <time>2013-07-10T17:31:05Z</time>
      </trkpt>
      <trkpt lat="47.724104952067137" lon="12.226825654506683">
        <ele>1137.857666015625</ele>
        <time>2013-07-10T17:31:09Z</time>
      </trkpt>
      <trkpt lat="47.724045272916555" lon="12.226838814094663">
        <ele>1139.299560546875</ele>
        <time>2013-07-10T17:31:13Z</time>
      </trkpt>
      <trkpt lat="47.723925327882171" lon="12.226843759417534">
        <ele>1141.702880859375</ele>
        <time>2013-07-10T17:31:22Z</time>
      </trkpt>
      <trkpt lat="47.723871264606714" lon="12.22693738527596">
        <ele>1140.260986328125</ele>
        <time>2013-07-10T17:31:28Z</time>
      </trkpt>
      <trkpt lat="47.723856177181005" lon="12.226998908445239">
        <ele>1140.741455078125</ele>
        <time>2013-07-10T17:31:30Z</time>
      </trkpt>
      <trkpt lat="47.723819548264146" lon="12.227261932566762">
        <ele>1141.702880859375</ele>
        <time>2013-07-10T17:31:38Z</time>
      </trkpt>
      <trkpt lat="47.723809825256467" lon="12.22760827280581">
        <ele>1141.22216796875</ele>
        <time>2013-07-10T17:31:47Z</time>
      </trkpt>
      <trkpt lat="47.723816782236099" lon="12.227811366319656">
        <ele>1142.664306640625</ele>
        <time>2013-07-10T17:31:55Z</time>
      </trkpt>
      <trkpt lat="47.723798342049122" lon="12.228034408763051">
        <ele>1145.0673828125</ele>
        <time>2013-07-10T17:32:05Z</time>
      </trkpt>
      <trkpt lat="47.723779818043113" lon="12.228297013789415">
        <ele>1146.02880859375</ele>
        <time>2013-07-10T17:32:16Z</time>
      </trkpt>
      <trkpt lat="47.723769592121243" lon="12.228607982397079">
        <ele>1146.02880859375</ele>
        <time>2013-07-10T17:32:26Z</time>
      </trkpt>
      <trkpt lat="47.723806388676167" lon="12.228975025936961">
        <ele>1143.62548828125</ele>
        <time>2013-07-10T17:32:33Z</time>
      </trkpt>
      <trkpt lat="47.723912671208382" lon="12.229249868541956">
        <ele>1141.22216796875</ele>
        <time>2013-07-10T17:32:37Z</time>
      </trkpt>
      <trkpt lat="47.72430787794292" lon="12.230091160163283">
        <ele>1139.299560546875</ele>
        <time>2013-07-10T17:32:47Z</time>
      </trkpt>
      <trkpt lat="47.724487166851759" lon="12.2304115165025">
        <ele>1138.33837890625</ele>
        <time>2013-07-10T17:32:52Z</time>
      </trkpt>
      <trkpt lat="47.724694116041064" lon="12.230725083500147">
        <ele>1137.376953125</ele>
        <time>2013-07-10T17:32:57Z</time>
      </trkpt>
      <trkpt lat="47.724796961992979" lon="12.231019204482436">
        <ele>1136.415771484375</ele>
        <time>2013-07-10T17:33:01Z</time>
      </trkpt>
      <trkpt lat="47.724794363602996" lon="12.231191536411643">
        <ele>1135.93505859375</ele>
        <time>2013-07-10T17:33:03Z</time>
      </trkpt>
      <trkpt lat="47.724818671122193" lon="12.231415249407291">
        <ele>1137.376953125</ele>
        <time>2013-07-10T17:33:07Z</time>
      </trkpt>
      <trkpt lat="47.724857563152909" lon="12.231459924951196">
        <ele>1137.376953125</ele>
        <time>2013-07-10T17:33:09Z</time>
      </trkpt>
      <trkpt lat="47.724890084937215" lon="12.231510803103447">
        <ele>1138.33837890625</ele>
        <time>2013-07-10T17:33:13Z</time>
      </trkpt>
      <trkpt lat="47.725083371624351" lon="12.231712220236659">
        <ele>1139.299560546875</ele>
        <time>2013-07-10T17:33:20Z</time>
      </trkpt>
      <trkpt lat="47.725307838991284" lon="12.232306497171521">
        <ele>1140.260986328125</ele>
        <time>2013-07-10T17:33:34Z</time>
      </trkpt>
      <trkpt lat="47.725462820380926" lon="12.23281997255981">
        <ele>1141.22216796875</ele>
        <time>2013-07-10T17:33:46Z</time>
      </trkpt>
      <trkpt lat="47.72552601993084" lon="12.23307210020721">
        <ele>1140.741455078125</ele>
        <time>2013-07-10T17:33:52Z</time>
      </trkpt>
      <trkpt lat="47.725532976910472" lon="12.233105711638927">
        <ele>1140.741455078125</ele>
        <time>2013-07-10T17:33:53Z</time>
      </trkpt>
      <trkpt lat="47.725569354370236" lon="12.233277875930071">
        <ele>1141.702880859375</ele>
        <time>2013-07-10T17:33:58Z</time>
      </trkpt>
      <trkpt lat="47.725661220028996" lon="12.233463786542416">
        <ele>1141.22216796875</ele>
        <time>2013-07-10T17:34:03Z</time>
      </trkpt>
      <trkpt lat="47.725745122879744" lon="12.233543414622545">
        <ele>1142.664306640625</ele>
        <time>2013-07-10T17:34:06Z</time>
      </trkpt>
      <trkpt lat="47.725900691002607" lon="12.233603429049253">
        <ele>1145.0673828125</ele>
        <time>2013-07-10T17:34:15Z</time>
      </trkpt>
      <trkpt lat="47.726038657128811" lon="12.233687164261937">
        <ele>1146.02880859375</ele>
        <time>2013-07-10T17:34:23Z</time>
      </trkpt>
      <trkpt lat="47.726144017651677" lon="12.233756147325039">
        <ele>1145.0673828125</ele>
        <time>2013-07-10T17:34:30Z</time>
      </trkpt>
      <trkpt lat="47.726197326555848" lon="12.233795709908009">
        <ele>1144.586669921875</ele>
        <time>2013-07-10T17:35:15Z</time>
      </trkpt>
      <trkpt lat="47.726359181106091" lon="12.233936944976449">
        <ele>1142.18359375</ele>
        <time>2013-07-10T17:35:19Z</time>
      </trkpt>
      <trkpt lat="47.726550120860338" lon="12.234117323532701">
        <ele>1143.62548828125</ele>
        <time>2013-07-10T17:35:25Z</time>
      </trkpt>
      <trkpt lat="47.726740809157491" lon="12.23422184586525">
        <ele>1145.548095703125</ele>
        <time>2013-07-10T17:35:37Z</time>
      </trkpt>
      <trkpt lat="47.726858993992209" lon="12.234285632148385">
        <ele>1148.43212890625</ele>
        <time>2013-07-10T17:35:46Z</time>
      </trkpt>
      <trkpt lat="47.726989081129432" lon="12.23437380976975">
        <ele>1148.912841796875</ele>
        <time>2013-07-10T17:35:56Z</time>
      </trkpt>
      <trkpt lat="47.727047922089696" lon="12.234417479485273">
        <ele>1150.83544921875</ele>
        <time>2013-07-10T17:36:01Z</time>
      </trkpt>
      <trkpt lat="47.727105086669326" lon="12.234459472820163">
        <ele>1151.796875</ele>
        <time>2013-07-10T17:36:08Z</time>
      </trkpt>
      <trkpt lat="47.727235173806548" lon="12.234542788937688">
        <ele>1152.758056640625</ele>
        <time>2013-07-10T17:36:17Z</time>
      </trkpt>
      <trkpt lat="47.727382611483335" lon="12.23467287607491">
        <ele>1155.161376953125</ele>
        <time>2013-07-10T17:36:28Z</time>
      </trkpt>
      <trkpt lat="47.727501047775149" lon="12.234793659299612">
        <ele>1156.12255859375</ele>
        <time>2013-07-10T17:36:37Z</time>
      </trkpt>
      <trkpt lat="47.727603893727064" lon="12.234889045357704">
        <ele>1156.603271484375</ele>
        <time>2013-07-10T17:36:46Z</time>
      </trkpt>
      <trkpt lat="47.727715792134404" lon="12.234961465001106">
        <ele>1159.006591796875</ele>
        <time>2013-07-10T17:36:54Z</time>
      </trkpt>
      <trkpt lat="47.727772872895002" lon="12.235035058110952">
        <ele>1159.9677734375</ele>
        <time>2013-07-10T17:37:00Z</time>
      </trkpt>
      <trkpt lat="47.727907486259937" lon="12.235127007588744">
        <ele>1161.409912109375</ele>
        <time>2013-07-10T17:37:09Z</time>
      </trkpt>
      <trkpt lat="47.728066323325038" lon="12.235267320647836">
        <ele>1162.37109375</ele>
        <time>2013-07-10T17:37:22Z</time>
      </trkpt>
      <trkpt lat="47.728225663304329" lon="12.235394222661853">
        <ele>1160.448486328125</ele>
        <time>2013-07-10T17:37:29Z</time>
      </trkpt>
      <trkpt lat="47.728553228080273" lon="12.235640650615096">
        <ele>1161.409912109375</ele>
        <time>2013-07-10T17:37:37Z</time>
      </trkpt>
      <trkpt lat="47.728803930804133" lon="12.235904512926936">
        <ele>1161.890625</ele>
        <time>2013-07-10T17:37:47Z</time>
      </trkpt>
      <trkpt lat="47.729068379849195" lon="12.236116826534271">
        <ele>1163.81298828125</ele>
        <time>2013-07-10T17:37:58Z</time>
      </trkpt>
      <trkpt lat="47.729327045381069" lon="12.236235179007053">
        <ele>1166.216552734375</ele>
        <time>2013-07-10T17:38:13Z</time>
      </trkpt>
      <trkpt lat="47.729521673172712" lon="12.236296450719237">
        <ele>1167.177978515625</ele>
        <time>2013-07-10T17:38:24Z</time>
      </trkpt>
      <trkpt lat="47.729604570195079" lon="12.236321764066815">
        <ele>1168.13916015625</ele>
        <time>2013-07-10T17:38:31Z</time>
      </trkpt>
      <trkpt lat="47.729591578245163" lon="12.236316818743944">
        <ele>1167.658447265625</ele>
        <time>2013-07-10T17:38:57Z</time>
      </trkpt>
      <trkpt lat="47.729598870500922" lon="12.236323188990355">
        <ele>1168.619873046875</ele>
        <time>2013-07-10T17:39:13Z</time>
      </trkpt>
      <trkpt lat="47.72971211001277" lon="12.236357303336263">
        <ele>1169.581298828125</ele>
        <time>2013-07-10T17:39:21Z</time>
      </trkpt>
      <trkpt lat="47.7297502476722" lon="12.236365266144276">
        <ele>1169.1005859375</ele>
        <time>2013-07-10T17:39:27Z</time>
      </trkpt>
      <trkpt lat="47.729746140539646" lon="12.236375994980335">
        <ele>1169.1005859375</ele>
        <time>2013-07-10T17:40:32Z</time>
      </trkpt>
      <trkpt lat="47.729885866865516" lon="12.23639627918601">
        <ele>1170.061767578125</ele>
        <time>2013-07-10T17:40:40Z</time>
      </trkpt>
      <trkpt lat="47.73010890930891" lon="12.236498957499862">
        <ele>1170.061767578125</ele>
        <time>2013-07-10T17:40:50Z</time>
      </trkpt>
      <trkpt lat="47.730384757742286" lon="12.236619740724564">
        <ele>1171.023193359375</ele>
        <time>2013-07-10T17:41:02Z</time>
      </trkpt>
      <trkpt lat="47.730516102164984" lon="12.23667430691421">
        <ele>1172.465087890625</ele>
        <time>2013-07-10T17:41:09Z</time>
      </trkpt>
      <trkpt lat="47.730664713308215" lon="12.236738009378314">
        <ele>1174.3876953125</ele>
        <time>2013-07-10T17:41:18Z</time>
      </trkpt>
      <trkpt lat="47.730819275602698" lon="12.23683507181704">
        <ele>1174.868408203125</ele>
        <time>2013-07-10T17:41:27Z</time>
      </trkpt>
      <trkpt lat="47.730980962514877" lon="12.236956190317869">
        <ele>1176.310302734375</ele>
        <time>2013-07-10T17:41:38Z</time>
      </trkpt>
      <trkpt lat="47.731082467362285" lon="12.237039422616363">
        <ele>1178.23291015625</ele>
        <time>2013-07-10T17:41:47Z</time>
      </trkpt>
      <trkpt lat="47.731115240603685" lon="12.237082840874791">
        <ele>1180.15576171875</ele>
        <time>2013-07-10T17:41:52Z</time>
      </trkpt>
      <trkpt lat="47.731129908934236" lon="12.237095916643739">
        <ele>1179.6748046875</ele>
        <time>2013-07-10T17:41:54Z</time>
      </trkpt>
      <trkpt lat="47.731215404346585" lon="12.237181831151247">
        <ele>1182.55908203125</ele>
        <time>2013-07-10T17:42:04Z</time>
      </trkpt>
      <trkpt lat="47.731321351602674" lon="12.237272104248405">
        <ele>1185.44287109375</ele>
        <time>2013-07-10T17:42:16Z</time>
      </trkpt>
      <trkpt lat="47.731412379071116" lon="12.237374698743224">
        <ele>1187.365478515625</ele>
        <time>2013-07-10T17:42:25Z</time>
      </trkpt>
      <trkpt lat="47.731474908068776" lon="12.237458433955908">
        <ele>1188.8076171875</ele>
        <time>2013-07-10T17:42:32Z</time>
      </trkpt>
      <trkpt lat="47.731523104012012" lon="12.237514927983284">
        <ele>1189.768798828125</ele>
        <time>2013-07-10T17:42:41Z</time>
      </trkpt>
      <trkpt lat="47.731603486463428" lon="12.237560274079442">
        <ele>1191.69140625</ele>
        <time>2013-07-10T17:42:52Z</time>
      </trkpt>
      <trkpt lat="47.731689400970936" lon="12.237631436437368">
        <ele>1194.5751953125</ele>
        <time>2013-07-10T17:43:06Z</time>
      </trkpt>
      <trkpt lat="47.731746733188629" lon="12.23766915500164">
        <ele>1196.978759765625</ele>
        <time>2013-07-10T17:43:20Z</time>
      </trkpt>
      <trkpt lat="47.731766598299146" lon="12.237685164436698">
        <ele>1197.45947265625</ele>
        <time>2013-07-10T17:43:22Z</time>
      </trkpt>
      <trkpt lat="47.731886627152562" lon="12.237794799730182">
        <ele>1199.382080078125</ele>
        <time>2013-07-10T17:43:34Z</time>
      </trkpt>
      <trkpt lat="47.731912191957235" lon="12.237829836085439">
        <ele>1198.420654296875</ele>
        <time>2013-07-10T17:43:46Z</time>
      </trkpt>
      <trkpt lat="47.732010763138533" lon="12.237906949594617">
        <ele>1200.343505859375</ele>
        <time>2013-07-10T17:43:54Z</time>
      </trkpt>
      <trkpt lat="47.732133222743869" lon="12.238016417250037">
        <ele>1201.3046875</ele>
        <time>2013-07-10T17:44:02Z</time>
      </trkpt>
      <trkpt lat="47.732254257425666" lon="12.238079532980919">
        <ele>1203.227294921875</ele>
        <time>2013-07-10T17:44:10Z</time>
      </trkpt>
      <trkpt lat="47.732319384813309" lon="12.238122867420316">
        <ele>1203.7080078125</ele>
        <time>2013-07-10T17:44:16Z</time>
      </trkpt>
      <trkpt lat="47.732373028993607" lon="12.238177852705121">
        <ele>1205.14990234375</ele>
        <time>2013-07-10T17:44:25Z</time>
      </trkpt>
      <trkpt lat="47.732422314584255" lon="12.238209452480078">
        <ele>1207.072509765625</ele>
        <time>2013-07-10T17:44:33Z</time>
      </trkpt>
      <trkpt lat="47.732441509142518" lon="12.23820760846138">
        <ele>1207.55322265625</ele>
        <time>2013-07-10T17:44:42Z</time>
      </trkpt>
      <trkpt lat="47.73245039395988" lon="12.238225294277072">
        <ele>1208.033935546875</ele>
        <time>2013-07-10T17:44:56Z</time>
      </trkpt>
      <trkpt lat="47.732547204941511" lon="12.23824717104435">
        <ele>1209.475830078125</ele>
        <time>2013-07-10T17:45:06Z</time>
      </trkpt>
      <trkpt lat="47.732655163854361" lon="12.238280531018972">
        <ele>1211.879150390625</ele>
        <time>2013-07-10T17:45:17Z</time>
      </trkpt>
      <trkpt lat="47.732748873531818" lon="12.238334678113461">
        <ele>1212.840576171875</ele>
        <time>2013-07-10T17:45:27Z</time>
      </trkpt>
      <trkpt lat="47.732824813574553" lon="12.238393938168883">
        <ele>1213.3212890625</ele>
        <time>2013-07-10T17:45:34Z</time>
      </trkpt>
      <trkpt lat="47.732912404462695" lon="12.238444900140166">
        <ele>1214.76318359375</ele>
        <time>2013-07-10T17:45:41Z</time>
      </trkpt>
      <trkpt lat="47.733067469671369" lon="12.238549422472715">
        <ele>1216.685791015625</ele>
        <time>2013-07-10T17:45:56Z</time>
      </trkpt>
      <trkpt lat="47.733138212934136" lon="12.238594768568873">
        <ele>1218.127685546875</ele>
        <time>2013-07-10T17:46:05Z</time>
      </trkpt>
      <trkpt lat="47.733240891247988" lon="12.23861807025969">
        <ele>1220.531005859375</ele>
        <time>2013-07-10T17:46:15Z</time>
      </trkpt>
      <trkpt lat="47.733372151851654" lon="12.238710941746831">
        <ele>1223.4150390625</ele>
        <time>2013-07-10T17:46:31Z</time>
      </trkpt>
      <trkpt lat="47.733511961996555" lon="12.238759975880384">
        <ele>1225.818115234375</ele>
        <time>2013-07-10T17:46:43Z</time>
      </trkpt>
      <trkpt lat="47.733609192073345" lon="12.238766429945827">
        <ele>1226.298828125</ele>
        <time>2013-07-10T17:46:56Z</time>
      </trkpt>
      <trkpt lat="47.733694519847631" lon="12.238773386925459">
        <ele>1228.2216796875</ele>
        <time>2013-07-10T17:47:08Z</time>
      </trkpt>
      <trkpt lat="47.73378973826766" lon="12.238787971436977">
        <ele>1230.625</ele>
        <time>2013-07-10T17:47:17Z</time>
      </trkpt>
      <trkpt lat="47.733923010528088" lon="12.238773638382554">
        <ele>1230.625</ele>
        <time>2013-07-10T17:47:25Z</time>
      </trkpt>
      <trkpt lat="47.734071454033256" lon="12.238723682239652">
        <ele>1232.06689453125</ele>
        <time>2013-07-10T17:47:34Z</time>
      </trkpt>
      <trkpt lat="47.734185364097357" lon="12.238678000867367">
        <ele>1233.5087890625</ele>
        <time>2013-07-10T17:47:42Z</time>
      </trkpt>
      <trkpt lat="47.734215287491679" lon="12.238595858216286">
        <ele>1234.47021484375</ele>
        <time>2013-07-10T17:47:48Z</time>
      </trkpt>
      <trkpt lat="47.734175641089678" lon="12.238579262048006">
        <ele>1234.950927734375</ele>
        <time>2013-07-10T17:47:51Z</time>
      </trkpt>
      <trkpt lat="47.734034908935428" lon="12.238609017804265">
        <ele>1237.35400390625</ele>
        <time>2013-07-10T17:48:01Z</time>
      </trkpt>
      <trkpt lat="47.733920160681009" lon="12.238604575395584">
        <ele>1238.796142578125</ele>
        <time>2013-07-10T17:48:10Z</time>
      </trkpt>
      <trkpt lat="47.733876826241612" lon="12.238588398322463">
        <ele>1240.238037109375</ele>
        <time>2013-07-10T17:48:14Z</time>
      </trkpt>
      <trkpt lat="47.73382879793644" lon="12.238552859053016">
        <ele>1240.718505859375</ele>
        <time>2013-07-10T17:48:18Z</time>
      </trkpt>
      <trkpt lat="47.733782781288028" lon="12.238506004214287">
        <ele>1242.641357421875</ele>
        <time>2013-07-10T17:48:22Z</time>
      </trkpt>
      <trkpt lat="47.733703488484025" lon="12.238419419154525">
        <ele>1243.6025390625</ele>
        <time>2013-07-10T17:48:31Z</time>
      </trkpt>
      <trkpt lat="47.733664512634277" lon="12.238389411941171">
        <ele>1245.044677734375</ele>
        <time>2013-07-10T17:48:35Z</time>
      </trkpt>
      <trkpt lat="47.733565187081695" lon="12.238346077501774">
        <ele>1246.96728515625</ele>
        <time>2013-07-10T17:48:44Z</time>
      </trkpt>
      <trkpt lat="47.733496371656656" lon="12.238294780254364">
        <ele>1247.9287109375</ele>
        <time>2013-07-10T17:48:51Z</time>
      </trkpt>
      <trkpt lat="47.733463263139129" lon="12.238262007012963">
        <ele>1248.889892578125</ele>
        <time>2013-07-10T17:48:55Z</time>
      </trkpt>
      <trkpt lat="47.733404254540801" lon="12.238196041435003">
        <ele>1250.8125</ele>
        <time>2013-07-10T17:49:02Z</time>
      </trkpt>
      <trkpt lat="47.733336947858334" lon="12.238105097785592">
        <ele>1252.735107421875</ele>
        <time>2013-07-10T17:49:08Z</time>
      </trkpt>
      <trkpt lat="47.733246423304081" lon="12.237948607653379">
        <ele>1254.65771484375</ele>
        <time>2013-07-10T17:49:17Z</time>
      </trkpt>
      <trkpt lat="47.73321021348238" lon="12.237802091985941">
        <ele>1256.099609375</ele>
        <time>2013-07-10T17:49:25Z</time>
      </trkpt>
      <trkpt lat="47.733170902356505" lon="12.237630598247051">
        <ele>1257.541748046875</ele>
        <time>2013-07-10T17:49:34Z</time>
      </trkpt>
      <trkpt lat="47.733161263167858" lon="12.237584749236703">
        <ele>1258.0224609375</ele>
        <time>2013-07-10T17:49:36Z</time>
      </trkpt>
      <trkpt lat="47.733111642301083" lon="12.237434042617679">
        <ele>1259.94482421875</ele>
        <time>2013-07-10T17:49:44Z</time>
      </trkpt>
      <trkpt lat="47.733080210164189" lon="12.237291550263762">
        <ele>1260.906494140625</ele>
        <time>2013-07-10T17:49:52Z</time>
      </trkpt>
      <trkpt lat="47.733065206557512" lon="12.237244779244065">
        <ele>1261.867919921875</ele>
        <time>2013-07-10T17:49:59Z</time>
      </trkpt>
      <trkpt lat="47.733034864068031" lon="12.237189542502165">
        <ele>1264.27099609375</ele>
        <time>2013-07-10T17:50:08Z</time>
      </trkpt>
      <trkpt lat="47.732960851863027" lon="12.23703296855092">
        <ele>1267.155029296875</ele>
        <time>2013-07-10T17:50:21Z</time>
      </trkpt>
      <trkpt lat="47.732906872406602" lon="12.236905144527555">
        <ele>1270.038818359375</ele>
        <time>2013-07-10T17:50:33Z</time>
      </trkpt>
      <trkpt lat="47.732846606522799" lon="12.236760808154941">
        <ele>1271.000244140625</ele>
        <time>2013-07-10T17:50:44Z</time>
      </trkpt>
      <trkpt lat="47.732778713107109" lon="12.236621584743261">
        <ele>1274.36474609375</ele>
        <time>2013-07-10T17:50:56Z</time>
      </trkpt>
      <trkpt lat="47.732732193544507" lon="12.23650767467916">
        <ele>1275.806640625</ele>
        <time>2013-07-10T17:51:05Z</time>
      </trkpt>
      <trkpt lat="47.73264485411346" lon="12.236338108778">
        <ele>1279.17138671875</ele>
        <time>2013-07-10T17:51:19Z</time>
      </trkpt>
      <trkpt lat="47.732576709240675" lon="12.23620911128819">
        <ele>1281.09423828125</ele>
        <time>2013-07-10T17:51:31Z</time>
      </trkpt>
      <trkpt lat="47.732563717290759" lon="12.2361827082932">
        <ele>1281.57470703125</ele>
        <time>2013-07-10T17:51:33Z</time>
      </trkpt>
      <trkpt lat="47.732471600174904" lon="12.236019931733608">
        <ele>1283.0166015625</ele>
        <time>2013-07-10T17:51:46Z</time>
      </trkpt>
      <trkpt lat="47.732362048700452" lon="12.235759757459164">
        <ele>1286.38134765625</ele>
        <time>2013-07-10T17:52:04Z</time>
      </trkpt>
      <trkpt lat="47.732354169711471" lon="12.235728157684207">
        <ele>1285.900634765625</ele>
        <time>2013-07-10T17:52:12Z</time>
      </trkpt>
      <trkpt lat="47.732318798080087" lon="12.235641991719604">
        <ele>1286.86181640625</ele>
        <time>2013-07-10T17:52:19Z</time>
      </trkpt>
      <trkpt lat="47.732236906886101" lon="12.235455075278878">
        <ele>1287.8232421875</ele>
        <time>2013-07-10T17:52:29Z</time>
      </trkpt>
      <trkpt lat="47.732157781720161" lon="12.23530906252563">
        <ele>1289.745849609375</ele>
        <time>2013-07-10T17:52:39Z</time>
      </trkpt>
      <trkpt lat="47.732117297127843" lon="12.235211580991745">
        <ele>1291.66845703125</ele>
        <time>2013-07-10T17:52:45Z</time>
      </trkpt>
      <trkpt lat="47.732061389833689" lon="12.235076129436493">
        <ele>1292.630126953125</ele>
        <time>2013-07-10T17:52:53Z</time>
      </trkpt>
      <trkpt lat="47.731980085372925" lon="12.23494847305119">
        <ele>1293.110595703125</ele>
        <time>2013-07-10T17:53:01Z</time>
      </trkpt>
      <trkpt lat="47.731904732063413" lon="12.234855517745018">
        <ele>1293.110595703125</ele>
        <time>2013-07-10T17:53:07Z</time>
      </trkpt>
      <trkpt lat="47.731864331290126" lon="12.234808830544353">
        <ele>1294.552490234375</ele>
        <time>2013-07-10T17:53:10Z</time>
      </trkpt>
      <trkpt lat="47.731803981587291" lon="12.23470170982182">
        <ele>1295.033203125</ele>
        <time>2013-07-10T17:53:17Z</time>
      </trkpt>
      <trkpt lat="47.731727119535208" lon="12.234579250216484">
        <ele>1295.99462890625</ele>
        <time>2013-07-10T17:53:25Z</time>
      </trkpt>
      <trkpt lat="47.731685545295477" lon="12.234496604651213">
        <ele>1296.955810546875</ele>
        <time>2013-07-10T17:53:31Z</time>
      </trkpt>
      <trkpt lat="47.731638858094811" lon="12.234394010156393">
        <ele>1298.397705078125</ele>
        <time>2013-07-10T17:53:38Z</time>
      </trkpt>
      <trkpt lat="47.731563253328204" lon="12.234274819493294">
        <ele>1299.359130859375</ele>
        <time>2013-07-10T17:53:46Z</time>
      </trkpt>
      <trkpt lat="47.731484211981297" lon="12.234190162271261">
        <ele>1300.801025390625</ele>
        <time>2013-07-10T17:53:53Z</time>
      </trkpt>
      <trkpt lat="47.731412127614021" lon="12.234110282734036">
        <ele>1301.762451171875</ele>
        <time>2013-07-10T17:54:02Z</time>
      </trkpt>
      <trkpt lat="47.731318166479468" lon="12.234034342691302">
        <ele>1302.7236328125</ele>
        <time>2013-07-10T17:54:08Z</time>
      </trkpt>
      <trkpt lat="47.731216577813029" lon="12.23395018838346">
        <ele>1303.204345703125</ele>
        <time>2013-07-10T17:54:14Z</time>
      </trkpt>
      <trkpt lat="47.731111636385322" lon="12.233882462605834">
        <ele>1304.165771484375</ele>
        <time>2013-07-10T17:54:21Z</time>
      </trkpt>
      <trkpt lat="47.730984315276146" lon="12.233788250014186">
        <ele>1304.646240234375</ele>
        <time>2013-07-10T17:54:28Z</time>
      </trkpt>
      <trkpt lat="47.730876775458455" lon="12.233678279444575">
        <ele>1304.646240234375</ele>
        <time>2013-07-10T17:54:34Z</time>
      </trkpt>
      <trkpt lat="47.730818102136254" lon="12.233629496768117">
        <ele>1305.607666015625</ele>
        <time>2013-07-10T17:54:37Z</time>
      </trkpt>
      <trkpt lat="47.730715088546276" lon="12.23353679291904">
        <ele>1306.56884765625</ele>
        <time>2013-07-10T17:54:44Z</time>
      </trkpt>
      <trkpt lat="47.730623977258801" lon="12.233431516215205">
        <ele>1307.049560546875</ele>
        <time>2013-07-10T17:54:50Z</time>
      </trkpt>
      <trkpt lat="47.730501601472497" lon="12.233299668878317">
        <ele>1307.5302734375</ele>
        <time>2013-07-10T17:54:57Z</time>
      </trkpt>
      <trkpt lat="47.730374364182353" lon="12.23312976770103">
        <ele>1307.5302734375</ele>
        <time>2013-07-10T17:55:04Z</time>
      </trkpt>
      <trkpt lat="47.730230866000056" lon="12.232943689450622">
        <ele>1308.972412109375</ele>
        <time>2013-07-10T17:55:12Z</time>
      </trkpt>
      <trkpt lat="47.730046631768346" lon="12.232697680592537">
        <ele>1310.414306640625</ele>
        <time>2013-07-10T17:55:21Z</time>
      </trkpt>
      <trkpt lat="47.729874551296234" lon="12.232458209618926">
        <ele>1309.93359375</ele>
        <time>2013-07-10T17:55:32Z</time>
      </trkpt>
      <trkpt lat="47.729810429736972" lon="12.232394842430949">
        <ele>1309.453125</ele>
        <time>2013-07-10T17:55:38Z</time>
      </trkpt>
      <trkpt lat="47.729812525212765" lon="12.232388891279697">
        <ele>1309.93359375</ele>
        <time>2013-07-10T17:55:47Z</time>
      </trkpt>
      <trkpt lat="47.72977321408689" lon="12.232482684776187">
        <ele>1308.49169921875</ele>
        <time>2013-07-10T17:55:54Z</time>
      </trkpt>
      <trkpt lat="47.729727532714605" lon="12.232513530179858">
        <ele>1308.01123046875</ele>
        <time>2013-07-10T17:56:00Z</time>
      </trkpt>
      <trkpt lat="47.72975217550993" lon="12.232420491054654">
        <ele>1308.49169921875</ele>
        <time>2013-07-10T17:56:07Z</time>
      </trkpt>
      <trkpt lat="47.729751002043486" lon="12.232348155230284">
        <ele>1308.972412109375</ele>
        <time>2013-07-10T17:56:14Z</time>
      </trkpt>
      <trkpt lat="47.729748571291566" lon="12.232365338131785">
        <ele>1308.01123046875</ele>
        <time>2013-07-10T17:56:32Z</time>
      </trkpt>
      <trkpt lat="47.729745386168361" lon="12.232348993420601">
        <ele>1308.49169921875</ele>
        <time>2013-07-10T17:57:49Z</time>
      </trkpt>
      <trkpt lat="47.729740692302585" lon="12.23235972225666">
        <ele>1308.972412109375</ele>
        <time>2013-07-10T17:58:06Z</time>
      </trkpt>
      <trkpt lat="47.729776399210095" lon="12.232365924865007">
        <ele>1308.49169921875</ele>
        <time>2013-07-10T17:58:32Z</time>
      </trkpt>
      <trkpt lat="47.729747481644154" lon="12.232495928183198">
        <ele>1308.49169921875</ele>
        <time>2013-07-10T17:58:42Z</time>
      </trkpt>
      <trkpt lat="47.729736249893904" lon="12.232507495209575">
        <ele>1308.49169921875</ele>
        <time>2013-07-10T17:58:53Z</time>
      </trkpt>
      <trkpt lat="47.729733064770699" lon="12.232505483552814">
        <ele>1308.01123046875</ele>
        <time>2013-07-10T17:59:36Z</time>
      </trkpt>
      <trkpt lat="47.729731807485223" lon="12.232502549886703">
        <ele>1308.49169921875</ele>
        <time>2013-07-10T18:00:19Z</time>
      </trkpt>
      <trkpt lat="47.729731053113937" lon="12.23250288516283">
        <ele>1308.49169921875</ele>
        <time>2013-07-10T18:01:37Z</time>
      </trkpt>
      <trkpt lat="47.729743123054504" lon="12.232500286772847">
        <ele>1309.93359375</ele>
        <time>2013-07-10T18:06:36Z</time>
      </trkpt>
      <trkpt lat="47.729748487472534" lon="12.232490563765168">
        <ele>1310.414306640625</ele>
        <time>2013-07-10T18:10:26Z</time>
      </trkpt>
      <trkpt lat="47.729779332876205" lon="12.232410181313753">
        <ele>1310.414306640625</ele>
        <time>2013-07-10T18:10:32Z</time>
      </trkpt>
      <trkpt lat="47.72979081608355" lon="12.232343629002571">
        <ele>1310.414306640625</ele>
        <time>2013-07-10T18:10:39Z</time>
      </trkpt>
      <trkpt lat="47.7298020478338" lon="12.232396686449647">
        <ele>1310.414306640625</ele>
        <time>2013-07-10T18:10:55Z</time>
      </trkpt>
      <trkpt lat="47.729763742536306" lon="12.232477990910411">
        <ele>1310.414306640625</ele>
        <time>2013-07-10T18:11:08Z</time>
      </trkpt>
      <trkpt lat="47.729710936546326" lon="12.232521492987871">
        <ele>1309.453125</ele>
        <time>2013-07-10T18:11:18Z</time>
      </trkpt>
      <trkpt lat="47.729714121669531" lon="12.232513278722763">
        <ele>1309.93359375</ele>
        <time>2013-07-10T18:11:41Z</time>
      </trkpt>
      <trkpt lat="47.729716300964355" lon="12.232490563765168">
        <ele>1309.93359375</ele>
        <time>2013-07-10T18:11:48Z</time>
      </trkpt>
      <trkpt lat="47.729756701737642" lon="12.232467764988542">
        <ele>1310.414306640625</ele>
        <time>2013-07-10T18:12:11Z</time>
      </trkpt>
      <trkpt lat="47.729816045612097" lon="12.232390148565173">
        <ele>1311.375732421875</ele>
        <time>2013-07-10T18:12:22Z</time>
      </trkpt>
      <trkpt lat="47.729821326211095" lon="12.232388304546475">
        <ele>1311.8564453125</ele>
        <time>2013-07-10T18:12:31Z</time>
      </trkpt>
      <trkpt lat="47.729877233505249" lon="12.232411522418261">
        <ele>1312.3369140625</ele>
        <time>2013-07-10T18:12:39Z</time>
      </trkpt>
      <trkpt lat="47.729877233505249" lon="12.232409929856658">
        <ele>1312.817626953125</ele>
        <time>2013-07-10T18:12:40Z</time>
      </trkpt>
      <trkpt lat="47.729935152456164" lon="12.232417222112417">
        <ele>1312.817626953125</ele>
        <time>2013-07-10T18:12:49Z</time>
      </trkpt>
      <trkpt lat="47.729943282902241" lon="12.232386879622936">
        <ele>1312.817626953125</ele>
        <time>2013-07-10T18:12:56Z</time>
      </trkpt>
      <trkpt lat="47.729936996474862" lon="12.232394507154822">
        <ele>1312.817626953125</ele>
        <time>2013-07-10T18:13:07Z</time>
      </trkpt>
      <trkpt lat="47.729927944019437" lon="12.232348825782537">
        <ele>1312.817626953125</ele>
        <time>2013-07-10T18:13:18Z</time>
      </trkpt>
      <trkpt lat="47.72992417216301" lon="12.232340695336461">
        <ele>1313.29833984375</ele>
        <time>2013-07-10T18:13:19Z</time>
      </trkpt>
      <trkpt lat="47.729915203526616" lon="12.23231521435082">
        <ele>1314.259521484375</ele>
        <time>2013-07-10T18:13:21Z</time>
      </trkpt>
      <trkpt lat="47.729824176058173" lon="12.232031906023622">
        <ele>1315.70166015625</ele>
        <time>2013-07-10T18:13:34Z</time>
      </trkpt>
      <trkpt lat="47.729774219915271" lon="12.231766618788242">
        <ele>1316.662841796875</ele>
        <time>2013-07-10T18:13:45Z</time>
      </trkpt>
      <trkpt lat="47.729719989001751" lon="12.23153586499393">
        <ele>1319.066162109375</ele>
        <time>2013-07-10T18:13:56Z</time>
      </trkpt>
      <trkpt lat="47.729641869664192" lon="12.231380548328161">
        <ele>1320.98876953125</ele>
        <time>2013-07-10T18:14:06Z</time>
      </trkpt>
      <trkpt lat="47.729564001783729" lon="12.231217185035348">
        <ele>1322.4306640625</ele>
        <time>2013-07-10T18:14:17Z</time>
      </trkpt>
      <trkpt lat="47.729503735899925" lon="12.231090366840363">
        <ele>1324.353515625</ele>
        <time>2013-07-10T18:14:25Z</time>
      </trkpt>
      <trkpt lat="47.72946685552597" lon="12.231005877256393">
        <ele>1323.39208984375</ele>
        <time>2013-07-10T18:14:30Z</time>
      </trkpt>
      <trkpt lat="47.729456042870879" lon="12.230957262217999">
        <ele>1324.353515625</ele>
        <time>2013-07-10T18:14:35Z</time>
      </trkpt>
      <trkpt lat="47.729414300993085" lon="12.230805214494467">
        <ele>1325.79541015625</ele>
        <time>2013-07-10T18:14:48Z</time>
      </trkpt>
      <trkpt lat="47.7294169832021" lon="12.230806387960911">
        <ele>1325.314697265625</ele>
        <time>2013-07-10T18:14:52Z</time>
      </trkpt>
      <trkpt lat="47.729371888563037" lon="12.230684012174606">
        <ele>1326.7568359375</ele>
        <time>2013-07-10T18:15:01Z</time>
      </trkpt>
      <trkpt lat="47.729297121986747" lon="12.230512434616685">
        <ele>1327.718017578125</ele>
        <time>2013-07-10T18:15:11Z</time>
      </trkpt>
      <trkpt lat="47.729203244671226" lon="12.23028008826077">
        <ele>1330.121337890625</ele>
        <time>2013-07-10T18:15:24Z</time>
      </trkpt>
      <trkpt lat="47.729120599105954" lon="12.230035336688161">
        <ele>1331.563232421875</ele>
        <time>2013-07-10T18:15:37Z</time>
      </trkpt>
      <trkpt lat="47.729066032916307" lon="12.229765942320228">
        <ele>1333.966552734375</ele>
        <time>2013-07-10T18:15:51Z</time>
      </trkpt>
      <trkpt lat="47.72902462631464" lon="12.229519933462143">
        <ele>1336.369873046875</ele>
        <time>2013-07-10T18:16:04Z</time>
      </trkpt>
      <trkpt lat="47.729027895256877" lon="12.229249365627766">
        <ele>1339.734375</ele>
        <time>2013-07-10T18:16:18Z</time>
      </trkpt>
      <trkpt lat="47.729103332385421" lon="12.229187842458487">
        <ele>1340.69580078125</ele>
        <time>2013-07-10T18:16:25Z</time>
      </trkpt>
      <trkpt lat="47.729246327653527" lon="12.229309631511569">
        <ele>1342.137939453125</ele>
        <time>2013-07-10T18:16:36Z</time>
      </trkpt>
      <trkpt lat="47.729418324306607" lon="12.22946260124445">
        <ele>1345.021728515625</ele>
        <time>2013-07-10T18:16:51Z</time>
      </trkpt>
      <trkpt lat="47.729548662900925" lon="12.229580702260137">
        <ele>1345.50244140625</ele>
        <time>2013-07-10T18:17:02Z</time>
      </trkpt>
      <trkpt lat="47.729682773351669" lon="12.229688242077827">
        <ele>1346.9443359375</ele>
        <time>2013-07-10T18:17:13Z</time>
      </trkpt>
      <trkpt lat="47.729797270148993" lon="12.229783963412046">
        <ele>1348.38623046875</ele>
        <time>2013-07-10T18:17:23Z</time>
      </trkpt>
      <trkpt lat="47.729923166334629" lon="12.229925449937582">
        <ele>1348.866943359375</ele>
        <time>2013-07-10T18:17:34Z</time>
      </trkpt>
      <trkpt lat="47.730012014508247" lon="12.230064505711198">
        <ele>1350.78955078125</ele>
        <time>2013-07-10T18:17:43Z</time>
      </trkpt>
      <trkpt lat="47.730104802176356" lon="12.230184534564614">
        <ele>1352.2314453125</ele>
        <time>2013-07-10T18:17:52Z</time>
      </trkpt>
      <trkpt lat="47.730184094980359" lon="12.230274807661772">
        <ele>1353.673583984375</ele>
        <time>2013-07-10T18:18:00Z</time>
      </trkpt>
      <trkpt lat="47.730310829356313" lon="12.230387963354588">
        <ele>1356.076904296875</ele>
        <time>2013-07-10T18:18:11Z</time>
      </trkpt>
      <trkpt lat="47.730408981442451" lon="12.230518385767937">
        <ele>1356.5576171875</ele>
        <time>2013-07-10T18:18:21Z</time>
      </trkpt>
      <trkpt lat="47.730493135750294" lon="12.230634978041053">
        <ele>1357.999755859375</ele>
        <time>2013-07-10T18:18:30Z</time>
      </trkpt>
      <trkpt lat="47.730608554556966" lon="12.230768753215671">
        <ele>1359.441650390625</ele>
        <time>2013-07-10T18:18:41Z</time>
      </trkpt>
      <trkpt lat="47.730768816545606" lon="12.230994394049048">
        <ele>1361.3642578125</ele>
        <time>2013-07-10T18:18:55Z</time>
      </trkpt>
      <trkpt lat="47.730923378840089" lon="12.231093719601631">
        <ele>1362.325439453125</ele>
        <time>2013-07-10T18:19:07Z</time>
      </trkpt>
      <trkpt lat="47.731047431007028" lon="12.231289269402623">
        <ele>1364.248046875</ele>
        <time>2013-07-10T18:19:19Z</time>
      </trkpt>
      <trkpt lat="47.731172824278474" lon="12.231466379016638">
        <ele>1365.20947265625</ele>
        <time>2013-07-10T18:19:30Z</time>
      </trkpt>
      <trkpt lat="47.731310622766614" lon="12.231605099514127">
        <ele>1366.170654296875</ele>
        <time>2013-07-10T18:19:41Z</time>
      </trkpt>
      <trkpt lat="47.731452444568276" lon="12.231768043711782">
        <ele>1367.132080078125</ele>
        <time>2013-07-10T18:19:53Z</time>
      </trkpt>
      <trkpt lat="47.731542885303497" lon="12.231857646256685">
        <ele>1368.09326171875</ele>
        <time>2013-07-10T18:20:00Z</time>
      </trkpt>
      <trkpt lat="47.731661908328533" lon="12.231923611834645">
        <ele>1368.573974609375</ele>
        <time>2013-07-10T18:20:09Z</time>
      </trkpt>
      <trkpt lat="47.731736591085792" lon="12.231993097811937">
        <ele>1370.015869140625</ele>
        <time>2013-07-10T18:20:16Z</time>
      </trkpt>
      <trkpt lat="47.731744637712836" lon="12.232007849961519">
        <ele>1370.977294921875</ele>
        <time>2013-07-10T18:20:17Z</time>
      </trkpt>
      <trkpt lat="47.731781015172601" lon="12.232063924893737">
        <ele>1371.457763671875</ele>
        <time>2013-07-10T18:20:21Z</time>
      </trkpt>
      <trkpt lat="47.731869360432029" lon="12.23211882635951">
        <ele>1371.457763671875</ele>
        <time>2013-07-10T18:20:28Z</time>
      </trkpt>
      <trkpt lat="47.731948653236032" lon="12.232153275981545">
        <ele>1372.900146484375</ele>
        <time>2013-07-10T18:20:34Z</time>
      </trkpt>
      <trkpt lat="47.732037669047713" lon="12.232182109728456">
        <ele>1373.380859375</ele>
        <time>2013-07-10T18:20:41Z</time>
      </trkpt>
      <trkpt lat="47.732142526656389" lon="12.23221211694181">
        <ele>1373.380859375</ele>
        <time>2013-07-10T18:20:48Z</time>
      </trkpt>
      <trkpt lat="47.732255849987268" lon="12.232351927086711">
        <ele>1375.30322265625</ele>
        <time>2013-07-10T18:20:57Z</time>
      </trkpt>
      <trkpt lat="47.732420051470399" lon="12.232503555715084">
        <ele>1375.783935546875</ele>
        <time>2013-07-10T18:21:10Z</time>
      </trkpt>
      <trkpt lat="47.732589701190591" lon="12.232682090252638">
        <ele>1377.22607421875</ele>
        <time>2013-07-10T18:21:23Z</time>
      </trkpt>
      <trkpt lat="47.732710232958198" lon="12.232814272865653">
        <ele>1379.1484375</ele>
        <time>2013-07-10T18:21:33Z</time>
      </trkpt>
      <trkpt lat="47.732746610417962" lon="12.232846627011895">
        <ele>1379.1484375</ele>
        <time>2013-07-10T18:21:36Z</time>
      </trkpt>
      <trkpt lat="47.732856329530478" lon="12.232896080240607">
        <ele>1381.0712890625</ele>
        <time>2013-07-10T18:21:45Z</time>
      </trkpt>
      <trkpt lat="47.732972335070372" lon="12.232946958392859">
        <ele>1381.0712890625</ele>
        <time>2013-07-10T18:21:54Z</time>
      </trkpt>
      <trkpt lat="47.733074678108096" lon="12.233042679727077">
        <ele>1382.032470703125</ele>
        <time>2013-07-10T18:22:03Z</time>
      </trkpt>
      <trkpt lat="47.73314131423831" lon="12.233109483495355">
        <ele>1382.99365234375</ele>
        <time>2013-07-10T18:22:09Z</time>
      </trkpt>
      <trkpt lat="47.733182469382882" lon="12.233153069391847">
        <ele>1383.474365234375</ele>
        <time>2013-07-10T18:22:13Z</time>
      </trkpt>
      <trkpt lat="47.733286321163177" lon="12.233233200386167">
        <ele>1384.435791015625</ele>
        <time>2013-07-10T18:22:21Z</time>
      </trkpt>
      <trkpt lat="47.733375588431954" lon="12.233301093801856">
        <ele>1385.877685546875</ele>
        <time>2013-07-10T18:22:29Z</time>
      </trkpt>
      <trkpt lat="47.733455970883369" lon="12.233432354405522">
        <ele>1386.8388671875</ele>
        <time>2013-07-10T18:22:38Z</time>
      </trkpt>
      <trkpt lat="47.733471393585205" lon="12.233469067141414">
        <ele>1387.319580078125</ele>
        <time>2013-07-10T18:22:40Z</time>
      </trkpt>
      <trkpt lat="47.733500311151147" lon="12.233561100438237">
        <ele>1387.80029296875</ele>
        <time>2013-07-10T18:22:44Z</time>
      </trkpt>
      <trkpt lat="47.733520427718759" lon="12.233620528131723">
        <ele>1387.80029296875</ele>
        <time>2013-07-10T18:22:46Z</time>
      </trkpt>
      <trkpt lat="47.733638696372509" lon="12.233858155086637">
        <ele>1388.761962890625</ele>
        <time>2013-07-10T18:22:54Z</time>
      </trkpt>
      <trkpt lat="47.733663087710738" lon="12.233931915834546">
        <ele>1389.242431640625</ele>
        <time>2013-07-10T18:22:57Z</time>
      </trkpt>
      <trkpt lat="47.733726119622588" lon="12.23402981646359">
        <ele>1389.72314453125</ele>
        <time>2013-07-10T18:23:02Z</time>
      </trkpt>
      <trkpt lat="47.733875317499042" lon="12.234161160886288">
        <ele>1390.203857421875</ele>
        <time>2013-07-10T18:23:10Z</time>
      </trkpt>
      <trkpt lat="47.733982102945447" lon="12.234119586646557">
        <ele>1389.72314453125</ele>
        <time>2013-07-10T18:23:15Z</time>
      </trkpt>
      <trkpt lat="47.73410975933075" lon="12.2340620867908">
        <ele>1389.72314453125</ele>
        <time>2013-07-10T18:23:19Z</time>
      </trkpt>
      <trkpt lat="47.734393486753106" lon="12.233843486756086">
        <ele>1389.242431640625</ele>
        <time>2013-07-10T18:23:26Z</time>
      </trkpt>
      <trkpt lat="47.734556933864951" lon="12.233765283599496">
        <ele>1389.242431640625</ele>
        <time>2013-07-10T18:23:30Z</time>
      </trkpt>
      <trkpt lat="47.734648883342743" lon="12.233745418488979">
        <ele>1388.28125</ele>
        <time>2013-07-10T18:23:32Z</time>
      </trkpt>
      <trkpt lat="47.734814090654254" lon="12.233733516186476">
        <ele>1387.319580078125</ele>
        <time>2013-07-10T18:23:35Z</time>
      </trkpt>
      <trkpt lat="47.73521801456809" lon="12.233634106814861">
        <ele>1384.91650390625</ele>
        <time>2013-07-10T18:23:42Z</time>
      </trkpt>
      <trkpt lat="47.735342988744378" lon="12.233584402129054">
        <ele>1385.39697265625</ele>
        <time>2013-07-10T18:23:46Z</time>
      </trkpt>
      <trkpt lat="47.735429154708982" lon="12.233627736568451">
        <ele>1384.91650390625</ele>
        <time>2013-07-10T18:23:50Z</time>
      </trkpt>
      <trkpt lat="47.735746577382088" lon="12.233578115701675">
        <ele>1383.955078125</ele>
        <time>2013-07-10T18:23:56Z</time>
      </trkpt>
      <trkpt lat="47.735971882939339" lon="12.233561100438237">
        <ele>1382.99365234375</ele>
        <time>2013-07-10T18:24:00Z</time>
      </trkpt>
      <trkpt lat="47.736155278980732" lon="12.233561016619205">
        <ele>1382.51318359375</ele>
        <time>2013-07-10T18:24:06Z</time>
      </trkpt>
      <trkpt lat="47.736170366406441" lon="12.233544001355767">
        <ele>1382.51318359375</ele>
        <time>2013-07-10T18:24:21Z</time>
      </trkpt>
      <trkpt lat="47.736166762188077" lon="12.233515586704016">
        <ele>1382.51318359375</ele>
        <time>2013-07-10T18:24:32Z</time>
      </trkpt>
      <trkpt lat="47.736167432740331" lon="12.233511814847589">
        <ele>1382.032470703125</ele>
        <time>2013-07-10T18:24:42Z</time>
      </trkpt>
      <trkpt lat="47.736174641177058" lon="12.233545342460275">
        <ele>1382.032470703125</ele>
        <time>2013-07-10T18:25:50Z</time>
      </trkpt>
      <trkpt lat="47.736155278980732" lon="12.233569482341409">
        <ele>1382.99365234375</ele>
        <time>2013-07-10T18:26:00Z</time>
      </trkpt>
      <trkpt lat="47.736115716397762" lon="12.233513994142413">
        <ele>1383.955078125</ele>
        <time>2013-07-10T18:26:09Z</time>
      </trkpt>
      <trkpt lat="47.736075315624475" lon="12.233492787927389">
        <ele>1384.91650390625</ele>
        <time>2013-07-10T18:26:15Z</time>
      </trkpt>
      <trkpt lat="47.735986299812794" lon="12.233400586992502">
        <ele>1387.319580078125</ele>
        <time>2013-07-10T18:26:31Z</time>
      </trkpt>
      <trkpt lat="47.735942797735333" lon="12.233329089358449">
        <ele>1389.72314453125</ele>
        <time>2013-07-10T18:26:42Z</time>
      </trkpt>
      <trkpt lat="47.735903905704618" lon="12.233261112123728">
        <ele>1391.645751953125</ele>
        <time>2013-07-10T18:26:52Z</time>
      </trkpt>
      <trkpt lat="47.735852357000113" lon="12.233201684430242">
        <ele>1393.568359375</ele>
        <time>2013-07-10T18:27:02Z</time>
      </trkpt>
      <trkpt lat="47.73579016327858" lon="12.233159188181162">
        <ele>1395.9716796875</ele>
        <time>2013-07-10T18:27:13Z</time>
      </trkpt>
      <trkpt lat="47.735752360895276" lon="12.233104705810547">
        <ele>1397.41357421875</ele>
        <time>2013-07-10T18:27:21Z</time>
      </trkpt>
      <trkpt lat="47.735688406974077" lon="12.233076961711049">
        <ele>1399.336181640625</ele>
        <time>2013-07-10T18:27:31Z</time>
      </trkpt>
      <trkpt lat="47.735653622075915" lon="12.233048127964139">
        <ele>1401.739501953125</ele>
        <time>2013-07-10T18:27:41Z</time>
      </trkpt>
      <trkpt lat="47.735621687024832" lon="12.232974199578166">
        <ele>1403.181396484375</ele>
        <time>2013-07-10T18:27:50Z</time>
      </trkpt>
      <trkpt lat="47.735568042844534" lon="12.232945282012224">
        <ele>1405.104248046875</ele>
        <time>2013-07-10T18:28:00Z</time>
      </trkpt>
      <trkpt lat="47.735513225197792" lon="12.232897002249956">
        <ele>1407.02685546875</ele>
        <time>2013-07-10T18:28:12Z</time>
      </trkpt>
      <trkpt lat="47.735492438077927" lon="12.232891973108053">
        <ele>1407.98828125</ele>
        <time>2013-07-10T18:28:21Z</time>
      </trkpt>
      <trkpt lat="47.735451618209481" lon="12.232829863205552">
        <ele>1410.8720703125</ele>
        <time>2013-07-10T18:28:33Z</time>
      </trkpt>
      <trkpt lat="47.735419347882271" lon="12.232822654768825">
        <ele>1411.352783203125</ele>
        <time>2013-07-10T18:28:41Z</time>
      </trkpt>
      <trkpt lat="47.73541490547359" lon="12.232823157683015">
        <ele>1411.352783203125</ele>
        <time>2013-07-10T18:28:54Z</time>
      </trkpt>
      <trkpt lat="47.735415492206812" lon="12.232824163511395">
        <ele>1411.352783203125</ele>
        <time>2013-07-10T18:29:18Z</time>
      </trkpt>
      <trkpt lat="47.735386826097965" lon="12.232812428846955">
        <ele>1411.83349609375</ele>
        <time>2013-07-10T18:29:31Z</time>
      </trkpt>
      <trkpt lat="47.735345335677266" lon="12.232745457440615">
        <ele>1414.71728515625</ele>
        <time>2013-07-10T18:29:42Z</time>
      </trkpt>
      <trkpt lat="47.735291440039873" lon="12.232702039182186">
        <ele>1418.081787109375</ele>
        <time>2013-07-10T18:29:51Z</time>
      </trkpt>
      <trkpt lat="47.735237460583448" lon="12.232695417478681">
        <ele>1419.52392578125</ele>
        <time>2013-07-10T18:30:00Z</time>
      </trkpt>
      <trkpt lat="47.735169986262918" lon="12.232691645622253">
        <ele>1422.407958984375</ele>
        <time>2013-07-10T18:30:12Z</time>
      </trkpt>
      <trkpt lat="47.735162610188127" lon="12.232696507126093">
        <ele>1422.407958984375</ele>
        <time>2013-07-10T18:30:13Z</time>
      </trkpt>
      <trkpt lat="47.735094800591469" lon="12.232734812423587">
        <ele>1422.407958984375</ele>
        <time>2013-07-10T18:30:21Z</time>
      </trkpt>
      <trkpt lat="47.735044341534376" lon="12.232718383893371">
        <ele>1423.849853515625</ele>
        <time>2013-07-10T18:30:28Z</time>
      </trkpt>
      <trkpt lat="47.734927162528038" lon="12.232715534046292">
        <ele>1423.849853515625</ele>
        <time>2013-07-10T18:30:38Z</time>
      </trkpt>
      <trkpt lat="47.734859772026539" lon="12.232763729989529">
        <ele>1424.811279296875</ele>
        <time>2013-07-10T18:30:46Z</time>
      </trkpt>
      <trkpt lat="47.734770756214857" lon="12.232747552916408">
        <ele>1427.214599609375</ele>
        <time>2013-07-10T18:30:58Z</time>
      </trkpt>
      <trkpt lat="47.734727170318365" lon="12.232716036960483">
        <ele>1429.136962890625</ele>
        <time>2013-07-10T18:31:04Z</time>
      </trkpt>
      <trkpt lat="47.734704958274961" lon="12.232679072767496">
        <ele>1431.059814453125</ele>
        <time>2013-07-10T18:31:12Z</time>
      </trkpt>
      <trkpt lat="47.734694145619869" lon="12.23266557790339">
        <ele>1431.540283203125</ele>
        <time>2013-07-10T18:31:14Z</time>
      </trkpt>
      <trkpt lat="47.734622731804848" lon="12.232634229585528">
        <ele>1433.462890625</ele>
        <time>2013-07-10T18:31:23Z</time>
      </trkpt>
      <trkpt lat="47.734591467306018" lon="12.232617465779185">
        <ele>1435.8662109375</ele>
        <time>2013-07-10T18:31:32Z</time>
      </trkpt>
      <trkpt lat="47.734561208635569" lon="12.232599947601557">
        <ele>1437.7890625</ele>
        <time>2013-07-10T18:31:39Z</time>
      </trkpt>
      <trkpt lat="47.734495745971799" lon="12.232573796063662">
        <ele>1439.711669921875</ele>
        <time>2013-07-10T18:31:47Z</time>
      </trkpt>
      <trkpt lat="47.734464230015874" lon="12.232547476887703">
        <ele>1440.6728515625</ele>
        <time>2013-07-10T18:31:54Z</time>
      </trkpt>
      <trkpt lat="47.734448807314038" lon="12.232492240145802">
        <ele>1442.595703125</ele>
        <time>2013-07-10T18:32:02Z</time>
      </trkpt>
      <trkpt lat="47.734423158690333" lon="12.232464328408241">
        <ele>1444.03759765625</ele>
        <time>2013-07-10T18:32:09Z</time>
      </trkpt>
      <trkpt lat="47.73440639488399" lon="12.232429124414921">
        <ele>1445.960205078125</ele>
        <time>2013-07-10T18:32:17Z</time>
      </trkpt>
      <trkpt lat="47.734376639127731" lon="12.23237975500524">
        <ele>1448.36328125</ele>
        <time>2013-07-10T18:32:27Z</time>
      </trkpt>
      <trkpt lat="47.73430866189301" lon="12.232327871024609">
        <ele>1451.72802734375</ele>
        <time>2013-07-10T18:32:39Z</time>
      </trkpt>
      <trkpt lat="47.734243869781494" lon="12.232261737808585">
        <ele>1454.612060546875</ele>
        <time>2013-07-10T18:32:53Z</time>
      </trkpt>
      <trkpt lat="47.734186202287674" lon="12.232197783887386">
        <ele>1457.015380859375</ele>
        <time>2013-07-10T18:33:05Z</time>
      </trkpt>
      <trkpt lat="47.734149321913719" lon="12.232137098908424">
        <ele>1459.899169921875</ele>
        <time>2013-07-10T18:33:15Z</time>
      </trkpt>
      <trkpt lat="47.734085535630584" lon="12.232068786397576">
        <ele>1460.3798828125</ele>
        <time>2013-07-10T18:33:25Z</time>
      </trkpt>
      <trkpt lat="47.734094336628914" lon="12.232021512463689">
        <ele>1462.783203125</ele>
        <time>2013-07-10T18:33:32Z</time>
      </trkpt>
      <trkpt lat="47.734131971374154" lon="12.232002234086394">
        <ele>1463.263916015625</ele>
        <time>2013-07-10T18:33:39Z</time>
      </trkpt>
      <trkpt lat="47.734178574755788" lon="12.231967030093074">
        <ele>1465.1865234375</ele>
        <time>2013-07-10T18:33:48Z</time>
      </trkpt>
      <trkpt lat="47.734278822317719" lon="12.231981195509434">
        <ele>1466.147705078125</ele>
        <time>2013-07-10T18:33:57Z</time>
      </trkpt>
      <trkpt lat="47.734343530610204" lon="12.231924617663026">
        <ele>1467.589599609375</ele>
        <time>2013-07-10T18:34:07Z</time>
      </trkpt>
      <trkpt lat="47.734379572793841" lon="12.231882708147168">
        <ele>1470.473876953125</ele>
        <time>2013-07-10T18:34:19Z</time>
      </trkpt>
      <trkpt lat="47.734429948031902" lon="12.231815485283732">
        <ele>1473.35791015625</ele>
        <time>2013-07-10T18:34:31Z</time>
      </trkpt>
      <trkpt lat="47.734481412917376" lon="12.231768630445004">
        <ele>1475.2802734375</ele>
        <time>2013-07-10T18:34:44Z</time>
      </trkpt>
      <trkpt lat="47.734499936923385" lon="12.231719344854355">
        <ele>1477.68359375</ele>
        <time>2013-07-10T18:34:57Z</time>
      </trkpt>
      <trkpt lat="47.734463643282652" lon="12.231685565784574">
        <ele>1479.606201171875</ele>
        <time>2013-07-10T18:35:09Z</time>
      </trkpt>
      <trkpt lat="47.734449729323387" lon="12.231648350134492">
        <ele>1481.52880859375</ele>
        <time>2013-07-10T18:35:19Z</time>
      </trkpt>
      <trkpt lat="47.734426092356443" lon="12.23159696906805">
        <ele>1483.93212890625</ele>
        <time>2013-07-10T18:35:31Z</time>
      </trkpt>
      <trkpt lat="47.734441263601184" lon="12.231543073430657">
        <ele>1485.85498046875</ele>
        <time>2013-07-10T18:35:41Z</time>
      </trkpt>
      <trkpt lat="47.734401617199183" lon="12.231517927721143">
        <ele>1487.296875</ele>
        <time>2013-07-10T18:35:51Z</time>
      </trkpt>
      <trkpt lat="47.734409160912037" lon="12.231496386229992">
        <ele>1488.25830078125</ele>
        <time>2013-07-10T18:35:57Z</time>
      </trkpt>
      <trkpt lat="47.734433133155107" lon="12.231454141438007">
        <ele>1489.7001953125</ele>
        <time>2013-07-10T18:36:06Z</time>
      </trkpt>
      <trkpt lat="47.734408909454942" lon="12.231390941888094">
        <ele>1492.584228515625</ele>
        <time>2013-07-10T18:36:18Z</time>
      </trkpt>
      <trkpt lat="47.734413435682654" lon="12.231346182525158">
        <ele>1493.54541015625</ele>
        <time>2013-07-10T18:36:27Z</time>
      </trkpt>
      <trkpt lat="47.734415782615542" lon="12.231295136734843">
        <ele>1494.9873046875</ele>
        <time>2013-07-10T18:36:35Z</time>
      </trkpt>
      <trkpt lat="47.73441955447197" lon="12.231229757890105">
        <ele>1496.909912109375</ele>
        <time>2013-07-10T18:36:44Z</time>
      </trkpt>
      <trkpt lat="47.73441712372005" lon="12.231189776211977">
        <ele>1498.83251953125</ele>
        <time>2013-07-10T18:36:52Z</time>
      </trkpt>
      <trkpt lat="47.734382506459951" lon="12.231150129809976">
        <ele>1500.75537109375</ele>
        <time>2013-07-10T18:37:02Z</time>
      </trkpt>
      <trkpt lat="47.734378818422556" lon="12.231050049886107">
        <ele>1502.677978515625</ele>
        <time>2013-07-10T18:37:16Z</time>
      </trkpt>
      <trkpt lat="47.734418883919716" lon="12.231017276644707">
        <ele>1504.1201171875</ele>
        <time>2013-07-10T18:37:25Z</time>
      </trkpt>
      <trkpt lat="47.734426343813539" lon="12.231015851721168">
        <ele>1504.1201171875</ele>
        <time>2013-07-10T18:37:37Z</time>
      </trkpt>
      <trkpt lat="47.734439754858613" lon="12.231019791215658">
        <ele>1503.639404296875</ele>
        <time>2013-07-10T18:37:53Z</time>
      </trkpt>
      <trkpt lat="47.734453333541751" lon="12.231038399040699">
        <ele>1506.523193359375</ele>
        <time>2013-07-10T18:51:14Z</time>
      </trkpt>
      <trkpt lat="47.73445232771337" lon="12.23103647120297">
        <ele>1506.523193359375</ele>
        <time>2013-07-10T18:52:07Z</time>
      </trkpt>
      <trkpt lat="47.734445370733738" lon="12.231036555022001">
        <ele>1506.04248046875</ele>
        <time>2013-07-10T18:52:39Z</time>
      </trkpt>
      <trkpt lat="47.734396839514375" lon="12.231054995208979">
        <ele>1503.639404296875</ele>
        <time>2013-07-10T18:52:46Z</time>
      </trkpt>
      <trkpt lat="47.734420644119382" lon="12.231177035719156">
        <ele>1501.716796875</ele>
        <time>2013-07-10T18:52:57Z</time>
      </trkpt>
      <trkpt lat="47.734435144811869" lon="12.231222717091441">
        <ele>1498.83251953125</ele>
        <time>2013-07-10T18:53:05Z</time>
      </trkpt>
      <trkpt lat="47.734427601099014" lon="12.231302596628666">
        <ele>1496.909912109375</ele>
        <time>2013-07-10T18:53:13Z</time>
      </trkpt>
      <trkpt lat="47.734423913061619" lon="12.231406280770898">
        <ele>1493.54541015625</ele>
        <time>2013-07-10T18:53:24Z</time>
      </trkpt>
      <trkpt lat="47.734445286914706" lon="12.231473922729492">
        <ele>1490.661376953125</ele>
        <time>2013-07-10T18:53:34Z</time>
      </trkpt>
      <trkpt lat="47.734420979395509" lon="12.23151683807373">
        <ele>1488.739013671875</ele>
        <time>2013-07-10T18:53:43Z</time>
      </trkpt>
      <trkpt lat="47.734442269429564" lon="12.231559837237">
        <ele>1486.816162109375</ele>
        <time>2013-07-10T18:53:53Z</time>
      </trkpt>
      <trkpt lat="47.734433384612203" lon="12.231583893299103">
        <ele>1485.374267578125</ele>
        <time>2013-07-10T18:53:57Z</time>
      </trkpt>
      <trkpt lat="47.734453668817878" lon="12.231631251052022">
        <ele>1483.93212890625</ele>
        <time>2013-07-10T18:54:03Z</time>
      </trkpt>
      <trkpt lat="47.734484430402517" lon="12.231691600754857">
        <ele>1481.04833984375</ele>
        <time>2013-07-10T18:54:12Z</time>
      </trkpt>
      <trkpt lat="47.734522400423884" lon="12.231727726757526">
        <ele>1479.12548828125</ele>
        <time>2013-07-10T18:54:18Z</time>
      </trkpt>
      <trkpt lat="47.734504463151097" lon="12.231794195249677">
        <ele>1476.722412109375</ele>
        <time>2013-07-10T18:54:26Z</time>
      </trkpt>
      <trkpt lat="47.734490800648928" lon="12.231812300160527">
        <ele>1475.760986328125</ele>
        <time>2013-07-10T18:54:28Z</time>
      </trkpt>
      <trkpt lat="47.734454674646258" lon="12.231845492497087">
        <ele>1475.2802734375</ele>
        <time>2013-07-10T18:54:35Z</time>
      </trkpt>
      <trkpt lat="47.734395246952772" lon="12.231906680390239">
        <ele>1471.915771484375</ele>
        <time>2013-07-10T18:54:46Z</time>
      </trkpt>
      <trkpt lat="47.734380578622222" lon="12.231925539672375">
        <ele>1471.43505859375</ele>
        <time>2013-07-10T18:54:49Z</time>
      </trkpt>
      <trkpt lat="47.73436339572072" lon="12.231948338449001">
        <ele>1469.9931640625</ele>
        <time>2013-07-10T18:54:52Z</time>
      </trkpt>
      <trkpt lat="47.73428569547832" lon="12.232012376189232">
        <ele>1467.589599609375</ele>
        <time>2013-07-10T18:55:00Z</time>
      </trkpt>
      <trkpt lat="47.734207659959793" lon="12.231997456401587">
        <ele>1466.62841796875</ele>
        <time>2013-07-10T18:55:07Z</time>
      </trkpt>
      <trkpt lat="47.734130378812551" lon="12.232009274885058">
        <ele>1463.744384765625</ele>
        <time>2013-07-10T18:55:17Z</time>
      </trkpt>
      <trkpt lat="47.734117638319731" lon="12.23204892128706">
        <ele>1461.822021484375</ele>
        <time>2013-07-10T18:55:23Z</time>
      </trkpt>
      <trkpt lat="47.734159380197525" lon="12.232119580730796">
        <ele>1460.860595703125</ele>
        <time>2013-07-10T18:55:30Z</time>
      </trkpt>
      <trkpt lat="47.734199864789844" lon="12.232176577672362">
        <ele>1459.418701171875</ele>
        <time>2013-07-10T18:55:36Z</time>
      </trkpt>
      <trkpt lat="47.734204307198524" lon="12.232185294851661">
        <ele>1459.418701171875</ele>
        <time>2013-07-10T18:55:37Z</time>
      </trkpt>
      <trkpt lat="47.734217215329409" lon="12.232204489409924">
        <ele>1457.976806640625</ele>
        <time>2013-07-10T18:55:39Z</time>
      </trkpt>
      <trkpt lat="47.734245965257287" lon="12.232232736423612">
        <ele>1457.49609375</ele>
        <time>2013-07-10T18:55:43Z</time>
      </trkpt>
      <trkpt lat="47.734327521175146" lon="12.232273556292057">
        <ele>1454.131591796875</ele>
        <time>2013-07-10T18:55:52Z</time>
      </trkpt>
      <trkpt lat="47.73436876013875" lon="12.232311107218266">
        <ele>1452.208740234375</ele>
        <time>2013-07-10T18:55:58Z</time>
      </trkpt>
      <trkpt lat="47.734430115669966" lon="12.232351256534457">
        <ele>1449.32470703125</ele>
        <time>2013-07-10T18:56:05Z</time>
      </trkpt>
      <trkpt lat="47.734452746808529" lon="12.232392327859998">
        <ele>1446.92138671875</ele>
        <time>2013-07-10T18:56:11Z</time>
      </trkpt>
      <trkpt lat="47.73448065854609" lon="12.232450162991881">
        <ele>1444.03759765625</ele>
        <time>2013-07-10T18:56:18Z</time>
      </trkpt>
      <trkpt lat="47.734492644667625" lon="12.232467345893383">
        <ele>1443.556884765625</ele>
        <time>2013-07-10T18:56:20Z</time>
      </trkpt>
      <trkpt lat="47.734501697123051" lon="12.232515877112746">
        <ele>1442.114990234375</ele>
        <time>2013-07-10T18:56:24Z</time>
      </trkpt>
      <trkpt lat="47.73459498770535" lon="12.23252878524363">
        <ele>1438.75048828125</ele>
        <time>2013-07-10T18:56:33Z</time>
      </trkpt>
      <trkpt lat="47.734641842544079" lon="12.232535239309072">
        <ele>1436.82763671875</ele>
        <time>2013-07-10T18:56:39Z</time>
      </trkpt>
      <trkpt lat="47.734646620228887" lon="12.232543369755149">
        <ele>1436.82763671875</ele>
        <time>2013-07-10T18:56:40Z</time>
      </trkpt>
      <trkpt lat="47.734656846150756" lon="12.232564995065331">
        <ele>1435.8662109375</ele>
        <time>2013-07-10T18:56:42Z</time>
      </trkpt>
      <trkpt lat="47.734671346843243" lon="12.232585866004229">
        <ele>1434.905029296875</ele>
        <time>2013-07-10T18:56:44Z</time>
      </trkpt>
      <trkpt lat="47.734736809507012" lon="12.232623752206564">
        <ele>1433.462890625</ele>
        <time>2013-07-10T18:56:51Z</time>
      </trkpt>
      <trkpt lat="47.734751729294658" lon="12.23266214132309">
        <ele>1430.5791015625</ele>
        <time>2013-07-10T18:56:58Z</time>
      </trkpt>
      <trkpt lat="47.734752735123038" lon="12.232683263719082">
        <ele>1429.61767578125</ele>
        <time>2013-07-10T18:57:00Z</time>
      </trkpt>
      <trkpt lat="47.734825909137726" lon="12.232689801603556">
        <ele>1427.214599609375</ele>
        <time>2013-07-10T18:57:07Z</time>
      </trkpt>
      <trkpt lat="47.734868237748742" lon="12.232680665329099">
        <ele>1426.73388671875</ele>
        <time>2013-07-10T18:57:10Z</time>
      </trkpt>
      <trkpt lat="47.734981058165431" lon="12.232633475214243">
        <ele>1426.73388671875</ele>
        <time>2013-07-10T18:57:17Z</time>
      </trkpt>
      <trkpt lat="47.735065380111337" lon="12.232681838795543">
        <ele>1424.811279296875</ele>
        <time>2013-07-10T18:57:25Z</time>
      </trkpt>
      <trkpt lat="47.735181385651231" lon="12.232614364475012">
        <ele>1424.33056640625</ele>
        <time>2013-07-10T18:57:32Z</time>
      </trkpt>
      <trkpt lat="47.735259169712663" lon="12.232609922066331">
        <ele>1421.92724609375</ele>
        <time>2013-07-10T18:57:40Z</time>
      </trkpt>
      <trkpt lat="47.73532991297543" lon="12.232578322291374">
        <ele>1420.966064453125</ele>
        <time>2013-07-10T18:57:45Z</time>
      </trkpt>
      <trkpt lat="47.735388753935695" lon="12.232536664232612">
        <ele>1419.043212890625</ele>
        <time>2013-07-10T18:57:50Z</time>
      </trkpt>
      <trkpt lat="47.735412223264575" lon="12.232548482716084">
        <ele>1417.60107421875</ele>
        <time>2013-07-10T18:57:53Z</time>
      </trkpt>
      <trkpt lat="47.735454132780433" lon="12.232675133273005">
        <ele>1415.197998046875</ele>
        <time>2013-07-10T18:57:59Z</time>
      </trkpt>
      <trkpt lat="47.7354955393821" lon="12.232821984216571">
        <ele>1411.352783203125</ele>
        <time>2013-07-10T18:58:06Z</time>
      </trkpt>
      <trkpt lat="47.735511800274253" lon="12.232847968116403">
        <ele>1410.8720703125</ele>
        <time>2013-07-10T18:58:08Z</time>
      </trkpt>
      <trkpt lat="47.735521020367742" lon="12.232856098562479">
        <ele>1410.391357421875</ele>
        <time>2013-07-10T18:58:09Z</time>
      </trkpt>
      <trkpt lat="47.735564270988107" lon="12.232875293120742">
        <ele>1409.43017578125</ele>
        <time>2013-07-10T18:58:13Z</time>
      </trkpt>
      <trkpt lat="47.7356250397861" lon="12.232971601188183">
        <ele>1405.5849609375</ele>
        <time>2013-07-10T18:58:20Z</time>
      </trkpt>
      <trkpt lat="47.735676001757383" lon="12.233036477118731">
        <ele>1403.181396484375</ele>
        <time>2013-07-10T18:58:26Z</time>
      </trkpt>
      <trkpt lat="47.735706595703959" lon="12.233045613393188">
        <ele>1401.2587890625</ele>
        <time>2013-07-10T18:58:30Z</time>
      </trkpt>
      <trkpt lat="47.735780440270901" lon="12.233101269230247">
        <ele>1398.374755859375</ele>
        <time>2013-07-10T18:58:38Z</time>
      </trkpt>
      <trkpt lat="47.735790917649865" lon="12.233112836256623">
        <ele>1398.374755859375</ele>
        <time>2013-07-10T18:58:39Z</time>
      </trkpt>
      <trkpt lat="47.735862415283918" lon="12.233155332505703">
        <ele>1396.452392578125</ele>
        <time>2013-07-10T18:58:46Z</time>
      </trkpt>
      <trkpt lat="47.735919915139675" lon="12.233234373852611">
        <ele>1393.568359375</ele>
        <time>2013-07-10T18:58:52Z</time>
      </trkpt>
      <trkpt lat="47.73593089543283" lon="12.233246611431241">
        <ele>1393.568359375</ele>
        <time>2013-07-10T18:58:53Z</time>
      </trkpt>
      <trkpt lat="47.736034663394094" lon="12.233311990275979">
        <ele>1391.1650390625</ele>
        <time>2013-07-10T18:59:02Z</time>
      </trkpt>
      <trkpt lat="47.736121919006109" lon="12.233347110450268">
        <ele>1388.761962890625</ele>
        <time>2013-07-10T18:59:08Z</time>
      </trkpt>
      <trkpt lat="47.736204983666539" lon="12.233438808470964">
        <ele>1386.3583984375</ele>
        <time>2013-07-10T18:59:15Z</time>
      </trkpt>
      <trkpt lat="47.736231302842498" lon="12.233489183709025">
        <ele>1385.877685546875</ele>
        <time>2013-07-10T18:59:22Z</time>
      </trkpt>
      <trkpt lat="47.73624412715435" lon="12.233481723815203">
        <ele>1385.39697265625</ele>
        <time>2013-07-10T18:59:33Z</time>
      </trkpt>
      <trkpt lat="47.73623876273632" lon="12.233460182324052">
        <ele>1385.877685546875</ele>
        <time>2013-07-10T18:59:47Z</time>
      </trkpt>
      <trkpt lat="47.736247228458524" lon="12.233456326648593">
        <ele>1385.877685546875</ele>
        <time>2013-07-10T19:00:12Z</time>
      </trkpt>
      <trkpt lat="47.736266423016787" lon="12.233503516763449">
        <ele>1384.91650390625</ele>
        <time>2013-07-10T19:00:19Z</time>
      </trkpt>
      <trkpt lat="47.73629735223949" lon="12.23349136300385">
        <ele>1384.91650390625</ele>
        <time>2013-07-10T19:00:27Z</time>
      </trkpt>
      <trkpt lat="47.736302632838488" lon="12.233517598360777">
        <ele>1383.955078125</ele>
        <time>2013-07-10T19:00:39Z</time>
      </trkpt>
      <trkpt lat="47.73630422540009" lon="12.233517598360777">
        <ele>1384.435791015625</ele>
        <time>2013-07-10T19:00:49Z</time>
      </trkpt>
      <trkpt lat="47.736306488513947" lon="12.233517682179809">
        <ele>1382.99365234375</ele>
        <time>2013-07-10T19:01:05Z</time>
      </trkpt>
      <trkpt lat="47.736306572332978" lon="12.233528662472963">
        <ele>1384.435791015625</ele>
        <time>2013-07-10T19:02:05Z</time>
      </trkpt>
      <trkpt lat="47.736298693343997" lon="12.233555316925049">
        <ele>1384.91650390625</ele>
        <time>2013-07-10T19:02:16Z</time>
      </trkpt>
      <trkpt lat="47.736316043883562" lon="12.233585994690657">
        <ele>1383.955078125</ele>
        <time>2013-07-10T19:02:22Z</time>
      </trkpt>
      <trkpt lat="47.736360635608435" lon="12.233606278896332">
        <ele>1382.51318359375</ele>
        <time>2013-07-10T19:02:24Z</time>
      </trkpt>
      <trkpt lat="47.736652158200741" lon="12.233811132609844">
        <ele>1381.5517578125</ele>
        <time>2013-07-10T19:02:32Z</time>
      </trkpt>
      <trkpt lat="47.736856509000063" lon="12.233970137313008">
        <ele>1378.187255859375</ele>
        <time>2013-07-10T19:02:35Z</time>
      </trkpt>
      <trkpt lat="47.736919792369008" lon="12.234020261093974">
        <ele>1377.22607421875</ele>
        <time>2013-07-10T19:02:36Z</time>
      </trkpt>
      <trkpt lat="47.737068654969335" lon="12.2341847140342">
        <ele>1377.70654296875</ele>
        <time>2013-07-10T19:02:41Z</time>
      </trkpt>
      <trkpt lat="47.737057842314243" lon="12.234171470627189">
        <ele>1377.22607421875</ele>
        <time>2013-07-10T19:02:49Z</time>
      </trkpt>
      <trkpt lat="47.73716127499938" lon="12.234260989353061">
        <ele>1377.70654296875</ele>
        <time>2013-07-10T19:02:59Z</time>
      </trkpt>
      <trkpt lat="47.73730100132525" lon="12.234342377632856">
        <ele>1378.66796875</ele>
        <time>2013-07-10T19:03:12Z</time>
      </trkpt>
      <trkpt lat="47.737341988831758" lon="12.234387807548046">
        <ele>1378.66796875</ele>
        <time>2013-07-10T19:03:17Z</time>
      </trkpt>
      <trkpt lat="47.737363195046782" lon="12.234443966299295">
        <ele>1379.629150390625</ele>
        <time>2013-07-10T19:03:25Z</time>
      </trkpt>
      <trkpt lat="47.737357579171658" lon="12.234449665993452">
        <ele>1380.10986328125</ele>
        <time>2013-07-10T19:03:55Z</time>
      </trkpt>
      <trkpt lat="47.737358501181006" lon="12.23446374759078">
        <ele>1380.10986328125</ele>
        <time>2013-07-10T19:04:22Z</time>
      </trkpt>
      <trkpt lat="47.737347688525915" lon="12.234457964077592">
        <ele>1379.1484375</ele>
        <time>2013-07-10T19:04:52Z</time>
      </trkpt>
      <trkpt lat="47.737341485917568" lon="12.234450252726674">
        <ele>1379.629150390625</ele>
        <time>2013-07-10T19:05:00Z</time>
      </trkpt>
      <trkpt lat="47.737267725169659" lon="12.234374061226845">
        <ele>1377.22607421875</ele>
        <time>2013-07-10T19:05:05Z</time>
      </trkpt>
      <trkpt lat="47.736931443214417" lon="12.234182618558407">
        <ele>1374.82275390625</ele>
        <time>2013-07-10T19:05:12Z</time>
      </trkpt>
      <trkpt lat="47.736723152920604" lon="12.234091171994805">
        <ele>1370.977294921875</ele>
        <time>2013-07-10T19:05:15Z</time>
      </trkpt>
      <trkpt lat="47.736572865396738" lon="12.234038785099983">
        <ele>1370.977294921875</ele>
        <time>2013-07-10T19:05:17Z</time>
      </trkpt>
      <trkpt lat="47.736278660595417" lon="12.234066110104322">
        <ele>1365.690185546875</ele>
        <time>2013-07-10T19:05:21Z</time>
      </trkpt>
      <trkpt lat="47.736046062782407" lon="12.234241375699639">
        <ele>1360.883544921875</ele>
        <time>2013-07-10T19:05:24Z</time>
      </trkpt>
      <trkpt lat="47.735866438597441" lon="12.234391998499632">
        <ele>1357.51904296875</ele>
        <time>2013-07-10T19:05:26Z</time>
      </trkpt>
      <trkpt lat="47.735665021464229" lon="12.234576568007469">
        <ele>1353.19287109375</ele>
        <time>2013-07-10T19:05:28Z</time>
      </trkpt>
      <trkpt lat="47.735341396182775" lon="12.234849985688925">
        <ele>1350.30908203125</ele>
        <time>2013-07-10T19:05:31Z</time>
      </trkpt>
      <trkpt lat="47.735127992928028" lon="12.235009577125311">
        <ele>1346.9443359375</ele>
        <time>2013-07-10T19:05:33Z</time>
      </trkpt>
      <trkpt lat="47.734851557761431" lon="12.235239828005433">
        <ele>1345.983154296875</ele>
        <time>2013-07-10T19:05:36Z</time>
      </trkpt>
      <trkpt lat="47.734809396788478" lon="12.235405119135976">
        <ele>1343.579833984375</ele>
        <time>2013-07-10T19:05:40Z</time>
      </trkpt>
      <trkpt lat="47.734876703470945" lon="12.235394809395075">
        <ele>1343.09912109375</ele>
        <time>2013-07-10T19:05:41Z</time>
      </trkpt>
      <trkpt lat="47.735235029831529" lon="12.235280983150005">
        <ele>1338.773193359375</ele>
        <time>2013-07-10T19:05:45Z</time>
      </trkpt>
      <trkpt lat="47.735502328723669" lon="12.235345859080553">
        <ele>1333.966552734375</ele>
        <time>2013-07-10T19:05:48Z</time>
      </trkpt>
      <trkpt lat="47.735793683677912" lon="12.235475024208426">
        <ele>1330.60205078125</ele>
        <time>2013-07-10T19:05:51Z</time>
      </trkpt>
      <trkpt lat="47.735887309536338" lon="12.235539564862847">
        <ele>1329.159912109375</ele>
        <time>2013-07-10T19:05:52Z</time>
      </trkpt>
      <trkpt lat="47.736100796610117" lon="12.235806277021766">
        <ele>1326.276123046875</ele>
        <time>2013-07-10T19:05:55Z</time>
      </trkpt>
      <trkpt lat="47.73623532615602" lon="12.23623207770288">
        <ele>1322.911376953125</ele>
        <time>2013-07-10T19:05:58Z</time>
      </trkpt>
      <trkpt lat="47.73647521622479" lon="12.236788300797343">
        <ele>1319.546875</ele>
        <time>2013-07-10T19:06:02Z</time>
      </trkpt>
      <trkpt lat="47.736569093540311" lon="12.237104801461101">
        <ele>1320.508056640625</ele>
        <time>2013-07-10T19:06:05Z</time>
      </trkpt>
      <trkpt lat="47.736519472673535" lon="12.237517610192299">
        <ele>1320.98876953125</ele>
        <time>2013-07-10T19:06:12Z</time>
      </trkpt>
      <trkpt lat="47.736463230103254" lon="12.2377575840801">
        <ele>1317.6240234375</ele>
        <time>2013-07-10T19:06:15Z</time>
      </trkpt>
      <trkpt lat="47.736374717205763" lon="12.238008370622993">
        <ele>1315.220947265625</ele>
        <time>2013-07-10T19:06:18Z</time>
      </trkpt>
      <trkpt lat="47.73630422540009" lon="12.238348675891757">
        <ele>1311.8564453125</ele>
        <time>2013-07-10T19:06:23Z</time>
      </trkpt>
      <trkpt lat="47.736305985599756" lon="12.238416066393256">
        <ele>1311.8564453125</ele>
        <time>2013-07-10T19:06:24Z</time>
      </trkpt>
      <trkpt lat="47.736448645591736" lon="12.238707253709435">
        <ele>1308.972412109375</ele>
        <time>2013-07-10T19:06:29Z</time>
      </trkpt>
      <trkpt lat="47.736586695536971" lon="12.238867515698075">
        <ele>1306.088134765625</ele>
        <time>2013-07-10T19:06:32Z</time>
      </trkpt>
      <trkpt lat="47.736606057733297" lon="12.238923339173198">
        <ele>1306.088134765625</ele>
        <time>2013-07-10T19:06:33Z</time>
      </trkpt>
      <trkpt lat="47.736553838476539" lon="12.239172952249646">
        <ele>1303.204345703125</ele>
        <time>2013-07-10T19:06:37Z</time>
      </trkpt>
      <trkpt lat="47.73651871830225" lon="12.239226177334785">
        <ele>1303.204345703125</ele>
        <time>2013-07-10T19:06:38Z</time>
      </trkpt>
      <trkpt lat="47.736383602023125" lon="12.239308655261993">
        <ele>1300.801025390625</ele>
        <time>2013-07-10T19:06:41Z</time>
      </trkpt>
      <trkpt lat="47.736221663653851" lon="12.239249143749475">
        <ele>1297.4365234375</ele>
        <time>2013-07-10T19:06:44Z</time>
      </trkpt>
      <trkpt lat="47.736170534044504" lon="12.239200780168176">
        <ele>1296.475341796875</ele>
        <time>2013-07-10T19:06:45Z</time>
      </trkpt>
      <trkpt lat="47.735951598733664" lon="12.238938175141811">
        <ele>1292.1494140625</ele>
        <time>2013-07-10T19:06:49Z</time>
      </trkpt>
      <trkpt lat="47.735829809680581" lon="12.238795096054673">
        <ele>1290.2265625</ele>
        <time>2013-07-10T19:06:51Z</time>
      </trkpt>
      <trkpt lat="47.735573910176754" lon="12.238590912893414">
        <ele>1286.38134765625</ele>
        <time>2013-07-10T19:06:56Z</time>
      </trkpt>
      <trkpt lat="47.73542320355773" lon="12.238658387213945">
        <ele>1283.497314453125</ele>
        <time>2013-07-10T19:07:00Z</time>
      </trkpt>
      <trkpt lat="47.735370313748717" lon="12.23887505941093">
        <ele>1280.613525390625</ele>
        <time>2013-07-10T19:07:03Z</time>
      </trkpt>
      <trkpt lat="47.735356232151389" lon="12.239094413816929">
        <ele>1279.17138671875</ele>
        <time>2013-07-10T19:07:05Z</time>
      </trkpt>
      <trkpt lat="47.735456647351384" lon="12.239459026604891">
        <ele>1278.69091796875</ele>
        <time>2013-07-10T19:07:09Z</time>
      </trkpt>
      <trkpt lat="47.735793683677912" lon="12.240086412057281">
        <ele>1276.768310546875</ele>
        <time>2013-07-10T19:07:18Z</time>
      </trkpt>
      <trkpt lat="47.735916478559375" lon="12.240276178345084">
        <ele>1274.36474609375</ele>
        <time>2013-07-10T19:07:21Z</time>
      </trkpt>
      <trkpt lat="47.735859397798777" lon="12.240413473919034">
        <ele>1272.9228515625</ele>
        <time>2013-07-10T19:07:25Z</time>
      </trkpt>
      <trkpt lat="47.735731322318316" lon="12.240383382886648">
        <ele>1271.480712890625</ele>
        <time>2013-07-10T19:07:28Z</time>
      </trkpt>
      <trkpt lat="47.735648173838854" lon="12.240290511399508">
        <ele>1268.596923828125</ele>
        <time>2013-07-10T19:07:30Z</time>
      </trkpt>
      <trkpt lat="47.735414486378431" lon="12.239974094554782">
        <ele>1264.27099609375</ele>
        <time>2013-07-10T19:07:34Z</time>
      </trkpt>
      <trkpt lat="47.735350867733359" lon="12.239883905276656">
        <ele>1263.309814453125</ele>
        <time>2013-07-10T19:07:35Z</time>
      </trkpt>
      <trkpt lat="47.735145594924688" lon="12.239675363525748">
        <ele>1259.94482421875</ele>
        <time>2013-07-10T19:07:38Z</time>
      </trkpt>
      <trkpt lat="47.734947195276618" lon="12.239406388252974">
        <ele>1255.138427734375</ele>
        <time>2013-07-10T19:07:42Z</time>
      </trkpt>
      <trkpt lat="47.734865136444569" lon="12.239239923655987">
        <ele>1252.735107421875</ele>
        <time>2013-07-10T19:07:44Z</time>
      </trkpt>
      <trkpt lat="47.734719039872289" lon="12.239110339432955">
        <ele>1249.851318359375</ele>
        <time>2013-07-10T19:07:47Z</time>
      </trkpt>
      <trkpt lat="47.734667239710689" lon="12.239081421867013">
        <ele>1249.37060546875</ele>
        <time>2013-07-10T19:07:48Z</time>
      </trkpt>
      <trkpt lat="47.734440760686994" lon="12.238824935629964">
        <ele>1243.121826171875</ele>
        <time>2013-07-10T19:07:53Z</time>
      </trkpt>
      <trkpt lat="47.734403209760785" lon="12.238774225115776">
        <ele>1242.641357421875</ele>
        <time>2013-07-10T19:07:54Z</time>
      </trkpt>
      <trkpt lat="47.734189722687006" lon="12.238699123263359">
        <ele>1240.238037109375</ele>
        <time>2013-07-10T19:07:59Z</time>
      </trkpt>
      <trkpt lat="47.734015043824911" lon="12.238791491836309">
        <ele>1238.796142578125</ele>
        <time>2013-07-10T19:08:02Z</time>
      </trkpt>
      <trkpt lat="47.73381756618619" lon="12.238765927031636">
        <ele>1234.950927734375</ele>
        <time>2013-07-10T19:08:07Z</time>
      </trkpt>
      <trkpt lat="47.733783787116408" lon="12.238731393590569">
        <ele>1234.47021484375</ele>
        <time>2013-07-10T19:08:08Z</time>
      </trkpt>
      <trkpt lat="47.733615729957819" lon="12.238659141585231">
        <ele>1231.586181640625</ele>
        <time>2013-07-10T19:08:12Z</time>
      </trkpt>
      <trkpt lat="47.733569629490376" lon="12.238623015582561">
        <ele>1230.144287109375</ele>
        <time>2013-07-10T19:08:13Z</time>
      </trkpt>
      <trkpt lat="47.733379360288382" lon="12.238453198224306">
        <ele>1225.818115234375</ele>
        <time>2013-07-10T19:08:17Z</time>
      </trkpt>
      <trkpt lat="47.733196215704083" lon="12.238249266520143">
        <ele>1221.4921875</ele>
        <time>2013-07-10T19:08:20Z</time>
      </trkpt>
      <trkpt lat="47.733030337840319" lon="12.23813384771347">
        <ele>1220.531005859375</ele>
        <time>2013-07-10T19:08:22Z</time>
      </trkpt>
      <trkpt lat="47.732887761667371" lon="12.23806201480329">
        <ele>1220.531005859375</ele>
        <time>2013-07-10T19:08:24Z</time>
      </trkpt>
      <trkpt lat="47.732683075591922" lon="12.237926060333848">
        <ele>1216.685791015625</ele>
        <time>2013-07-10T19:08:28Z</time>
      </trkpt>
      <trkpt lat="47.73262633010745" lon="12.237907452508807">
        <ele>1215.724609375</ele>
        <time>2013-07-10T19:08:29Z</time>
      </trkpt>
      <trkpt lat="47.732386775314808" lon="12.237809468060732">
        <ele>1211.879150390625</ele>
        <time>2013-07-10T19:08:33Z</time>
      </trkpt>
      <trkpt lat="47.7320521697402" lon="12.237639147788286">
        <ele>1208.033935546875</ele>
        <time>2013-07-10T19:08:37Z</time>
      </trkpt>
      <trkpt lat="47.731879251077771" lon="12.237468492239714">
        <ele>1204.188720703125</ele>
        <time>2013-07-10T19:08:40Z</time>
      </trkpt>
      <trkpt lat="47.731747906655073" lon="12.237291885539889">
        <ele>1199.382080078125</ele>
        <time>2013-07-10T19:08:42Z</time>
      </trkpt>
      <trkpt lat="47.731640115380287" lon="12.23716976121068">
        <ele>1196.498291015625</ele>
        <time>2013-07-10T19:08:43Z</time>
      </trkpt>
      <trkpt lat="47.73154741153121" lon="12.237050319090486">
        <ele>1193.614013671875</ele>
        <time>2013-07-10T19:08:44Z</time>
      </trkpt>
      <trkpt lat="47.731172572821379" lon="12.236783858388662">
        <ele>1187.84619140625</ele>
        <time>2013-07-10T19:08:48Z</time>
      </trkpt>
      <trkpt lat="47.730875015258789" lon="12.236625272780657">
        <ele>1184.481689453125</ele>
        <time>2013-07-10T19:08:51Z</time>
      </trkpt>
      <trkpt lat="47.730563627555966" lon="12.23644707351923">
        <ele>1181.59765625</ele>
        <time>2013-07-10T19:08:54Z</time>
      </trkpt>
      <trkpt lat="47.730133216828108" lon="12.236257810145617">
        <ele>1179.194091796875</ele>
        <time>2013-07-10T19:08:58Z</time>
      </trkpt>
      <trkpt lat="47.729447409510612" lon="12.236078521236777">
        <ele>1177.752197265625</ele>
        <time>2013-07-10T19:09:05Z</time>
      </trkpt>
      <trkpt lat="47.729271808639169" lon="12.236026301980019">
        <ele>1176.310302734375</ele>
        <time>2013-07-10T19:09:07Z</time>
      </trkpt>
      <trkpt lat="47.72871776483953" lon="12.235679710283875">
        <ele>1173.426513671875</ele>
        <time>2013-07-10T19:09:14Z</time>
      </trkpt>
      <trkpt lat="47.728504110127687" lon="12.235483741387725">
        <ele>1171.984375</ele>
        <time>2013-07-10T19:09:17Z</time>
      </trkpt>
      <trkpt lat="47.728081913664937" lon="12.235200684517622">
        <ele>1173.906982421875</ele>
        <time>2013-07-10T19:09:23Z</time>
      </trkpt>
      <trkpt lat="47.727736327797174" lon="12.234923243522644">
        <ele>1170.54248046875</ele>
        <time>2013-07-10T19:09:29Z</time>
      </trkpt>
      <trkpt lat="47.727529965341091" lon="12.23476423881948">
        <ele>1167.177978515625</ele>
        <time>2013-07-10T19:09:32Z</time>
      </trkpt>
      <trkpt lat="47.72745905444026" lon="12.234704392030835">
        <ele>1167.177978515625</ele>
        <time>2013-07-10T19:09:33Z</time>
      </trkpt>
      <trkpt lat="47.727197371423244" lon="12.234459724277258">
        <ele>1164.2939453125</ele>
        <time>2013-07-10T19:09:37Z</time>
      </trkpt>
      <trkpt lat="47.726978017017245" lon="12.23429074510932">
        <ele>1160.448486328125</ele>
        <time>2013-07-10T19:09:40Z</time>
      </trkpt>
      <trkpt lat="47.726741312071681" lon="12.234159735962749">
        <ele>1158.52587890625</ele>
        <time>2013-07-10T19:09:43Z</time>
      </trkpt>
      <trkpt lat="47.726663528010249" lon="12.234122436493635">
        <ele>1157.564697265625</ele>
        <time>2013-07-10T19:09:44Z</time>
      </trkpt>
      <trkpt lat="47.726081069558859" lon="12.233680794015527">
        <ele>1158.04541015625</ele>
        <time>2013-07-10T19:09:52Z</time>
      </trkpt>
      <trkpt lat="47.725875042378902" lon="12.233570069074631">
        <ele>1156.12255859375</ele>
        <time>2013-07-10T19:09:56Z</time>
      </trkpt>
      <trkpt lat="47.725764568895102" lon="12.233498739078641">
        <ele>1154.6806640625</ele>
        <time>2013-07-10T19:09:58Z</time>
      </trkpt>
      <trkpt lat="47.725656777620316" lon="12.233380302786827">
        <ele>1153.719482421875</ele>
        <time>2013-07-10T19:10:00Z</time>
      </trkpt>
      <trkpt lat="47.725544292479753" lon="12.233144184574485">
        <ele>1153.719482421875</ele>
        <time>2013-07-10T19:10:03Z</time>
      </trkpt>
      <trkpt lat="47.725241705775261" lon="12.232129471376538">
        <ele>1152.27734375</ele>
        <time>2013-07-10T19:10:14Z</time>
      </trkpt>
      <trkpt lat="47.725135004147887" lon="12.231738371774554">
        <ele>1151.316162109375</ele>
        <time>2013-07-10T19:10:18Z</time>
      </trkpt>
      <trkpt lat="47.724958145990968" lon="12.23144207149744">
        <ele>1150.35498046875</ele>
        <time>2013-07-10T19:10:22Z</time>
      </trkpt>
      <trkpt lat="47.724765026941895" lon="12.231194889172912">
        <ele>1149.874267578125</ele>
        <time>2013-07-10T19:10:27Z</time>
      </trkpt>
      <trkpt lat="47.724767457693815" lon="12.231024820357561">
        <ele>1149.874267578125</ele>
        <time>2013-07-10T19:10:29Z</time>
      </trkpt>
      <trkpt lat="47.72476427257061" lon="12.230861624702811">
        <ele>1150.83544921875</ele>
        <time>2013-07-10T19:10:31Z</time>
      </trkpt>
      <trkpt lat="47.724627731367946" lon="12.230571527034044">
        <ele>1152.27734375</ele>
        <time>2013-07-10T19:10:36Z</time>
      </trkpt>
      <trkpt lat="47.724264794960618" lon="12.22998445853591">
        <ele>1154.2001953125</ele>
        <time>2013-07-10T19:10:47Z</time>
      </trkpt>
      <trkpt lat="47.723997747525573" lon="12.229375010356307">
        <ele>1154.6806640625</ele>
        <time>2013-07-10T19:10:57Z</time>
      </trkpt>
      <trkpt lat="47.723832540214062" lon="12.229001680389047">
        <ele>1157.083984375</ele>
        <time>2013-07-10T19:11:05Z</time>
      </trkpt>
      <trkpt lat="47.723747547715902" lon="12.228653077036142">
        <ele>1158.04541015625</ele>
        <time>2013-07-10T19:11:14Z</time>
      </trkpt>
      <trkpt lat="47.72375819273293" lon="12.228151420131326">
        <ele>1158.52587890625</ele>
        <time>2013-07-10T19:11:24Z</time>
      </trkpt>
      <trkpt lat="47.723768083378673" lon="12.227935586124659">
        <ele>1157.564697265625</ele>
        <time>2013-07-10T19:11:27Z</time>
      </trkpt>
      <trkpt lat="47.723767412826419" lon="12.227553203701973">
        <ele>1154.6806640625</ele>
        <time>2013-07-10T19:11:31Z</time>
      </trkpt>
      <trkpt lat="47.723768670111895" lon="12.227255394682288">
        <ele>1154.6806640625</ele>
        <time>2013-07-10T19:11:34Z</time>
      </trkpt>
      <trkpt lat="47.723790965974331" lon="12.227005949243903">
        <ele>1153.719482421875</ele>
        <time>2013-07-10T19:11:37Z</time>
      </trkpt>
      <trkpt lat="47.723890542984009" lon="12.226768070831895">
        <ele>1154.2001953125</ele>
        <time>2013-07-10T19:11:41Z</time>
      </trkpt>
      <trkpt lat="47.724008727818727" lon="12.226701099425554">
        <ele>1151.316162109375</ele>
        <time>2013-07-10T19:11:44Z</time>
      </trkpt>
      <trkpt lat="47.724107634276152" lon="12.226649383082986">
        <ele>1149.874267578125</ele>
        <time>2013-07-10T19:11:46Z</time>
      </trkpt>
      <trkpt lat="47.724226154386997" lon="12.226390466094017">
        <ele>1145.548095703125</ele>
        <time>2013-07-10T19:11:50Z</time>
      </trkpt>
      <trkpt lat="47.724256245419383" lon="12.226164992898703">
        <ele>1144.586669921875</ele>
        <time>2013-07-10T19:11:52Z</time>
      </trkpt>
      <trkpt lat="47.724282061681151" lon="12.225885624065995">
        <ele>1141.702880859375</ele>
        <time>2013-07-10T19:11:54Z</time>
      </trkpt>
      <trkpt lat="47.724395049735904" lon="12.225495781749487">
        <ele>1137.857666015625</ele>
        <time>2013-07-10T19:11:57Z</time>
      </trkpt>
      <trkpt lat="47.724494291469455" lon="12.225265866145492">
        <ele>1136.896240234375</ele>
        <time>2013-07-10T19:11:59Z</time>
      </trkpt>
      <trkpt lat="47.724688919261098" lon="12.224817685782909">
        <ele>1135.93505859375</ele>
        <time>2013-07-10T19:12:04Z</time>
      </trkpt>
      <trkpt lat="47.72472906857729" lon="12.224699752405286">
        <ele>1135.454345703125</ele>
        <time>2013-07-10T19:12:06Z</time>
      </trkpt>
      <trkpt lat="47.724642064422369" lon="12.224445026367903">
        <ele>1132.570556640625</ele>
        <time>2013-07-10T19:12:10Z</time>
      </trkpt>
      <trkpt lat="47.724460260942578" lon="12.224286273121834">
        <ele>1128.72509765625</ele>
        <time>2013-07-10T19:12:13Z</time>
      </trkpt>
      <trkpt lat="47.72431667894125" lon="12.224221397191286">
        <ele>1124.8798828125</ele>
        <time>2013-07-10T19:12:16Z</time>
      </trkpt>
      <trkpt lat="47.724281474947929" lon="12.224216032773256">
        <ele>1123.91845703125</ele>
        <time>2013-07-10T19:12:17Z</time>
      </trkpt>
      <trkpt lat="47.724081566557288" lon="12.224349221214652">
        <ele>1120.0732421875</ele>
        <time>2013-07-10T19:12:21Z</time>
      </trkpt>
      <trkpt lat="47.723891129717231" lon="12.224575029686093">
        <ele>1116.22802734375</ele>
        <time>2013-07-10T19:12:26Z</time>
      </trkpt>
      <trkpt lat="47.723768167197704" lon="12.224476626142859">
        <ele>1113.824462890625</ele>
        <time>2013-07-10T19:12:29Z</time>
      </trkpt>
      <trkpt lat="47.723661884665489" lon="12.224071444943547">
        <ele>1109.498779296875</ele>
        <time>2013-07-10T19:12:33Z</time>
      </trkpt>
      <trkpt lat="47.723528277128935" lon="12.223730888217688">
        <ele>1104.692138671875</ele>
        <time>2013-07-10T19:12:36Z</time>
      </trkpt>
      <trkpt lat="47.723411601036787" lon="12.223438359797001">
        <ele>1101.32763671875</ele>
        <time>2013-07-10T19:12:39Z</time>
      </trkpt>
      <trkpt lat="47.72332526743412" lon="12.223147172480822">
        <ele>1097.962890625</ele>
        <time>2013-07-10T19:12:42Z</time>
      </trkpt>
      <trkpt lat="47.723240107297897" lon="12.222859673202038">
        <ele>1094.59814453125</ele>
        <time>2013-07-10T19:12:45Z</time>
      </trkpt>
      <trkpt lat="47.723222002387047" lon="12.222764035686851">
        <ele>1093.636962890625</ele>
        <time>2013-07-10T19:12:46Z</time>
      </trkpt>
      <trkpt lat="47.723202724009752" lon="12.222439907491207">
        <ele>1091.233642578125</ele>
        <time>2013-07-10T19:12:50Z</time>
      </trkpt>
      <trkpt lat="47.723288973793387" lon="12.222010083496571">
        <ele>1086.90771484375</ele>
        <time>2013-07-10T19:12:54Z</time>
      </trkpt>
      <trkpt lat="47.723370110616088" lon="12.221622923389077">
        <ele>1083.062255859375</ele>
        <time>2013-07-10T19:12:57Z</time>
      </trkpt>
      <trkpt lat="47.723551662638783" lon="12.22104893065989">
        <ele>1079.217041015625</ele>
        <time>2013-07-10T19:13:02Z</time>
      </trkpt>
      <trkpt lat="47.723742853850126" lon="12.220468819141388">
        <ele>1075.8525390625</ele>
        <time>2013-07-10T19:13:07Z</time>
      </trkpt>
      <trkpt lat="47.723776297643781" lon="12.220364464446902">
        <ele>1074.41064453125</ele>
        <time>2013-07-10T19:13:08Z</time>
      </trkpt>
      <trkpt lat="47.723821140825748" lon="12.220153240486979">
        <ele>1073.929931640625</ele>
        <time>2013-07-10T19:13:10Z</time>
      </trkpt>
      <trkpt lat="47.723850561305881" lon="12.219653259962797">
        <ele>1070.084716796875</ele>
        <time>2013-07-10T19:13:14Z</time>
      </trkpt>
      <trkpt lat="47.723840419203043" lon="12.219272973015904">
        <ele>1068.642822265625</ele>
        <time>2013-07-10T19:13:17Z</time>
      </trkpt>
      <trkpt lat="47.723850309848785" lon="12.218954628333449">
        <ele>1066.2392578125</ele>
        <time>2013-07-10T19:13:20Z</time>
      </trkpt>
      <trkpt lat="47.723983582109213" lon="12.218463448807597">
        <ele>1061.432861328125</ele>
        <time>2013-07-10T19:13:24Z</time>
      </trkpt>
      <trkpt lat="47.724099503830075" lon="12.218281226232648">
        <ele>1058.068359375</ele>
        <time>2013-07-10T19:13:26Z</time>
      </trkpt>
      <trkpt lat="47.724412400275469" lon="12.218098752200603">
        <ele>1054.70361328125</ele>
        <time>2013-07-10T19:13:30Z</time>
      </trkpt>
      <trkpt lat="47.724719932302833" lon="12.218139991164207">
        <ele>1051.819580078125</ele>
        <time>2013-07-10T19:13:34Z</time>
      </trkpt>
      <trkpt lat="47.724891090765595" lon="12.2182163503021">
        <ele>1050.377685546875</ele>
        <time>2013-07-10T19:13:37Z</time>
      </trkpt>
      <trkpt lat="47.724953703582287" lon="12.218170166015625">
        <ele>1049.416259765625</ele>
        <time>2013-07-10T19:13:39Z</time>
      </trkpt>
      <trkpt lat="47.724889162927866" lon="12.217913260683417">
        <ele>1046.0517578125</ele>
        <time>2013-07-10T19:13:43Z</time>
      </trkpt>
      <trkpt lat="47.724710460752249" lon="12.217761632055044">
        <ele>1043.6484375</ele>
        <time>2013-07-10T19:13:46Z</time>
      </trkpt>
      <trkpt lat="47.724373508244753" lon="12.217610506340861">
        <ele>1038.842041015625</ele>
        <time>2013-07-10T19:13:50Z</time>
      </trkpt>
      <trkpt lat="47.72419597953558" lon="12.217538254335523">
        <ele>1035.47705078125</ele>
        <time>2013-07-10T19:13:52Z</time>
      </trkpt>
      <trkpt lat="47.723894063383341" lon="12.217396181076765">
        <ele>1031.6318359375</ele>
        <time>2013-07-10T19:13:55Z</time>
      </trkpt>
      <trkpt lat="47.723570102825761" lon="12.217301884666085">
        <ele>1027.78662109375</ele>
        <time>2013-07-10T19:13:58Z</time>
      </trkpt>
      <trkpt lat="47.723470777273178" lon="12.217286881059408">
        <ele>1027.30615234375</ele>
        <time>2013-07-10T19:13:59Z</time>
      </trkpt>
      <trkpt lat="47.723306743428111" lon="12.217224100604653">
        <ele>1026.825439453125</ele>
        <time>2013-07-10T19:14:01Z</time>
      </trkpt>
      <trkpt lat="47.723028715699911" lon="12.217294340953231">
        <ele>1023.94140625</ele>
        <time>2013-07-10T19:14:05Z</time>
      </trkpt>
      <trkpt lat="47.722836099565029" lon="12.217471282929182">
        <ele>1022.49951171875</ele>
        <time>2013-07-10T19:14:08Z</time>
      </trkpt>
      <trkpt lat="47.722797291353345" lon="12.21770572476089">
        <ele>1021.0576171875</ele>
        <time>2013-07-10T19:14:11Z</time>
      </trkpt>
      <trkpt lat="47.722797961905599" lon="12.217825166881084">
        <ele>1020.576904296875</ele>
        <time>2013-07-10T19:14:12Z</time>
      </trkpt>
      <trkpt lat="47.722758147865534" lon="12.218112666159868">
        <ele>1018.17333984375</ele>
        <time>2013-07-10T19:14:14Z</time>
      </trkpt>
      <trkpt lat="47.722570141777396" lon="12.218347694724798">
        <ele>1015.770263671875</ele>
        <time>2013-07-10T19:14:18Z</time>
      </trkpt>
      <trkpt lat="47.722434354946017" lon="12.218176200985909">
        <ele>1014.328125</ele>
        <time>2013-07-10T19:14:21Z</time>
      </trkpt>
      <trkpt lat="47.722443742677569" lon="12.2179573494941">
        <ele>1013.366943359375</ele>
        <time>2013-07-10T19:14:23Z</time>
      </trkpt>
      <trkpt lat="47.722558826208115" lon="12.217388637363911">
        <ele>1013.366943359375</ele>
        <time>2013-07-10T19:14:28Z</time>
      </trkpt>
      <trkpt lat="47.722739707678556" lon="12.217010194435716">
        <ele>1013.366943359375</ele>
        <time>2013-07-10T19:14:33Z</time>
      </trkpt>
      <trkpt lat="47.723000133410096" lon="12.216708613559604">
        <ele>1012.88623046875</ele>
        <time>2013-07-10T19:14:38Z</time>
      </trkpt>
      <trkpt lat="47.723123515024781" lon="12.216482721269131">
        <ele>1012.405517578125</ele>
        <time>2013-07-10T19:14:41Z</time>
      </trkpt>
      <trkpt lat="47.723190821707249" lon="12.216305946931243">
        <ele>1011.925048828125</ele>
        <time>2013-07-10T19:14:43Z</time>
      </trkpt>
      <trkpt lat="47.723254021257162" lon="12.216096818447113">
        <ele>1010.002197265625</ele>
        <time>2013-07-10T19:14:45Z</time>
      </trkpt>
      <trkpt lat="47.723381845280528" lon="12.215747628360987">
        <ele>1007.118408203125</ele>
        <time>2013-07-10T19:14:48Z</time>
      </trkpt>
      <trkpt lat="47.723513273522258" lon="12.215144382789731">
        <ele>1002.792236328125</ele>
        <time>2013-07-10T19:14:52Z</time>
      </trkpt>
      <trkpt lat="47.723461640998721" lon="12.214596290141344">
        <ele>1001.8310546875</ele>
        <time>2013-07-10T19:14:56Z</time>
      </trkpt>
      <trkpt lat="47.72328226827085" lon="12.213869076222181">
        <ele>998.947021484375</ele>
        <time>2013-07-10T19:15:02Z</time>
      </trkpt>
      <trkpt lat="47.723259469494224" lon="12.213610075414181">
        <ele>997.98583984375</ele>
        <time>2013-07-10T19:15:04Z</time>
      </trkpt>
      <trkpt lat="47.723318310454488" lon="12.213073633611202">
        <ele>994.62109375</ele>
        <time>2013-07-10T19:15:08Z</time>
      </trkpt>
      <trkpt lat="47.723430460318923" lon="12.212281879037619">
        <ele>995.58251953125</ele>
        <time>2013-07-10T19:15:14Z</time>
      </trkpt>
      <trkpt lat="47.723457952961326" lon="12.211834536865354">
        <ele>995.58251953125</ele>
        <time>2013-07-10T19:15:18Z</time>
      </trkpt>
      <trkpt lat="47.723488211631775" lon="12.211507055908442">
        <ele>996.063232421875</ele>
        <time>2013-07-10T19:15:22Z</time>
      </trkpt>
      <trkpt lat="47.723471950739622" lon="12.211480820551515">
        <ele>996.063232421875</ele>
        <time>2013-07-10T19:15:26Z</time>
      </trkpt>
      <trkpt lat="47.723459964618087" lon="12.211491633206606">
        <ele>995.58251953125</ele>
        <time>2013-07-10T19:15:30Z</time>
      </trkpt>
      <trkpt lat="47.723457282409072" lon="12.211738061159849">
        <ele>996.063232421875</ele>
        <time>2013-07-10T19:15:39Z</time>
      </trkpt>
      <trkpt lat="47.723435489460826" lon="12.211809726431966">
        <ele>996.5439453125</ele>
        <time>2013-07-10T19:15:45Z</time>
      </trkpt>
      <trkpt lat="47.7234420273453" lon="12.211811486631632">
        <ele>996.5439453125</ele>
        <time>2013-07-10T19:15:46Z</time>
      </trkpt>
      <trkpt lat="47.723614694550633" lon="12.211707131937146">
        <ele>992.69873046875</ele>
        <time>2013-07-10T19:15:52Z</time>
      </trkpt>
      <trkpt lat="47.724107215180993" lon="12.211459446698427">
        <ele>989.814697265625</ele>
        <time>2013-07-10T19:15:59Z</time>
      </trkpt>
      <trkpt lat="47.724176533520222" lon="12.211418710649014">
        <ele>989.333984375</ele>
        <time>2013-07-10T19:16:00Z</time>
      </trkpt>
      <trkpt lat="47.72448523901403" lon="12.21143807284534">
        <ele>988.853515625</ele>
        <time>2013-07-10T19:16:05Z</time>
      </trkpt>
      <trkpt lat="47.724611470475793" lon="12.211500601842999">
        <ele>988.372802734375</ele>
        <time>2013-07-10T19:16:07Z</time>
      </trkpt>
      <trkpt lat="47.724785311147571" lon="12.211628425866365">
        <ele>989.814697265625</ele>
        <time>2013-07-10T19:16:11Z</time>
      </trkpt>
      <trkpt lat="47.724955128505826" lon="12.211765721440315">
        <ele>984.52734375</ele>
        <time>2013-07-10T19:16:15Z</time>
      </trkpt>
      <trkpt lat="47.725237179547548" lon="12.211991781368852">
        <ele>978.27880859375</ele>
        <time>2013-07-10T19:16:19Z</time>
      </trkpt>
      <trkpt lat="47.725444715470076" lon="12.212056489661336">
        <ele>974.43359375</ele>
        <time>2013-07-10T19:16:21Z</time>
      </trkpt>
      <trkpt lat="47.725677229464054" lon="12.212066883221269">
        <ele>972.99169921875</ele>
        <time>2013-07-10T19:16:23Z</time>
      </trkpt>
      <trkpt lat="47.725940253585577" lon="12.212083479389548">
        <ele>969.146240234375</ele>
        <time>2013-07-10T19:16:25Z</time>
      </trkpt>
      <trkpt lat="47.726191291585565" lon="12.212093621492386">
        <ele>968.184814453125</ele>
        <time>2013-07-10T19:16:27Z</time>
      </trkpt>
      <trkpt lat="47.72636890411377" lon="12.212073504924774">
        <ele>969.626953125</ele>
        <time>2013-07-10T19:16:29Z</time>
      </trkpt>
      <trkpt lat="47.726534530520439" lon="12.212065458297729">
        <ele>967.7041015625</ele>
        <time>2013-07-10T19:16:31Z</time>
      </trkpt>
      <trkpt lat="47.726873578503728" lon="12.212147768586874">
        <ele>963.37841796875</ele>
        <time>2013-07-10T19:16:35Z</time>
      </trkpt>
      <trkpt lat="47.726969718933105" lon="12.212181128561497">
        <ele>963.37841796875</ele>
        <time>2013-07-10T19:16:36Z</time>
      </trkpt>
      <trkpt lat="47.72739116102457" lon="12.2123708948493">
        <ele>960.494384765625</ele>
        <time>2013-07-10T19:16:41Z</time>
      </trkpt>
      <trkpt lat="47.727924166247249" lon="12.212447421625257">
        <ele>956.649169921875</ele>
        <time>2013-07-10T19:16:46Z</time>
      </trkpt>
      <trkpt lat="47.728260112926364" lon="12.212463095784187">
        <ele>956.649169921875</ele>
        <time>2013-07-10T19:16:49Z</time>
      </trkpt>
      <trkpt lat="47.728743832558393" lon="12.212508274242282">
        <ele>955.20703125</ele>
        <time>2013-07-10T19:16:54Z</time>
      </trkpt>
      <trkpt lat="47.729064272716641" lon="12.212815973907709">
        <ele>955.687744140625</ele>
        <time>2013-07-10T19:16:59Z</time>
      </trkpt>
      <trkpt lat="47.729302318766713" lon="12.213150579482317">
        <ele>957.610595703125</ele>
        <time>2013-07-10T19:17:04Z</time>
      </trkpt>
      <trkpt lat="47.729370044544339" lon="12.213344536721706">
        <ele>959.052490234375</ele>
        <time>2013-07-10T19:17:07Z</time>
      </trkpt>
      <trkpt lat="47.729379516094923" lon="12.213396085426211">
        <ele>959.533203125</ele>
        <time>2013-07-10T19:17:08Z</time>
      </trkpt>
      <trkpt lat="47.729505831375718" lon="12.213611165061593">
        <ele>960.013671875</ele>
        <time>2013-07-10T19:17:13Z</time>
      </trkpt>
      <trkpt lat="47.729656957089901" lon="12.213759943842888">
        <ele>959.052490234375</ele>
        <time>2013-07-10T19:17:17Z</time>
      </trkpt>
      <trkpt lat="47.729826439172029" lon="12.213855078443885">
        <ele>955.20703125</ele>
        <time>2013-07-10T19:17:21Z</time>
      </trkpt>
      <trkpt lat="47.730119889602065" lon="12.213811324909329">
        <ele>950.881103515625</ele>
        <time>2013-07-10T19:17:25Z</time>
      </trkpt>
      <trkpt lat="47.730217454954982" lon="12.213787185028195">
        <ele>948.95849609375</ele>
        <time>2013-07-10T19:17:26Z</time>
      </trkpt>
      <trkpt lat="47.730574188753963" lon="12.213812414556742">
        <ele>941.748779296875</ele>
        <time>2013-07-10T19:17:29Z</time>
      </trkpt>
      <trkpt lat="47.730667144060135" lon="12.213811408728361">
        <ele>941.26806640625</ele>
        <time>2013-07-10T19:17:30Z</time>
      </trkpt>
      <trkpt lat="47.730833860114217" lon="12.213798584416509">
        <ele>939.825927734375</ele>
        <time>2013-07-10T19:17:32Z</time>
      </trkpt>
      <trkpt lat="47.731161005795002" lon="12.213686853647232">
        <ele>935.5</ele>
        <time>2013-07-10T19:17:36Z</time>
      </trkpt>
      <trkpt lat="47.731312299147248" lon="12.213553497567773">
        <ele>934.538818359375</ele>
        <time>2013-07-10T19:17:38Z</time>
      </trkpt>
      <trkpt lat="47.731404416263103" lon="12.213291479274631">
        <ele>934.05810546875</ele>
        <time>2013-07-10T19:17:41Z</time>
      </trkpt>
      <trkpt lat="47.731376085430384" lon="12.213121159002185">
        <ele>932.6162109375</ele>
        <time>2013-07-10T19:17:43Z</time>
      </trkpt>
      <trkpt lat="47.731199394911528" lon="12.212792504578829">
        <ele>925.886962890625</ele>
        <time>2013-07-10T19:17:47Z</time>
      </trkpt>
      <trkpt lat="47.731049777939916" lon="12.212333846837282">
        <ele>922.04150390625</ele>
        <time>2013-07-10T19:17:51Z</time>
      </trkpt>
      <trkpt lat="47.73118095472455" lon="12.212058668956161">
        <ele>917.715576171875</ele>
        <time>2013-07-10T19:17:55Z</time>
      </trkpt>
      <trkpt lat="47.731408858671784" lon="12.211880385875702">
        <ele>911.947998046875</ele>
        <time>2013-07-10T19:17:58Z</time>
      </trkpt>
      <trkpt lat="47.731492593884468" lon="12.211827328428626">
        <ele>910.505859375</ele>
        <time>2013-07-10T19:17:59Z</time>
      </trkpt>
      <trkpt lat="47.73177171126008" lon="12.211704533547163">
        <ele>906.1796875</ele>
        <time>2013-07-10T19:18:02Z</time>
      </trkpt>
      <trkpt lat="47.731976145878434" lon="12.21163546666503">
        <ele>902.815185546875</ele>
        <time>2013-07-10T19:18:04Z</time>
      </trkpt>
      <trkpt lat="47.732312511652708" lon="12.211589869111776">
        <ele>899.45068359375</ele>
        <time>2013-07-10T19:18:08Z</time>
      </trkpt>
      <trkpt lat="47.732591461390257" lon="12.211620965972543">
        <ele>896.086181640625</ele>
        <time>2013-07-10T19:18:11Z</time>
      </trkpt>
      <trkpt lat="47.732900502160192" lon="12.211660947650671">
        <ele>892.7216796875</ele>
        <time>2013-07-10T19:18:14Z</time>
      </trkpt>
      <trkpt lat="47.732996642589569" lon="12.21165994182229">
        <ele>891.760009765625</ele>
        <time>2013-07-10T19:18:15Z</time>
      </trkpt>
      <trkpt lat="47.733375336974859" lon="12.211742922663689">
        <ele>890.798583984375</ele>
        <time>2013-07-10T19:18:20Z</time>
      </trkpt>
      <trkpt lat="47.733429903164506" lon="12.211778126657009">
        <ele>890.798583984375</ele>
        <time>2013-07-10T19:18:21Z</time>
      </trkpt>
      <trkpt lat="47.733673229813576" lon="12.211974011734128">
        <ele>886.472900390625</ele>
        <time>2013-07-10T19:18:25Z</time>
      </trkpt>
      <trkpt lat="47.734042955562472" lon="12.212285147979856">
        <ele>882.14697265625</ele>
        <time>2013-07-10T19:18:30Z</time>
      </trkpt>
      <trkpt lat="47.734111519530416" lon="12.212336780503392">
        <ele>879.74365234375</ele>
        <time>2013-07-10T19:18:31Z</time>
      </trkpt>
      <trkpt lat="47.734273290261626" lon="12.212459575384855">
        <ele>876.85986328125</ele>
        <time>2013-07-10T19:18:34Z</time>
      </trkpt>
      <trkpt lat="47.734521813690662" lon="12.212476087734103">
        <ele>870.611083984375</ele>
        <time>2013-07-10T19:18:38Z</time>
      </trkpt>
      <trkpt lat="47.73467168211937" lon="12.212420180439949">
        <ele>867.72705078125</ele>
        <time>2013-07-10T19:18:40Z</time>
      </trkpt>
      <trkpt lat="47.734760697931051" lon="12.212394028902054">
        <ele>865.8046875</ele>
        <time>2013-07-10T19:18:41Z</time>
      </trkpt>
      <trkpt lat="47.735180547460914" lon="12.212404506281018">
        <ele>861.478759765625</ele>
        <time>2013-07-10T19:18:45Z</time>
      </trkpt>
      <trkpt lat="47.735287584364414" lon="12.212390005588531">
        <ele>861.478759765625</ele>
        <time>2013-07-10T19:18:46Z</time>
      </trkpt>
      <trkpt lat="47.735482128337026" lon="12.212418168783188">
        <ele>860.03662109375</ele>
        <time>2013-07-10T19:18:48Z</time>
      </trkpt>
      <trkpt lat="47.735675079748034" lon="12.212458737194538">
        <ele>858.594482421875</ele>
        <time>2013-07-10T19:18:50Z</time>
      </trkpt>
      <trkpt lat="47.73588496260345" lon="12.212529480457306">
        <ele>857.152587890625</ele>
        <time>2013-07-10T19:18:52Z</time>
      </trkpt>
      <trkpt lat="47.736003650352359" lon="12.212558649480343">
        <ele>856.191162109375</ele>
        <time>2013-07-10T19:18:53Z</time>
      </trkpt>
      <trkpt lat="47.736516455188394" lon="12.212818656116724">
        <ele>853.7880859375</ele>
        <time>2013-07-10T19:18:58Z</time>
      </trkpt>
      <trkpt lat="47.736739162355661" lon="12.212999956682324">
        <ele>851.384765625</ele>
        <time>2013-07-10T19:19:01Z</time>
      </trkpt>
      <trkpt lat="47.736941250041127" lon="12.213104059919715">
        <ele>849.462158203125</ele>
        <time>2013-07-10T19:19:04Z</time>
      </trkpt>
      <trkpt lat="47.737154150381684" lon="12.213218221440911">
        <ele>847.058837890625</ele>
        <time>2013-07-10T19:19:07Z</time>
      </trkpt>
      <trkpt lat="47.737426562234759" lon="12.213668078184128">
        <ele>843.694091796875</ele>
        <time>2013-07-10T19:19:12Z</time>
      </trkpt>
      <trkpt lat="47.737766364589334" lon="12.214152300730348">
        <ele>841.290771484375</ele>
        <time>2013-07-10T19:19:17Z</time>
      </trkpt>
      <trkpt lat="47.73802075535059" lon="12.214449103921652">
        <ele>841.771484375</ele>
        <time>2013-07-10T19:19:21Z</time>
      </trkpt>
      <trkpt lat="47.738190740346909" lon="12.214609617367387">
        <ele>843.694091796875</ele>
        <time>2013-07-10T19:19:24Z</time>
      </trkpt>
      <trkpt lat="47.738458374515176" lon="12.21465764567256">
        <ele>845.13623046875</ele>
        <time>2013-07-10T19:19:28Z</time>
      </trkpt>
      <trkpt lat="47.738679237663746" lon="12.214749092236161">
        <ele>845.616943359375</ele>
        <time>2013-07-10T19:19:33Z</time>
      </trkpt>
      <trkpt lat="47.738736234605312" lon="12.214798796921968">
        <ele>846.578369140625</ele>
        <time>2013-07-10T19:19:35Z</time>
      </trkpt>
      <trkpt lat="47.738867495208979" lon="12.21500800922513">
        <ele>846.09765625</ele>
        <time>2013-07-10T19:19:39Z</time>
      </trkpt>
      <trkpt lat="47.7389354724437" lon="12.21510817296803">
        <ele>845.13623046875</ele>
        <time>2013-07-10T19:19:41Z</time>
      </trkpt>
      <trkpt lat="47.739118868485093" lon="12.215304728597403">
        <ele>843.21337890625</ele>
        <time>2013-07-10T19:19:44Z</time>
      </trkpt>
      <trkpt lat="47.739512817934155" lon="12.215458452701569">
        <ele>844.175048828125</ele>
        <time>2013-07-10T19:19:50Z</time>
      </trkpt>
      <trkpt lat="47.739675510674715" lon="12.215554341673851">
        <ele>846.578369140625</ele>
        <time>2013-07-10T19:19:53Z</time>
      </trkpt>
      <trkpt lat="47.73993719369173" lon="12.215804206207395">
        <ele>846.09765625</ele>
        <time>2013-07-10T19:19:58Z</time>
      </trkpt>
      <trkpt lat="47.739996872842312" lon="12.215912584215403">
        <ele>845.616943359375</ele>
        <time>2013-07-10T19:20:02Z</time>
      </trkpt>
      <trkpt lat="47.740175994113088" lon="12.216037893667817">
        <ele>848.020263671875</ele>
        <time>2013-07-10T19:20:06Z</time>
      </trkpt>
      <trkpt lat="47.740360060706735" lon="12.216128837317228">
        <ele>848.500732421875</ele>
        <time>2013-07-10T19:20:09Z</time>
      </trkpt>
      <trkpt lat="47.740475228056312" lon="12.216202011331916">
        <ele>847.058837890625</ele>
        <time>2013-07-10T19:20:11Z</time>
      </trkpt>
      <trkpt lat="47.740721823647618" lon="12.216234365478158">
        <ele>843.694091796875</ele>
        <time>2013-07-10T19:20:15Z</time>
      </trkpt>
      <trkpt lat="47.740942100062966" lon="12.21617141738534">
        <ele>839.3681640625</ele>
        <time>2013-07-10T19:20:19Z</time>
      </trkpt>
      <trkpt lat="47.74110009893775" lon="12.216081898659468">
        <ele>838.406982421875</ele>
        <time>2013-07-10T19:20:21Z</time>
      </trkpt>
      <trkpt lat="47.741407379508018" lon="12.216220954433084">
        <ele>833.11962890625</ele>
        <time>2013-07-10T19:20:24Z</time>
      </trkpt>
      <trkpt lat="47.74152816273272" lon="12.216282561421394">
        <ele>831.677734375</ele>
        <time>2013-07-10T19:20:25Z</time>
      </trkpt>
      <trkpt lat="47.741980198770761" lon="12.21624132245779">
        <ele>825.90966796875</ele>
        <time>2013-07-10T19:20:29Z</time>
      </trkpt>
      <trkpt lat="47.742087738588452" lon="12.216231431812048">
        <ele>825.428955078125</ele>
        <time>2013-07-10T19:20:30Z</time>
      </trkpt>
      <trkpt lat="47.742608170956373" lon="12.216412061825395">
        <ele>820.62255859375</ele>
        <time>2013-07-10T19:20:35Z</time>
      </trkpt>
      <trkpt lat="47.742984853684902" lon="12.216394962742925">
        <ele>816.77734375</ele>
        <time>2013-07-10T19:20:40Z</time>
      </trkpt>
      <trkpt lat="47.743283081799746" lon="12.216279627755284">
        <ele>815.33544921875</ele>
        <time>2013-07-10T19:20:45Z</time>
      </trkpt>
      <trkpt lat="47.743281573057175" lon="12.216256996616721">
        <ele>815.33544921875</ele>
        <time>2013-07-10T19:20:46Z</time>
      </trkpt>
      <trkpt lat="47.743283249437809" lon="12.216309634968638">
        <ele>815.816162109375</ele>
        <time>2013-07-10T19:20:52Z</time>
      </trkpt>
      <trkpt lat="47.743286434561014" lon="12.216227995231748">
        <ele>816.296630859375</ele>
        <time>2013-07-10T19:20:55Z</time>
      </trkpt>
      <trkpt lat="47.743179062381387" lon="12.216063290834427">
        <ele>816.296630859375</ele>
        <time>2013-07-10T19:21:00Z</time>
      </trkpt>
      <trkpt lat="47.742899693548679" lon="12.215886432677507">
        <ele>816.77734375</ele>
        <time>2013-07-10T19:21:07Z</time>
      </trkpt>
      <trkpt lat="47.742457715794444" lon="12.215737318620086">
        <ele>816.296630859375</ele>
        <time>2013-07-10T19:21:15Z</time>
      </trkpt>
      <trkpt lat="47.742259902879596" lon="12.215669257566333">
        <ele>815.33544921875</ele>
        <time>2013-07-10T19:21:18Z</time>
      </trkpt>
      <trkpt lat="47.741881543770432" lon="12.215392403304577">
        <ele>812.93212890625</ele>
        <time>2013-07-10T19:21:23Z</time>
      </trkpt>
      <trkpt lat="47.74180811829865" lon="12.215378740802407">
        <ele>813.412841796875</ele>
        <time>2013-07-10T19:21:24Z</time>
      </trkpt>
      <trkpt lat="47.74146219715476" lon="12.215111022815108">
        <ele>812.451416015625</ele>
        <time>2013-07-10T19:21:29Z</time>
      </trkpt>
      <trkpt lat="47.741216691210866" lon="12.214862331748009">
        <ele>811.489990234375</ele>
        <time>2013-07-10T19:21:33Z</time>
      </trkpt>
      <trkpt lat="47.741170842200518" lon="12.214567456394434">
        <ele>808.60595703125</ele>
        <time>2013-07-10T19:21:36Z</time>
      </trkpt>
      <trkpt lat="47.741072690114379" lon="12.2144397161901">
        <ele>805.72216796875</ele>
        <time>2013-07-10T19:21:38Z</time>
      </trkpt>
      <trkpt lat="47.740875547751784" lon="12.214212231338024">
        <ele>803.799560546875</ele>
        <time>2013-07-10T19:21:41Z</time>
      </trkpt>
      <trkpt lat="47.740915277972817" lon="12.213900843635201">
        <ele>803.799560546875</ele>
        <time>2013-07-10T19:21:44Z</time>
      </trkpt>
      <trkpt lat="47.741093225777149" lon="12.213736558333039">
        <ele>804.7607421875</ele>
        <time>2013-07-10T19:21:47Z</time>
      </trkpt>
      <trkpt lat="47.741243345662951" lon="12.213660785928369">
        <ele>807.644775390625</ele>
        <time>2013-07-10T19:21:50Z</time>
      </trkpt>
      <trkpt lat="47.741537131369114" lon="12.213260130956769">
        <ele>808.12548828125</ele>
        <time>2013-07-10T19:21:57Z</time>
      </trkpt>
      <trkpt lat="47.741676606237888" lon="12.212821505963802">
        <ele>804.7607421875</ele>
        <time>2013-07-10T19:22:01Z</time>
      </trkpt>
      <trkpt lat="47.74177341721952" lon="12.212383383885026">
        <ele>800.43505859375</ele>
        <time>2013-07-10T19:22:04Z</time>
      </trkpt>
      <trkpt lat="47.741798982024193" lon="12.212246675044298">
        <ele>799.954345703125</ele>
        <time>2013-07-10T19:22:05Z</time>
      </trkpt>
      <trkpt lat="47.74185162037611" lon="12.211941909044981">
        <ele>798.992919921875</ele>
        <time>2013-07-10T19:22:09Z</time>
      </trkpt>
      <trkpt lat="47.741865869611502" lon="12.211912991479039">
        <ele>799.4736328125</ele>
        <time>2013-07-10T19:22:10Z</time>
      </trkpt>
      <trkpt lat="47.741844495758414" lon="12.211864544078708">
        <ele>798.51220703125</ele>
        <time>2013-07-10T19:22:15Z</time>
      </trkpt>
      <trkpt lat="47.741808788850904" lon="12.211969736963511">
        <ele>798.992919921875</ele>
        <time>2013-07-10T19:22:20Z</time>
      </trkpt>
      <trkpt lat="47.741799065843225" lon="12.212044838815928">
        <ele>798.992919921875</ele>
        <time>2013-07-10T19:22:23Z</time>
      </trkpt>
      <trkpt lat="47.741764532402158" lon="12.2121118940413">
        <ele>799.954345703125</ele>
        <time>2013-07-10T19:22:30Z</time>
      </trkpt>
      <trkpt lat="47.74174802005291" lon="12.212106781080365">
        <ele>799.4736328125</ele>
        <time>2013-07-10T19:22:41Z</time>
      </trkpt>
      <trkpt lat="47.741745170205832" lon="12.21210652962327">
        <ele>798.992919921875</ele>
        <time>2013-07-10T19:23:07Z</time>
      </trkpt>
      <trkpt lat="47.741743074730039" lon="12.212104937061667">
        <ele>798.03173828125</ele>
        <time>2013-07-10T19:23:39Z</time>
      </trkpt>
      <trkpt lat="47.741755479946733" lon="12.212107451632619">
        <ele>798.992919921875</ele>
        <time>2013-07-10T19:23:47Z</time>
      </trkpt>
      <trkpt lat="47.741748942062259" lon="12.212126227095723">
        <ele>797.0703125</ele>
        <time>2013-07-10T19:23:57Z</time>
      </trkpt>
      <trkpt lat="47.741748271510005" lon="12.212124885991216">
        <ele>798.03173828125</ele>
        <time>2013-07-10T19:24:16Z</time>
      </trkpt>
    </trkseg>
  </trk>

</gpx>
